<?xml version="1.0" encoding="UTF-8" standalone="no" ?>
<gpx xmlns="http://www.topografix.com/GPX/1/1" xmlns:xsi="http://www.w3.org/2001/XMLSchema-instance" xsi:schemaLocation="http://www.topografix.com/GPX/1/1 http://www.topografix.com/GPX/1/1/gpx.xsd" version="1.1" creator="VisuGPX - https://www.visugpx.com">
  <metadata>
    <name>boucle st julien</name>
  </metadata>
  <trk>
    <name><![CDATA[boucle st julien_1]]></name>
    <trkseg>
      <trkpt lat="48.44512" lon="-2.80147">
        <ele>156.9</ele>
        <time>2020-07-02T12:36:09Z</time>
      </trkpt>
      <trkpt lat="48.44511" lon="-2.80163">
        <ele>157.4</ele>
        <time>2020-07-02T12:36:12Z</time>
      </trkpt>
      <trkpt lat="48.44512" lon="-2.80179">
        <ele>157.7</ele>
        <time>2020-07-02T12:36:15Z</time>
      </trkpt>
      <trkpt lat="48.44512" lon="-2.80193">
        <ele>158</ele>
        <time>2020-07-02T12:36:18Z</time>
      </trkpt>
      <trkpt lat="48.44515" lon="-2.80206">
        <ele>158.3</ele>
        <time>2020-07-02T12:36:21Z</time>
      </trkpt>
      <trkpt lat="48.4452" lon="-2.8022">
        <ele>158.6</ele>
        <time>2020-07-02T12:36:24Z</time>
      </trkpt>
      <trkpt lat="48.44525" lon="-2.80235">
        <ele>158.7</ele>
        <time>2020-07-02T12:36:27Z</time>
      </trkpt>
      <trkpt lat="48.44534" lon="-2.8025">
        <ele>158.7</ele>
        <time>2020-07-02T12:36:30Z</time>
      </trkpt>
      <trkpt lat="48.44544" lon="-2.80262">
        <ele>159.4</ele>
        <time>2020-07-02T12:36:33Z</time>
      </trkpt>
      <trkpt lat="48.44557" lon="-2.80274">
        <ele>159.8</ele>
        <time>2020-07-02T12:36:36Z</time>
      </trkpt>
      <trkpt lat="48.44571" lon="-2.80287">
        <ele>159.8</ele>
        <time>2020-07-02T12:36:39Z</time>
      </trkpt>
      <trkpt lat="48.44586" lon="-2.80298">
        <ele>159.7</ele>
        <time>2020-07-02T12:36:42Z</time>
      </trkpt>
      <trkpt lat="48.44603" lon="-2.80308">
        <ele>159.5</ele>
        <time>2020-07-02T12:36:45Z</time>
      </trkpt>
      <trkpt lat="48.44619" lon="-2.80319">
        <ele>158.8</ele>
        <time>2020-07-02T12:36:48Z</time>
      </trkpt>
      <trkpt lat="48.44635" lon="-2.8033">
        <ele>158.4</ele>
        <time>2020-07-02T12:36:51Z</time>
      </trkpt>
      <trkpt lat="48.4465" lon="-2.80341">
        <ele>158.1</ele>
        <time>2020-07-02T12:36:54Z</time>
      </trkpt>
      <trkpt lat="48.44668" lon="-2.80352">
        <ele>156.8</ele>
        <time>2020-07-02T12:36:57Z</time>
      </trkpt>
      <trkpt lat="48.44685" lon="-2.80362">
        <ele>156.2</ele>
        <time>2020-07-02T12:37:00Z</time>
      </trkpt>
      <trkpt lat="48.44702" lon="-2.80372">
        <ele>155.7</ele>
        <time>2020-07-02T12:37:03Z</time>
      </trkpt>
      <trkpt lat="48.44718" lon="-2.80382">
        <ele>155.1</ele>
        <time>2020-07-02T12:37:06Z</time>
      </trkpt>
      <trkpt lat="48.44734" lon="-2.80393">
        <ele>154.6</ele>
        <time>2020-07-02T12:37:09Z</time>
      </trkpt>
      <trkpt lat="48.44749" lon="-2.80404">
        <ele>154.1</ele>
        <time>2020-07-02T12:37:12Z</time>
      </trkpt>
      <trkpt lat="48.44763" lon="-2.80417">
        <ele>153.7</ele>
        <time>2020-07-02T12:37:15Z</time>
      </trkpt>
      <trkpt lat="48.44777" lon="-2.8043">
        <ele>153.3</ele>
        <time>2020-07-02T12:37:18Z</time>
      </trkpt>
      <trkpt lat="48.44788" lon="-2.80444">
        <ele>153.5</ele>
        <time>2020-07-02T12:37:21Z</time>
      </trkpt>
      <trkpt lat="48.44798" lon="-2.8046">
        <ele>154</ele>
        <time>2020-07-02T12:37:24Z</time>
      </trkpt>
      <trkpt lat="48.44808" lon="-2.80476">
        <ele>155.1</ele>
        <time>2020-07-02T12:37:27Z</time>
      </trkpt>
      <trkpt lat="48.44819" lon="-2.80492">
        <ele>156.2</ele>
        <time>2020-07-02T12:37:30Z</time>
      </trkpt>
      <trkpt lat="48.4483" lon="-2.80508">
        <ele>156.8</ele>
        <time>2020-07-02T12:37:33Z</time>
      </trkpt>
      <trkpt lat="48.44841" lon="-2.80522">
        <ele>157.4</ele>
        <time>2020-07-02T12:37:36Z</time>
      </trkpt>
      <trkpt lat="48.44851" lon="-2.80537">
        <ele>157.8</ele>
        <time>2020-07-02T12:37:39Z</time>
      </trkpt>
      <trkpt lat="48.44861" lon="-2.80553">
        <ele>157.9</ele>
        <time>2020-07-02T12:37:42Z</time>
      </trkpt>
      <trkpt lat="48.44871" lon="-2.80568">
        <ele>158.1</ele>
        <time>2020-07-02T12:37:45Z</time>
      </trkpt>
      <trkpt lat="48.44879" lon="-2.80583">
        <ele>158.5</ele>
        <time>2020-07-02T12:37:48Z</time>
      </trkpt>
      <trkpt lat="48.44887" lon="-2.80597">
        <ele>159</ele>
        <time>2020-07-02T12:37:51Z</time>
      </trkpt>
      <trkpt lat="48.44895" lon="-2.80608">
        <ele>159.5</ele>
        <time>2020-07-02T12:37:54Z</time>
      </trkpt>
      <trkpt lat="48.44902" lon="-2.8062">
        <ele>160</ele>
        <time>2020-07-02T12:37:57Z</time>
      </trkpt>
      <trkpt lat="48.4491" lon="-2.8063">
        <ele>160.5</ele>
        <time>2020-07-02T12:38:00Z</time>
      </trkpt>
      <trkpt lat="48.44917" lon="-2.80637">
        <ele>161</ele>
        <time>2020-07-02T12:38:03Z</time>
      </trkpt>
      <trkpt lat="48.44927" lon="-2.8064">
        <ele>161.1</ele>
        <time>2020-07-02T12:38:06Z</time>
      </trkpt>
      <trkpt lat="48.44937" lon="-2.80644">
        <ele>161.4</ele>
        <time>2020-07-02T12:38:09Z</time>
      </trkpt>
      <trkpt lat="48.44946" lon="-2.8065">
        <ele>161.6</ele>
        <time>2020-07-02T12:38:12Z</time>
      </trkpt>
      <trkpt lat="48.44955" lon="-2.8066">
        <ele>161.9</ele>
        <time>2020-07-02T12:38:15Z</time>
      </trkpt>
      <trkpt lat="48.44965" lon="-2.8067">
        <ele>162.6</ele>
        <time>2020-07-02T12:38:18Z</time>
      </trkpt>
      <trkpt lat="48.44975" lon="-2.80683">
        <ele>163.7</ele>
        <time>2020-07-02T12:38:21Z</time>
      </trkpt>
      <trkpt lat="48.44983" lon="-2.80697">
        <ele>165.4</ele>
        <time>2020-07-02T12:38:24Z</time>
      </trkpt>
      <trkpt lat="48.44992" lon="-2.80713">
        <ele>167.5</ele>
        <time>2020-07-02T12:38:27Z</time>
      </trkpt>
      <trkpt lat="48.45002" lon="-2.80729">
        <ele>167.8</ele>
        <time>2020-07-02T12:38:30Z</time>
      </trkpt>
      <trkpt lat="48.45013" lon="-2.80737">
        <ele>167.2</ele>
        <time>2020-07-02T12:38:33Z</time>
      </trkpt>
      <trkpt lat="48.45025" lon="-2.80736">
        <ele>166.7</ele>
        <time>2020-07-02T12:38:36Z</time>
      </trkpt>
      <trkpt lat="48.45037" lon="-2.80737">
        <ele>165.7</ele>
        <time>2020-07-02T12:38:39Z</time>
      </trkpt>
      <trkpt lat="48.45049" lon="-2.8074">
        <ele>164.6</ele>
        <time>2020-07-02T12:38:42Z</time>
      </trkpt>
      <trkpt lat="48.45061" lon="-2.80742">
        <ele>163.6</ele>
        <time>2020-07-02T12:38:45Z</time>
      </trkpt>
      <trkpt lat="48.45072" lon="-2.80745">
        <ele>162.9</ele>
        <time>2020-07-02T12:38:48Z</time>
      </trkpt>
      <trkpt lat="48.45083" lon="-2.80746">
        <ele>162.7</ele>
        <time>2020-07-02T12:38:51Z</time>
      </trkpt>
      <trkpt lat="48.45091" lon="-2.80746">
        <ele>162.4</ele>
        <time>2020-07-02T12:38:54Z</time>
      </trkpt>
      <trkpt lat="48.45096" lon="-2.80747">
        <ele>162.2</ele>
        <time>2020-07-02T12:38:57Z</time>
      </trkpt>
      <trkpt lat="48.45101" lon="-2.80748">
        <ele>162.4</ele>
        <time>2020-07-02T12:39:02Z</time>
      </trkpt>
      <trkpt lat="48.45108" lon="-2.80748">
        <ele>163.2</ele>
        <time>2020-07-02T12:39:27Z</time>
      </trkpt>
      <trkpt lat="48.45117" lon="-2.80756">
        <ele>163.3</ele>
        <time>2020-07-02T12:39:30Z</time>
      </trkpt>
      <trkpt lat="48.45122" lon="-2.80768">
        <ele>162.8</ele>
        <time>2020-07-02T12:39:33Z</time>
      </trkpt>
      <trkpt lat="48.45125" lon="-2.80773">
        <ele>162.5</ele>
        <time>2020-07-02T12:39:36Z</time>
      </trkpt>
      <trkpt lat="48.45132" lon="-2.80777">
        <ele>162.4</ele>
        <time>2020-07-02T12:39:39Z</time>
      </trkpt>
      <trkpt lat="48.45142" lon="-2.80781">
        <ele>162.8</ele>
        <time>2020-07-02T12:39:42Z</time>
      </trkpt>
      <trkpt lat="48.45152" lon="-2.80785">
        <ele>163.3</ele>
        <time>2020-07-02T12:39:45Z</time>
      </trkpt>
      <trkpt lat="48.45159" lon="-2.80791">
        <ele>163.7</ele>
        <time>2020-07-02T12:39:48Z</time>
      </trkpt>
      <trkpt lat="48.45162" lon="-2.80802">
        <ele>164.5</ele>
        <time>2020-07-02T12:39:51Z</time>
      </trkpt>
      <trkpt lat="48.45164" lon="-2.8081">
        <ele>165</ele>
        <time>2020-07-02T12:39:55Z</time>
      </trkpt>
      <trkpt lat="48.45168" lon="-2.80814">
        <ele>164.5</ele>
        <time>2020-07-02T12:39:58Z</time>
      </trkpt>
      <trkpt lat="48.45175" lon="-2.80814">
        <ele>164.5</ele>
        <time>2020-07-02T12:40:01Z</time>
      </trkpt>
      <trkpt lat="48.45184" lon="-2.80811">
        <ele>164.8</ele>
        <time>2020-07-02T12:40:04Z</time>
      </trkpt>
      <trkpt lat="48.45194" lon="-2.80809">
        <ele>165.2</ele>
        <time>2020-07-02T12:40:07Z</time>
      </trkpt>
      <trkpt lat="48.45204" lon="-2.80808">
        <ele>165.5</ele>
        <time>2020-07-02T12:40:10Z</time>
      </trkpt>
      <trkpt lat="48.45214" lon="-2.80807">
        <ele>165.5</ele>
        <time>2020-07-02T12:40:13Z</time>
      </trkpt>
      <trkpt lat="48.45225" lon="-2.80807">
        <ele>164.9</ele>
        <time>2020-07-02T12:40:16Z</time>
      </trkpt>
      <trkpt lat="48.45232" lon="-2.80806">
        <ele>164</ele>
        <time>2020-07-02T12:40:19Z</time>
      </trkpt>
      <trkpt lat="48.45237" lon="-2.80805">
        <ele>162.9</ele>
        <time>2020-07-02T12:40:22Z</time>
      </trkpt>
      <trkpt lat="48.4524" lon="-2.80809">
        <ele>161.8</ele>
        <time>2020-07-02T12:40:26Z</time>
      </trkpt>
      <trkpt lat="48.45241" lon="-2.8082">
        <ele>161.1</ele>
        <time>2020-07-02T12:40:29Z</time>
      </trkpt>
      <trkpt lat="48.4524" lon="-2.80835">
        <ele>160.3</ele>
        <time>2020-07-02T12:40:32Z</time>
      </trkpt>
      <trkpt lat="48.45239" lon="-2.80853">
        <ele>159.8</ele>
        <time>2020-07-02T12:40:35Z</time>
      </trkpt>
      <trkpt lat="48.45237" lon="-2.80871">
        <ele>160</ele>
        <time>2020-07-02T12:40:38Z</time>
      </trkpt>
      <trkpt lat="48.45236" lon="-2.80888">
        <ele>160.3</ele>
        <time>2020-07-02T12:40:41Z</time>
      </trkpt>
      <trkpt lat="48.45235" lon="-2.80906">
        <ele>160.8</ele>
        <time>2020-07-02T12:40:44Z</time>
      </trkpt>
      <trkpt lat="48.45233" lon="-2.80923">
        <ele>161.4</ele>
        <time>2020-07-02T12:40:47Z</time>
      </trkpt>
      <trkpt lat="48.45232" lon="-2.80937">
        <ele>161.8</ele>
        <time>2020-07-02T12:40:50Z</time>
      </trkpt>
      <trkpt lat="48.45231" lon="-2.80952">
        <ele>162.2</ele>
        <time>2020-07-02T12:40:53Z</time>
      </trkpt>
      <trkpt lat="48.45229" lon="-2.80968">
        <ele>162.7</ele>
        <time>2020-07-02T12:40:56Z</time>
      </trkpt>
      <trkpt lat="48.45225" lon="-2.80981">
        <ele>163</ele>
        <time>2020-07-02T12:40:59Z</time>
      </trkpt>
      <trkpt lat="48.45226" lon="-2.80995">
        <ele>163</ele>
        <time>2020-07-02T12:41:02Z</time>
      </trkpt>
      <trkpt lat="48.45228" lon="-2.81008">
        <ele>162.8</ele>
        <time>2020-07-02T12:41:05Z</time>
      </trkpt>
      <trkpt lat="48.45228" lon="-2.81022">
        <ele>162.9</ele>
        <time>2020-07-02T12:41:08Z</time>
      </trkpt>
      <trkpt lat="48.45227" lon="-2.81038">
        <ele>163.1</ele>
        <time>2020-07-02T12:41:11Z</time>
      </trkpt>
      <trkpt lat="48.45225" lon="-2.81056">
        <ele>163.3</ele>
        <time>2020-07-02T12:41:14Z</time>
      </trkpt>
      <trkpt lat="48.45224" lon="-2.81073">
        <ele>163.8</ele>
        <time>2020-07-02T12:41:17Z</time>
      </trkpt>
      <trkpt lat="48.45222" lon="-2.8109">
        <ele>164.1</ele>
        <time>2020-07-02T12:41:20Z</time>
      </trkpt>
      <trkpt lat="48.4522" lon="-2.81107">
        <ele>164.4</ele>
        <time>2020-07-02T12:41:23Z</time>
      </trkpt>
      <trkpt lat="48.45219" lon="-2.81124">
        <ele>164.9</ele>
        <time>2020-07-02T12:41:26Z</time>
      </trkpt>
      <trkpt lat="48.45218" lon="-2.8114">
        <ele>165.5</ele>
        <time>2020-07-02T12:41:29Z</time>
      </trkpt>
      <trkpt lat="48.45217" lon="-2.81156">
        <ele>165.5</ele>
        <time>2020-07-02T12:41:32Z</time>
      </trkpt>
      <trkpt lat="48.45217" lon="-2.81173">
        <ele>165.4</ele>
        <time>2020-07-02T12:41:35Z</time>
      </trkpt>
      <trkpt lat="48.45216" lon="-2.81189">
        <ele>165.4</ele>
        <time>2020-07-02T12:41:38Z</time>
      </trkpt>
      <trkpt lat="48.45216" lon="-2.81207">
        <ele>165.2</ele>
        <time>2020-07-02T12:41:41Z</time>
      </trkpt>
      <trkpt lat="48.45216" lon="-2.81224">
        <ele>164.9</ele>
        <time>2020-07-02T12:41:44Z</time>
      </trkpt>
      <trkpt lat="48.45216" lon="-2.81241">
        <ele>164.7</ele>
        <time>2020-07-02T12:41:47Z</time>
      </trkpt>
      <trkpt lat="48.45215" lon="-2.81256">
        <ele>165.3</ele>
        <time>2020-07-02T12:41:50Z</time>
      </trkpt>
      <trkpt lat="48.45216" lon="-2.81269">
        <ele>166.1</ele>
        <time>2020-07-02T12:41:53Z</time>
      </trkpt>
      <trkpt lat="48.45216" lon="-2.81282">
        <ele>166.8</ele>
        <time>2020-07-02T12:41:56Z</time>
      </trkpt>
      <trkpt lat="48.45217" lon="-2.81294">
        <ele>167.4</ele>
        <time>2020-07-02T12:41:59Z</time>
      </trkpt>
      <trkpt lat="48.45218" lon="-2.81308">
        <ele>167.9</ele>
        <time>2020-07-02T12:42:02Z</time>
      </trkpt>
      <trkpt lat="48.45219" lon="-2.81324">
        <ele>168</ele>
        <time>2020-07-02T12:42:05Z</time>
      </trkpt>
      <trkpt lat="48.45219" lon="-2.8134">
        <ele>167.8</ele>
        <time>2020-07-02T12:42:08Z</time>
      </trkpt>
      <trkpt lat="48.45219" lon="-2.81355">
        <ele>167.8</ele>
        <time>2020-07-02T12:42:11Z</time>
      </trkpt>
      <trkpt lat="48.45219" lon="-2.8137">
        <ele>167.7</ele>
        <time>2020-07-02T12:42:14Z</time>
      </trkpt>
      <trkpt lat="48.45218" lon="-2.81386">
        <ele>167.8</ele>
        <time>2020-07-02T12:42:17Z</time>
      </trkpt>
      <trkpt lat="48.45218" lon="-2.81399">
        <ele>168.4</ele>
        <time>2020-07-02T12:42:20Z</time>
      </trkpt>
      <trkpt lat="48.4522" lon="-2.81413">
        <ele>169.1</ele>
        <time>2020-07-02T12:42:23Z</time>
      </trkpt>
      <trkpt lat="48.4522" lon="-2.81428">
        <ele>169.7</ele>
        <time>2020-07-02T12:42:26Z</time>
      </trkpt>
      <trkpt lat="48.45219" lon="-2.81441">
        <ele>170.4</ele>
        <time>2020-07-02T12:42:29Z</time>
      </trkpt>
      <trkpt lat="48.45217" lon="-2.81451">
        <ele>171.2</ele>
        <time>2020-07-02T12:42:32Z</time>
      </trkpt>
      <trkpt lat="48.4521" lon="-2.81454">
        <ele>170.8</ele>
        <time>2020-07-02T12:42:35Z</time>
      </trkpt>
      <trkpt lat="48.452" lon="-2.81454">
        <ele>170.1</ele>
        <time>2020-07-02T12:42:38Z</time>
      </trkpt>
      <trkpt lat="48.45189" lon="-2.81455">
        <ele>170.1</ele>
        <time>2020-07-02T12:42:41Z</time>
      </trkpt>
      <trkpt lat="48.45178" lon="-2.81457">
        <ele>170.1</ele>
        <time>2020-07-02T12:42:44Z</time>
      </trkpt>
      <trkpt lat="48.45168" lon="-2.8146">
        <ele>169.9</ele>
        <time>2020-07-02T12:42:47Z</time>
      </trkpt>
      <trkpt lat="48.45158" lon="-2.8147">
        <ele>169.8</ele>
        <time>2020-07-02T12:42:50Z</time>
      </trkpt>
      <trkpt lat="48.4515" lon="-2.81483">
        <ele>169.9</ele>
        <time>2020-07-02T12:42:53Z</time>
      </trkpt>
      <trkpt lat="48.45143" lon="-2.81496">
        <ele>169.8</ele>
        <time>2020-07-02T12:42:56Z</time>
      </trkpt>
      <trkpt lat="48.45135" lon="-2.8151">
        <ele>169.3</ele>
        <time>2020-07-02T12:42:59Z</time>
      </trkpt>
      <trkpt lat="48.45126" lon="-2.81523">
        <ele>168.8</ele>
        <time>2020-07-02T12:43:02Z</time>
      </trkpt>
      <trkpt lat="48.45118" lon="-2.81535">
        <ele>168.4</ele>
        <time>2020-07-02T12:43:05Z</time>
      </trkpt>
      <trkpt lat="48.4511" lon="-2.8155">
        <ele>167.7</ele>
        <time>2020-07-02T12:43:08Z</time>
      </trkpt>
      <trkpt lat="48.45102" lon="-2.81564">
        <ele>167</ele>
        <time>2020-07-02T12:43:11Z</time>
      </trkpt>
      <trkpt lat="48.45094" lon="-2.81578">
        <ele>166.7</ele>
        <time>2020-07-02T12:43:14Z</time>
      </trkpt>
      <trkpt lat="48.45087" lon="-2.81591">
        <ele>166.6</ele>
        <time>2020-07-02T12:43:17Z</time>
      </trkpt>
      <trkpt lat="48.45079" lon="-2.81605">
        <ele>166.4</ele>
        <time>2020-07-02T12:43:20Z</time>
      </trkpt>
      <trkpt lat="48.45071" lon="-2.81621">
        <ele>166.5</ele>
        <time>2020-07-02T12:43:23Z</time>
      </trkpt>
      <trkpt lat="48.45063" lon="-2.81636">
        <ele>167</ele>
        <time>2020-07-02T12:43:26Z</time>
      </trkpt>
      <trkpt lat="48.45055" lon="-2.81651">
        <ele>167.7</ele>
        <time>2020-07-02T12:43:29Z</time>
      </trkpt>
      <trkpt lat="48.45047" lon="-2.81667">
        <ele>167.8</ele>
        <time>2020-07-02T12:43:32Z</time>
      </trkpt>
      <trkpt lat="48.45039" lon="-2.81682">
        <ele>166.8</ele>
        <time>2020-07-02T12:43:35Z</time>
      </trkpt>
      <trkpt lat="48.4503" lon="-2.817">
        <ele>165.8</ele>
        <time>2020-07-02T12:43:38Z</time>
      </trkpt>
      <trkpt lat="48.45022" lon="-2.81718">
        <ele>165.1</ele>
        <time>2020-07-02T12:43:41Z</time>
      </trkpt>
      <trkpt lat="48.45013" lon="-2.81735">
        <ele>165.4</ele>
        <time>2020-07-02T12:43:44Z</time>
      </trkpt>
      <trkpt lat="48.45005" lon="-2.81751">
        <ele>166.4</ele>
        <time>2020-07-02T12:43:47Z</time>
      </trkpt>
      <trkpt lat="48.44996" lon="-2.81768">
        <ele>167.6</ele>
        <time>2020-07-02T12:43:50Z</time>
      </trkpt>
      <trkpt lat="48.44988" lon="-2.81786">
        <ele>168.1</ele>
        <time>2020-07-02T12:43:53Z</time>
      </trkpt>
      <trkpt lat="48.4498" lon="-2.81804">
        <ele>168.6</ele>
        <time>2020-07-02T12:43:56Z</time>
      </trkpt>
      <trkpt lat="48.4497" lon="-2.81822">
        <ele>168.9</ele>
        <time>2020-07-02T12:43:59Z</time>
      </trkpt>
      <trkpt lat="48.44962" lon="-2.81841">
        <ele>168.8</ele>
        <time>2020-07-02T12:44:02Z</time>
      </trkpt>
      <trkpt lat="48.44952" lon="-2.8186">
        <ele>168.3</ele>
        <time>2020-07-02T12:44:05Z</time>
      </trkpt>
      <trkpt lat="48.4494" lon="-2.81879">
        <ele>167.6</ele>
        <time>2020-07-02T12:44:08Z</time>
      </trkpt>
      <trkpt lat="48.44928" lon="-2.81897">
        <ele>167</ele>
        <time>2020-07-02T12:44:11Z</time>
      </trkpt>
      <trkpt lat="48.44917" lon="-2.81914">
        <ele>167.5</ele>
        <time>2020-07-02T12:44:14Z</time>
      </trkpt>
      <trkpt lat="48.44906" lon="-2.81932">
        <ele>169.3</ele>
        <time>2020-07-02T12:44:17Z</time>
      </trkpt>
      <trkpt lat="48.44895" lon="-2.81951">
        <ele>170.7</ele>
        <time>2020-07-02T12:44:20Z</time>
      </trkpt>
      <trkpt lat="48.44885" lon="-2.81974">
        <ele>170.7</ele>
        <time>2020-07-02T12:44:23Z</time>
      </trkpt>
      <trkpt lat="48.44874" lon="-2.81995">
        <ele>170.6</ele>
        <time>2020-07-02T12:44:26Z</time>
      </trkpt>
      <trkpt lat="48.44864" lon="-2.82012">
        <ele>171.2</ele>
        <time>2020-07-02T12:44:29Z</time>
      </trkpt>
      <trkpt lat="48.44855" lon="-2.8203">
        <ele>171.1</ele>
        <time>2020-07-02T12:44:32Z</time>
      </trkpt>
      <trkpt lat="48.44846" lon="-2.82047">
        <ele>171</ele>
        <time>2020-07-02T12:44:35Z</time>
      </trkpt>
      <trkpt lat="48.44836" lon="-2.82063">
        <ele>170.9</ele>
        <time>2020-07-02T12:44:38Z</time>
      </trkpt>
      <trkpt lat="48.44826" lon="-2.82078">
        <ele>171.3</ele>
        <time>2020-07-02T12:44:41Z</time>
      </trkpt>
      <trkpt lat="48.44817" lon="-2.82095">
        <ele>172</ele>
        <time>2020-07-02T12:44:44Z</time>
      </trkpt>
      <trkpt lat="48.44811" lon="-2.82109">
        <ele>172.9</ele>
        <time>2020-07-02T12:44:47Z</time>
      </trkpt>
      <trkpt lat="48.44806" lon="-2.82119">
        <ele>173.5</ele>
        <time>2020-07-02T12:44:50Z</time>
      </trkpt>
      <trkpt lat="48.448" lon="-2.82123">
        <ele>173.5</ele>
        <time>2020-07-02T12:44:53Z</time>
      </trkpt>
      <trkpt lat="48.44793" lon="-2.82123">
        <ele>173.7</ele>
        <time>2020-07-02T12:44:56Z</time>
      </trkpt>
      <trkpt lat="48.44787" lon="-2.82121">
        <ele>173.8</ele>
        <time>2020-07-02T12:44:59Z</time>
      </trkpt>
      <trkpt lat="48.4478" lon="-2.82117">
        <ele>173.7</ele>
        <time>2020-07-02T12:45:02Z</time>
      </trkpt>
      <trkpt lat="48.44771" lon="-2.82112">
        <ele>173.4</ele>
        <time>2020-07-02T12:45:05Z</time>
      </trkpt>
      <trkpt lat="48.44761" lon="-2.82106">
        <ele>172.8</ele>
        <time>2020-07-02T12:45:08Z</time>
      </trkpt>
      <trkpt lat="48.44753" lon="-2.82101">
        <ele>171.6</ele>
        <time>2020-07-02T12:45:11Z</time>
      </trkpt>
      <trkpt lat="48.44748" lon="-2.82094">
        <ele>170.3</ele>
        <time>2020-07-02T12:45:14Z</time>
      </trkpt>
      <trkpt lat="48.44741" lon="-2.82086">
        <ele>169.4</ele>
        <time>2020-07-02T12:45:17Z</time>
      </trkpt>
      <trkpt lat="48.44737" lon="-2.82081">
        <ele>169.1</ele>
        <time>2020-07-02T12:45:20Z</time>
      </trkpt>
      <trkpt lat="48.44733" lon="-2.82077">
        <ele>168.2</ele>
        <time>2020-07-02T12:45:45Z</time>
      </trkpt>
      <trkpt lat="48.44728" lon="-2.82077">
        <ele>167.4</ele>
        <time>2020-07-02T12:45:49Z</time>
      </trkpt>
      <trkpt lat="48.44725" lon="-2.82085">
        <ele>166.8</ele>
        <time>2020-07-02T12:45:53Z</time>
      </trkpt>
      <trkpt lat="48.44725" lon="-2.82095">
        <ele>166.7</ele>
        <time>2020-07-02T12:45:56Z</time>
      </trkpt>
      <trkpt lat="48.44728" lon="-2.82107">
        <ele>167.2</ele>
        <time>2020-07-02T12:45:59Z</time>
      </trkpt>
      <trkpt lat="48.44733" lon="-2.82119">
        <ele>168.2</ele>
        <time>2020-07-02T12:46:02Z</time>
      </trkpt>
      <trkpt lat="48.44736" lon="-2.82132">
        <ele>168.8</ele>
        <time>2020-07-02T12:46:05Z</time>
      </trkpt>
      <trkpt lat="48.44738" lon="-2.82146">
        <ele>168.5</ele>
        <time>2020-07-02T12:46:08Z</time>
      </trkpt>
      <trkpt lat="48.44738" lon="-2.82159">
        <ele>167.6</ele>
        <time>2020-07-02T12:46:11Z</time>
      </trkpt>
      <trkpt lat="48.44736" lon="-2.82173">
        <ele>165.6</ele>
        <time>2020-07-02T12:46:14Z</time>
      </trkpt>
      <trkpt lat="48.44732" lon="-2.82187">
        <ele>163.2</ele>
        <time>2020-07-02T12:46:17Z</time>
      </trkpt>
      <trkpt lat="48.44728" lon="-2.82199">
        <ele>161</ele>
        <time>2020-07-02T12:46:20Z</time>
      </trkpt>
      <trkpt lat="48.44726" lon="-2.82208">
        <ele>159</ele>
        <time>2020-07-02T12:46:23Z</time>
      </trkpt>
      <trkpt lat="48.44726" lon="-2.82216">
        <ele>157.8</ele>
        <time>2020-07-02T12:46:26Z</time>
      </trkpt>
      <trkpt lat="48.44729" lon="-2.82224">
        <ele>157.9</ele>
        <time>2020-07-02T12:46:29Z</time>
      </trkpt>
      <trkpt lat="48.4473" lon="-2.82233">
        <ele>158.7</ele>
        <time>2020-07-02T12:46:32Z</time>
      </trkpt>
      <trkpt lat="48.44728" lon="-2.82243">
        <ele>159.4</ele>
        <time>2020-07-02T12:46:35Z</time>
      </trkpt>
      <trkpt lat="48.44724" lon="-2.82251">
        <ele>160.3</ele>
        <time>2020-07-02T12:46:38Z</time>
      </trkpt>
      <trkpt lat="48.44721" lon="-2.82259">
        <ele>161.5</ele>
        <time>2020-07-02T12:46:41Z</time>
      </trkpt>
      <trkpt lat="48.44717" lon="-2.82267">
        <ele>163.1</ele>
        <time>2020-07-02T12:46:44Z</time>
      </trkpt>
      <trkpt lat="48.44714" lon="-2.82276">
        <ele>164.7</ele>
        <time>2020-07-02T12:46:47Z</time>
      </trkpt>
      <trkpt lat="48.44713" lon="-2.82284">
        <ele>166.4</ele>
        <time>2020-07-02T12:46:50Z</time>
      </trkpt>
      <trkpt lat="48.44712" lon="-2.82291">
        <ele>167.9</ele>
        <time>2020-07-02T12:46:53Z</time>
      </trkpt>
      <trkpt lat="48.44711" lon="-2.82299">
        <ele>169.1</ele>
        <time>2020-07-02T12:46:56Z</time>
      </trkpt>
      <trkpt lat="48.44709" lon="-2.82307">
        <ele>170.5</ele>
        <time>2020-07-02T12:46:59Z</time>
      </trkpt>
      <trkpt lat="48.44707" lon="-2.82314">
        <ele>171.9</ele>
        <time>2020-07-02T12:47:02Z</time>
      </trkpt>
      <trkpt lat="48.44706" lon="-2.82322">
        <ele>172.7</ele>
        <time>2020-07-02T12:47:05Z</time>
      </trkpt>
      <trkpt lat="48.44705" lon="-2.82336">
        <ele>172.8</ele>
        <time>2020-07-02T12:47:08Z</time>
      </trkpt>
      <trkpt lat="48.44705" lon="-2.82347">
        <ele>172.9</ele>
        <time>2020-07-02T12:47:11Z</time>
      </trkpt>
      <trkpt lat="48.44707" lon="-2.8236">
        <ele>173</ele>
        <time>2020-07-02T12:47:14Z</time>
      </trkpt>
      <trkpt lat="48.44707" lon="-2.82374">
        <ele>172.8</ele>
        <time>2020-07-02T12:47:17Z</time>
      </trkpt>
      <trkpt lat="48.44707" lon="-2.82387">
        <ele>172.2</ele>
        <time>2020-07-02T12:47:20Z</time>
      </trkpt>
      <trkpt lat="48.44706" lon="-2.824">
        <ele>171.4</ele>
        <time>2020-07-02T12:47:23Z</time>
      </trkpt>
      <trkpt lat="48.44706" lon="-2.82411">
        <ele>170.9</ele>
        <time>2020-07-02T12:47:26Z</time>
      </trkpt>
      <trkpt lat="48.44704" lon="-2.8242">
        <ele>170.9</ele>
        <time>2020-07-02T12:47:29Z</time>
      </trkpt>
      <trkpt lat="48.44701" lon="-2.82428">
        <ele>171.2</ele>
        <time>2020-07-02T12:47:32Z</time>
      </trkpt>
      <trkpt lat="48.44698" lon="-2.82435">
        <ele>172.1</ele>
        <time>2020-07-02T12:47:35Z</time>
      </trkpt>
      <trkpt lat="48.44694" lon="-2.82439">
        <ele>172.7</ele>
        <time>2020-07-02T12:47:38Z</time>
      </trkpt>
      <trkpt lat="48.44687" lon="-2.82443">
        <ele>173.1</ele>
        <time>2020-07-02T12:47:41Z</time>
      </trkpt>
      <trkpt lat="48.4468" lon="-2.82446">
        <ele>173.7</ele>
        <time>2020-07-02T12:47:44Z</time>
      </trkpt>
      <trkpt lat="48.44673" lon="-2.82448">
        <ele>174.4</ele>
        <time>2020-07-02T12:47:47Z</time>
      </trkpt>
      <trkpt lat="48.44666" lon="-2.82449">
        <ele>175.5</ele>
        <time>2020-07-02T12:47:50Z</time>
      </trkpt>
      <trkpt lat="48.44661" lon="-2.82449">
        <ele>176.4</ele>
        <time>2020-07-02T12:47:53Z</time>
      </trkpt>
      <trkpt lat="48.44655" lon="-2.82449">
        <ele>176.8</ele>
        <time>2020-07-02T12:47:56Z</time>
      </trkpt>
      <trkpt lat="48.44649" lon="-2.82449">
        <ele>177</ele>
        <time>2020-07-02T12:47:59Z</time>
      </trkpt>
      <trkpt lat="48.44643" lon="-2.82446">
        <ele>177.7</ele>
        <time>2020-07-02T12:48:02Z</time>
      </trkpt>
      <trkpt lat="48.44637" lon="-2.82443">
        <ele>178</ele>
        <time>2020-07-02T12:48:05Z</time>
      </trkpt>
      <trkpt lat="48.44631" lon="-2.82439">
        <ele>177.8</ele>
        <time>2020-07-02T12:48:08Z</time>
      </trkpt>
      <trkpt lat="48.44624" lon="-2.82436">
        <ele>177.5</ele>
        <time>2020-07-02T12:48:11Z</time>
      </trkpt>
      <trkpt lat="48.44619" lon="-2.82432">
        <ele>177.1</ele>
        <time>2020-07-02T12:48:14Z</time>
      </trkpt>
      <trkpt lat="48.44613" lon="-2.82428">
        <ele>176.6</ele>
        <time>2020-07-02T12:48:17Z</time>
      </trkpt>
      <trkpt lat="48.44607" lon="-2.82423">
        <ele>176.3</ele>
        <time>2020-07-02T12:48:20Z</time>
      </trkpt>
      <trkpt lat="48.446" lon="-2.82418">
        <ele>176.1</ele>
        <time>2020-07-02T12:48:23Z</time>
      </trkpt>
      <trkpt lat="48.44594" lon="-2.82417">
        <ele>176.4</ele>
        <time>2020-07-02T12:48:26Z</time>
      </trkpt>
      <trkpt lat="48.44588" lon="-2.82419">
        <ele>176.4</ele>
        <time>2020-07-02T12:48:30Z</time>
      </trkpt>
      <trkpt lat="48.44583" lon="-2.82424">
        <ele>176.1</ele>
        <time>2020-07-02T12:48:33Z</time>
      </trkpt>
      <trkpt lat="48.44574" lon="-2.82434">
        <ele>175.7</ele>
        <time>2020-07-02T12:48:36Z</time>
      </trkpt>
      <trkpt lat="48.44564" lon="-2.82447">
        <ele>175.1</ele>
        <time>2020-07-02T12:48:39Z</time>
      </trkpt>
      <trkpt lat="48.44552" lon="-2.82463">
        <ele>174.4</ele>
        <time>2020-07-02T12:48:42Z</time>
      </trkpt>
      <trkpt lat="48.44539" lon="-2.8248">
        <ele>174</ele>
        <time>2020-07-02T12:48:45Z</time>
      </trkpt>
      <trkpt lat="48.44529" lon="-2.82495">
        <ele>173.7</ele>
        <time>2020-07-02T12:48:48Z</time>
      </trkpt>
      <trkpt lat="48.44521" lon="-2.82506">
        <ele>173.7</ele>
        <time>2020-07-02T12:48:51Z</time>
      </trkpt>
      <trkpt lat="48.44513" lon="-2.82516">
        <ele>173.5</ele>
        <time>2020-07-02T12:48:54Z</time>
      </trkpt>
      <trkpt lat="48.44507" lon="-2.82527">
        <ele>173.6</ele>
        <time>2020-07-02T12:48:57Z</time>
      </trkpt>
      <trkpt lat="48.44502" lon="-2.82541">
        <ele>174.1</ele>
        <time>2020-07-02T12:49:00Z</time>
      </trkpt>
      <trkpt lat="48.445" lon="-2.82554">
        <ele>175.6</ele>
        <time>2020-07-02T12:49:03Z</time>
      </trkpt>
      <trkpt lat="48.44499" lon="-2.82563">
        <ele>177.9</ele>
        <time>2020-07-02T12:49:06Z</time>
      </trkpt>
      <trkpt lat="48.44497" lon="-2.8257">
        <ele>180</ele>
        <time>2020-07-02T12:49:09Z</time>
      </trkpt>
      <trkpt lat="48.44492" lon="-2.8258">
        <ele>184.2</ele>
        <time>2020-07-02T12:49:51Z</time>
      </trkpt>
      <trkpt lat="48.44491" lon="-2.82589">
        <ele>183.7</ele>
        <time>2020-07-02T12:49:54Z</time>
      </trkpt>
      <trkpt lat="48.4449" lon="-2.82604">
        <ele>182.9</ele>
        <time>2020-07-02T12:49:57Z</time>
      </trkpt>
      <trkpt lat="48.44489" lon="-2.82621">
        <ele>181.8</ele>
        <time>2020-07-02T12:50:00Z</time>
      </trkpt>
      <trkpt lat="48.44487" lon="-2.82636">
        <ele>180.4</ele>
        <time>2020-07-02T12:50:03Z</time>
      </trkpt>
      <trkpt lat="48.44484" lon="-2.82653">
        <ele>178.8</ele>
        <time>2020-07-02T12:50:06Z</time>
      </trkpt>
      <trkpt lat="48.44479" lon="-2.82674">
        <ele>176.7</ele>
        <time>2020-07-02T12:50:09Z</time>
      </trkpt>
      <trkpt lat="48.44474" lon="-2.82694">
        <ele>174.4</ele>
        <time>2020-07-02T12:50:12Z</time>
      </trkpt>
      <trkpt lat="48.4447" lon="-2.82713">
        <ele>172</ele>
        <time>2020-07-02T12:50:15Z</time>
      </trkpt>
      <trkpt lat="48.44468" lon="-2.82727">
        <ele>169.5</ele>
        <time>2020-07-02T12:50:18Z</time>
      </trkpt>
      <trkpt lat="48.44468" lon="-2.82739">
        <ele>167.5</ele>
        <time>2020-07-02T12:50:21Z</time>
      </trkpt>
      <trkpt lat="48.44466" lon="-2.82747">
        <ele>166.4</ele>
        <time>2020-07-02T12:50:24Z</time>
      </trkpt>
      <trkpt lat="48.44465" lon="-2.82755">
        <ele>165.2</ele>
        <time>2020-07-02T12:50:28Z</time>
      </trkpt>
      <trkpt lat="48.44463" lon="-2.82772">
        <ele>164.7</ele>
        <time>2020-07-02T12:50:31Z</time>
      </trkpt>
      <trkpt lat="48.4446" lon="-2.82793">
        <ele>164.6</ele>
        <time>2020-07-02T12:50:34Z</time>
      </trkpt>
      <trkpt lat="48.44459" lon="-2.82813">
        <ele>165.4</ele>
        <time>2020-07-02T12:50:37Z</time>
      </trkpt>
      <trkpt lat="48.44458" lon="-2.8283">
        <ele>167.9</ele>
        <time>2020-07-02T12:50:40Z</time>
      </trkpt>
      <trkpt lat="48.44455" lon="-2.8285">
        <ele>169.6</ele>
        <time>2020-07-02T12:50:43Z</time>
      </trkpt>
      <trkpt lat="48.44452" lon="-2.8287">
        <ele>171.7</ele>
        <time>2020-07-02T12:50:46Z</time>
      </trkpt>
      <trkpt lat="48.44453" lon="-2.82885">
        <ele>173.6</ele>
        <time>2020-07-02T12:50:49Z</time>
      </trkpt>
      <trkpt lat="48.44453" lon="-2.82899">
        <ele>175.3</ele>
        <time>2020-07-02T12:50:52Z</time>
      </trkpt>
      <trkpt lat="48.44452" lon="-2.82912">
        <ele>176.4</ele>
        <time>2020-07-02T12:50:55Z</time>
      </trkpt>
      <trkpt lat="48.4445" lon="-2.82924">
        <ele>176.9</ele>
        <time>2020-07-02T12:50:58Z</time>
      </trkpt>
      <trkpt lat="48.44443" lon="-2.82938">
        <ele>175.1</ele>
        <time>2020-07-02T12:51:01Z</time>
      </trkpt>
      <trkpt lat="48.44435" lon="-2.82951">
        <ele>173.6</ele>
        <time>2020-07-02T12:51:04Z</time>
      </trkpt>
      <trkpt lat="48.4443" lon="-2.82962">
        <ele>172.7</ele>
        <time>2020-07-02T12:51:07Z</time>
      </trkpt>
      <trkpt lat="48.44426" lon="-2.82971">
        <ele>172.4</ele>
        <time>2020-07-02T12:51:10Z</time>
      </trkpt>
      <trkpt lat="48.44419" lon="-2.82981">
        <ele>172.2</ele>
        <time>2020-07-02T12:51:13Z</time>
      </trkpt>
      <trkpt lat="48.44411" lon="-2.8299">
        <ele>171.7</ele>
        <time>2020-07-02T12:51:16Z</time>
      </trkpt>
      <trkpt lat="48.44403" lon="-2.83">
        <ele>171</ele>
        <time>2020-07-02T12:51:19Z</time>
      </trkpt>
      <trkpt lat="48.44395" lon="-2.83008">
        <ele>170.6</ele>
        <time>2020-07-02T12:51:22Z</time>
      </trkpt>
      <trkpt lat="48.44389" lon="-2.83014">
        <ele>170.9</ele>
        <time>2020-07-02T12:51:25Z</time>
      </trkpt>
      <trkpt lat="48.44382" lon="-2.8302">
        <ele>171.6</ele>
        <time>2020-07-02T12:51:28Z</time>
      </trkpt>
      <trkpt lat="48.44377" lon="-2.83023">
        <ele>172.3</ele>
        <time>2020-07-02T12:51:31Z</time>
      </trkpt>
      <trkpt lat="48.4437" lon="-2.83025">
        <ele>172.9</ele>
        <time>2020-07-02T12:51:34Z</time>
      </trkpt>
      <trkpt lat="48.44364" lon="-2.83027">
        <ele>173.5</ele>
        <time>2020-07-02T12:51:37Z</time>
      </trkpt>
      <trkpt lat="48.44357" lon="-2.83028">
        <ele>174.3</ele>
        <time>2020-07-02T12:51:40Z</time>
      </trkpt>
      <trkpt lat="48.44349" lon="-2.83028">
        <ele>174.7</ele>
        <time>2020-07-02T12:51:43Z</time>
      </trkpt>
      <trkpt lat="48.44343" lon="-2.83026">
        <ele>175.1</ele>
        <time>2020-07-02T12:51:46Z</time>
      </trkpt>
      <trkpt lat="48.44336" lon="-2.83025">
        <ele>175.4</ele>
        <time>2020-07-02T12:51:49Z</time>
      </trkpt>
      <trkpt lat="48.44328" lon="-2.83024">
        <ele>174.7</ele>
        <time>2020-07-02T12:51:52Z</time>
      </trkpt>
      <trkpt lat="48.44321" lon="-2.83027">
        <ele>173.9</ele>
        <time>2020-07-02T12:53:12Z</time>
      </trkpt>
      <trkpt lat="48.44317" lon="-2.83031">
        <ele>173.8</ele>
        <time>2020-07-02T12:53:15Z</time>
      </trkpt>
      <trkpt lat="48.44316" lon="-2.83038">
        <ele>174.2</ele>
        <time>2020-07-02T12:53:19Z</time>
      </trkpt>
      <trkpt lat="48.4432" lon="-2.8305">
        <ele>174.5</ele>
        <time>2020-07-02T12:53:22Z</time>
      </trkpt>
      <trkpt lat="48.44326" lon="-2.8307">
        <ele>174</ele>
        <time>2020-07-02T12:53:25Z</time>
      </trkpt>
      <trkpt lat="48.4433" lon="-2.83096">
        <ele>172.7</ele>
        <time>2020-07-02T12:53:28Z</time>
      </trkpt>
      <trkpt lat="48.44334" lon="-2.83123">
        <ele>171.1</ele>
        <time>2020-07-02T12:53:31Z</time>
      </trkpt>
      <trkpt lat="48.44337" lon="-2.8315">
        <ele>169.2</ele>
        <time>2020-07-02T12:53:34Z</time>
      </trkpt>
      <trkpt lat="48.44339" lon="-2.83173">
        <ele>167</ele>
        <time>2020-07-02T12:53:37Z</time>
      </trkpt>
      <trkpt lat="48.44342" lon="-2.83192">
        <ele>165.8</ele>
        <time>2020-07-02T12:53:40Z</time>
      </trkpt>
      <trkpt lat="48.44344" lon="-2.83208">
        <ele>164.1</ele>
        <time>2020-07-02T12:53:43Z</time>
      </trkpt>
      <trkpt lat="48.44346" lon="-2.83225">
        <ele>162.1</ele>
        <time>2020-07-02T12:53:46Z</time>
      </trkpt>
      <trkpt lat="48.44349" lon="-2.83245">
        <ele>159.9</ele>
        <time>2020-07-02T12:53:49Z</time>
      </trkpt>
      <trkpt lat="48.44352" lon="-2.83265">
        <ele>157.9</ele>
        <time>2020-07-02T12:53:52Z</time>
      </trkpt>
      <trkpt lat="48.44356" lon="-2.83286">
        <ele>156.1</ele>
        <time>2020-07-02T12:53:55Z</time>
      </trkpt>
      <trkpt lat="48.44359" lon="-2.83307">
        <ele>154.8</ele>
        <time>2020-07-02T12:53:58Z</time>
      </trkpt>
      <trkpt lat="48.44362" lon="-2.83326">
        <ele>153.8</ele>
        <time>2020-07-02T12:54:01Z</time>
      </trkpt>
      <trkpt lat="48.44364" lon="-2.83346">
        <ele>152.8</ele>
        <time>2020-07-02T12:54:04Z</time>
      </trkpt>
      <trkpt lat="48.44365" lon="-2.83367">
        <ele>152.1</ele>
        <time>2020-07-02T12:54:07Z</time>
      </trkpt>
      <trkpt lat="48.44366" lon="-2.83393">
        <ele>151.7</ele>
        <time>2020-07-02T12:54:10Z</time>
      </trkpt>
      <trkpt lat="48.44367" lon="-2.8342">
        <ele>151.1</ele>
        <time>2020-07-02T12:54:13Z</time>
      </trkpt>
      <trkpt lat="48.44368" lon="-2.83445">
        <ele>150.5</ele>
        <time>2020-07-02T12:54:16Z</time>
      </trkpt>
      <trkpt lat="48.44369" lon="-2.83467">
        <ele>150.1</ele>
        <time>2020-07-02T12:54:19Z</time>
      </trkpt>
      <trkpt lat="48.44371" lon="-2.83485">
        <ele>149.7</ele>
        <time>2020-07-02T12:54:22Z</time>
      </trkpt>
      <trkpt lat="48.44375" lon="-2.83499">
        <ele>149.8</ele>
        <time>2020-07-02T12:54:25Z</time>
      </trkpt>
      <trkpt lat="48.4438" lon="-2.83504">
        <ele>150.3</ele>
        <time>2020-07-02T12:54:28Z</time>
      </trkpt>
      <trkpt lat="48.44383" lon="-2.83511">
        <ele>151.3</ele>
        <time>2020-07-02T12:54:31Z</time>
      </trkpt>
      <trkpt lat="48.44384" lon="-2.83523">
        <ele>152.7</ele>
        <time>2020-07-02T12:54:34Z</time>
      </trkpt>
      <trkpt lat="48.44386" lon="-2.83541">
        <ele>154.7</ele>
        <time>2020-07-02T12:54:37Z</time>
      </trkpt>
      <trkpt lat="48.44388" lon="-2.83563">
        <ele>157</ele>
        <time>2020-07-02T12:54:40Z</time>
      </trkpt>
      <trkpt lat="48.4439" lon="-2.83593">
        <ele>158</ele>
        <time>2020-07-02T12:54:43Z</time>
      </trkpt>
      <trkpt lat="48.4439" lon="-2.83627">
        <ele>157.2</ele>
        <time>2020-07-02T12:54:46Z</time>
      </trkpt>
      <trkpt lat="48.44389" lon="-2.83662">
        <ele>155.2</ele>
        <time>2020-07-02T12:54:49Z</time>
      </trkpt>
      <trkpt lat="48.44388" lon="-2.83693">
        <ele>152.4</ele>
        <time>2020-07-02T12:54:52Z</time>
      </trkpt>
      <trkpt lat="48.44386" lon="-2.8372">
        <ele>149</ele>
        <time>2020-07-02T12:54:55Z</time>
      </trkpt>
      <trkpt lat="48.44384" lon="-2.83742">
        <ele>146.4</ele>
        <time>2020-07-02T12:54:58Z</time>
      </trkpt>
      <trkpt lat="48.44379" lon="-2.83768">
        <ele>144.3</ele>
        <time>2020-07-02T12:55:01Z</time>
      </trkpt>
      <trkpt lat="48.44372" lon="-2.83789">
        <ele>142.5</ele>
        <time>2020-07-02T12:55:04Z</time>
      </trkpt>
      <trkpt lat="48.44366" lon="-2.83804">
        <ele>140.8</ele>
        <time>2020-07-02T12:55:07Z</time>
      </trkpt>
      <trkpt lat="48.44358" lon="-2.83821">
        <ele>138.7</ele>
        <time>2020-07-02T12:55:10Z</time>
      </trkpt>
      <trkpt lat="48.44351" lon="-2.83841">
        <ele>137.1</ele>
        <time>2020-07-02T12:55:13Z</time>
      </trkpt>
      <trkpt lat="48.44347" lon="-2.83856">
        <ele>136.1</ele>
        <time>2020-07-02T12:55:16Z</time>
      </trkpt>
      <trkpt lat="48.44347" lon="-2.83866">
        <ele>134.7</ele>
        <time>2020-07-02T12:55:19Z</time>
      </trkpt>
      <trkpt lat="48.44352" lon="-2.83871">
        <ele>133.5</ele>
        <time>2020-07-02T12:55:22Z</time>
      </trkpt>
      <trkpt lat="48.44361" lon="-2.83871">
        <ele>133</ele>
        <time>2020-07-02T12:55:25Z</time>
      </trkpt>
      <trkpt lat="48.44374" lon="-2.83868">
        <ele>131.6</ele>
        <time>2020-07-02T12:55:28Z</time>
      </trkpt>
      <trkpt lat="48.44385" lon="-2.83867">
        <ele>130.4</ele>
        <time>2020-07-02T12:55:31Z</time>
      </trkpt>
      <trkpt lat="48.44391" lon="-2.83868">
        <ele>129.8</ele>
        <time>2020-07-02T12:55:34Z</time>
      </trkpt>
      <trkpt lat="48.44398" lon="-2.8387">
        <ele>128.8</ele>
        <time>2020-07-02T12:55:37Z</time>
      </trkpt>
      <trkpt lat="48.44405" lon="-2.83868">
        <ele>127.6</ele>
        <time>2020-07-02T12:55:40Z</time>
      </trkpt>
      <trkpt lat="48.44412" lon="-2.83868">
        <ele>126.5</ele>
        <time>2020-07-02T12:55:43Z</time>
      </trkpt>
      <trkpt lat="48.44418" lon="-2.83868">
        <ele>125.7</ele>
        <time>2020-07-02T12:55:46Z</time>
      </trkpt>
      <trkpt lat="48.44424" lon="-2.83867">
        <ele>125</ele>
        <time>2020-07-02T12:55:49Z</time>
      </trkpt>
      <trkpt lat="48.44429" lon="-2.83866">
        <ele>124.1</ele>
        <time>2020-07-02T12:55:52Z</time>
      </trkpt>
      <trkpt lat="48.44435" lon="-2.83862">
        <ele>123.4</ele>
        <time>2020-07-02T12:55:55Z</time>
      </trkpt>
      <trkpt lat="48.44441" lon="-2.83857">
        <ele>122.4</ele>
        <time>2020-07-02T12:56:02Z</time>
      </trkpt>
      <trkpt lat="48.4445" lon="-2.83845">
        <ele>121.6</ele>
        <time>2020-07-02T12:56:05Z</time>
      </trkpt>
      <trkpt lat="48.4446" lon="-2.8383">
        <ele>120.1</ele>
        <time>2020-07-02T12:56:08Z</time>
      </trkpt>
      <trkpt lat="48.44472" lon="-2.83812">
        <ele>118.1</ele>
        <time>2020-07-02T12:56:11Z</time>
      </trkpt>
      <trkpt lat="48.44485" lon="-2.83791">
        <ele>116.3</ele>
        <time>2020-07-02T12:56:14Z</time>
      </trkpt>
      <trkpt lat="48.44495" lon="-2.83774">
        <ele>114.4</ele>
        <time>2020-07-02T12:56:17Z</time>
      </trkpt>
      <trkpt lat="48.44502" lon="-2.83764">
        <ele>113.3</ele>
        <time>2020-07-02T12:56:20Z</time>
      </trkpt>
      <trkpt lat="48.4451" lon="-2.83753">
        <ele>111.6</ele>
        <time>2020-07-02T12:56:23Z</time>
      </trkpt>
      <trkpt lat="48.44517" lon="-2.83748">
        <ele>110.1</ele>
        <time>2020-07-02T12:56:26Z</time>
      </trkpt>
      <trkpt lat="48.44523" lon="-2.83751">
        <ele>109.5</ele>
        <time>2020-07-02T12:56:29Z</time>
      </trkpt>
      <trkpt lat="48.44528" lon="-2.83757">
        <ele>108.1</ele>
        <time>2020-07-02T12:58:02Z</time>
      </trkpt>
      <trkpt lat="48.44532" lon="-2.83764">
        <ele>108.3</ele>
        <time>2020-07-02T12:58:05Z</time>
      </trkpt>
      <trkpt lat="48.44536" lon="-2.83772">
        <ele>108.8</ele>
        <time>2020-07-02T12:58:09Z</time>
      </trkpt>
      <trkpt lat="48.44538" lon="-2.8378">
        <ele>109.9</ele>
        <time>2020-07-02T12:58:12Z</time>
      </trkpt>
      <trkpt lat="48.44538" lon="-2.83789">
        <ele>110.4</ele>
        <time>2020-07-02T12:58:15Z</time>
      </trkpt>
      <trkpt lat="48.44538" lon="-2.83798">
        <ele>110.8</ele>
        <time>2020-07-02T12:58:18Z</time>
      </trkpt>
      <trkpt lat="48.44538" lon="-2.83807">
        <ele>110.9</ele>
        <time>2020-07-02T12:58:22Z</time>
      </trkpt>
      <trkpt lat="48.44538" lon="-2.83815">
        <ele>111.4</ele>
        <time>2020-07-02T12:58:32Z</time>
      </trkpt>
      <trkpt lat="48.44536" lon="-2.83824">
        <ele>112</ele>
        <time>2020-07-02T12:58:35Z</time>
      </trkpt>
      <trkpt lat="48.44532" lon="-2.83832">
        <ele>112.7</ele>
        <time>2020-07-02T12:58:38Z</time>
      </trkpt>
      <trkpt lat="48.44527" lon="-2.83843">
        <ele>112.6</ele>
        <time>2020-07-02T12:58:41Z</time>
      </trkpt>
      <trkpt lat="48.44525" lon="-2.83856">
        <ele>112</ele>
        <time>2020-07-02T12:58:44Z</time>
      </trkpt>
      <trkpt lat="48.44523" lon="-2.83865">
        <ele>111.3</ele>
        <time>2020-07-02T12:58:47Z</time>
      </trkpt>
      <trkpt lat="48.44521" lon="-2.83874">
        <ele>110.7</ele>
        <time>2020-07-02T12:58:50Z</time>
      </trkpt>
      <trkpt lat="48.44515" lon="-2.83883">
        <ele>111</ele>
        <time>2020-07-02T12:58:53Z</time>
      </trkpt>
      <trkpt lat="48.44511" lon="-2.8389">
        <ele>112.2</ele>
        <time>2020-07-02T12:58:56Z</time>
      </trkpt>
      <trkpt lat="48.44504" lon="-2.839">
        <ele>115.2</ele>
        <time>2020-07-02T12:59:04Z</time>
      </trkpt>
      <trkpt lat="48.44498" lon="-2.83908">
        <ele>116.8</ele>
        <time>2020-07-02T12:59:07Z</time>
      </trkpt>
      <trkpt lat="48.44492" lon="-2.83917">
        <ele>118.5</ele>
        <time>2020-07-02T12:59:10Z</time>
      </trkpt>
      <trkpt lat="48.44488" lon="-2.83924">
        <ele>119.8</ele>
        <time>2020-07-02T12:59:13Z</time>
      </trkpt>
      <trkpt lat="48.44481" lon="-2.8393">
        <ele>121.9</ele>
        <time>2020-07-02T12:59:21Z</time>
      </trkpt>
      <trkpt lat="48.44471" lon="-2.83937">
        <ele>121.8</ele>
        <time>2020-07-02T12:59:24Z</time>
      </trkpt>
      <trkpt lat="48.44457" lon="-2.83938">
        <ele>121.6</ele>
        <time>2020-07-02T12:59:27Z</time>
      </trkpt>
      <trkpt lat="48.4444" lon="-2.83944">
        <ele>121</ele>
        <time>2020-07-02T12:59:30Z</time>
      </trkpt>
      <trkpt lat="48.44426" lon="-2.8395">
        <ele>120</ele>
        <time>2020-07-02T12:59:33Z</time>
      </trkpt>
      <trkpt lat="48.44414" lon="-2.83958">
        <ele>118.4</ele>
        <time>2020-07-02T12:59:36Z</time>
      </trkpt>
      <trkpt lat="48.44406" lon="-2.83968">
        <ele>116.5</ele>
        <time>2020-07-02T12:59:39Z</time>
      </trkpt>
      <trkpt lat="48.44398" lon="-2.83977">
        <ele>115.1</ele>
        <time>2020-07-02T12:59:42Z</time>
      </trkpt>
      <trkpt lat="48.44391" lon="-2.8399">
        <ele>112.8</ele>
        <time>2020-07-02T12:59:45Z</time>
      </trkpt>
      <trkpt lat="48.44385" lon="-2.84003">
        <ele>111.1</ele>
        <time>2020-07-02T12:59:48Z</time>
      </trkpt>
      <trkpt lat="48.44381" lon="-2.84011">
        <ele>109</ele>
        <time>2020-07-02T12:59:53Z</time>
      </trkpt>
      <trkpt lat="48.44374" lon="-2.84016">
        <ele>107.9</ele>
        <time>2020-07-02T12:59:56Z</time>
      </trkpt>
      <trkpt lat="48.44368" lon="-2.84018">
        <ele>106.8</ele>
        <time>2020-07-02T12:59:59Z</time>
      </trkpt>
      <trkpt lat="48.44362" lon="-2.84016">
        <ele>105.2</ele>
        <time>2020-07-02T13:00:02Z</time>
      </trkpt>
      <trkpt lat="48.44357" lon="-2.84012">
        <ele>103.9</ele>
        <time>2020-07-02T13:00:05Z</time>
      </trkpt>
      <trkpt lat="48.44353" lon="-2.84008">
        <ele>103</ele>
        <time>2020-07-02T13:00:08Z</time>
      </trkpt>
      <trkpt lat="48.44349" lon="-2.84005">
        <ele>102.7</ele>
        <time>2020-07-02T13:00:11Z</time>
      </trkpt>
      <trkpt lat="48.4434" lon="-2.84002">
        <ele>103.5</ele>
        <time>2020-07-02T13:00:14Z</time>
      </trkpt>
      <trkpt lat="48.44331" lon="-2.84001">
        <ele>104.9</ele>
        <time>2020-07-02T13:00:17Z</time>
      </trkpt>
      <trkpt lat="48.44321" lon="-2.84007">
        <ele>106</ele>
        <time>2020-07-02T13:00:20Z</time>
      </trkpt>
      <trkpt lat="48.44313" lon="-2.84012">
        <ele>107.7</ele>
        <time>2020-07-02T13:00:23Z</time>
      </trkpt>
      <trkpt lat="48.44307" lon="-2.84016">
        <ele>109.6</ele>
        <time>2020-07-02T13:00:26Z</time>
      </trkpt>
      <trkpt lat="48.44301" lon="-2.84023">
        <ele>111.5</ele>
        <time>2020-07-02T13:00:29Z</time>
      </trkpt>
      <trkpt lat="48.44293" lon="-2.8403">
        <ele>113.5</ele>
        <time>2020-07-02T13:00:32Z</time>
      </trkpt>
      <trkpt lat="48.44287" lon="-2.84036">
        <ele>115.5</ele>
        <time>2020-07-02T13:00:35Z</time>
      </trkpt>
      <trkpt lat="48.44277" lon="-2.84043">
        <ele>117.1</ele>
        <time>2020-07-02T13:00:38Z</time>
      </trkpt>
      <trkpt lat="48.44269" lon="-2.8405">
        <ele>118.1</ele>
        <time>2020-07-02T13:00:41Z</time>
      </trkpt>
      <trkpt lat="48.44261" lon="-2.84058">
        <ele>118.3</ele>
        <time>2020-07-02T13:00:44Z</time>
      </trkpt>
      <trkpt lat="48.44254" lon="-2.84065">
        <ele>118.3</ele>
        <time>2020-07-02T13:00:47Z</time>
      </trkpt>
      <trkpt lat="48.44248" lon="-2.8407">
        <ele>117.9</ele>
        <time>2020-07-02T13:00:50Z</time>
      </trkpt>
      <trkpt lat="48.44235" lon="-2.84074">
        <ele>117.1</ele>
        <time>2020-07-02T13:00:53Z</time>
      </trkpt>
      <trkpt lat="48.44216" lon="-2.84075">
        <ele>115.4</ele>
        <time>2020-07-02T13:00:56Z</time>
      </trkpt>
      <trkpt lat="48.44198" lon="-2.84075">
        <ele>112.5</ele>
        <time>2020-07-02T13:00:59Z</time>
      </trkpt>
      <trkpt lat="48.44184" lon="-2.84075">
        <ele>109.8</ele>
        <time>2020-07-02T13:01:02Z</time>
      </trkpt>
      <trkpt lat="48.44173" lon="-2.8408">
        <ele>107</ele>
        <time>2020-07-02T13:01:05Z</time>
      </trkpt>
      <trkpt lat="48.44161" lon="-2.84088">
        <ele>104.9</ele>
        <time>2020-07-02T13:01:08Z</time>
      </trkpt>
      <trkpt lat="48.44149" lon="-2.84096">
        <ele>103.1</ele>
        <time>2020-07-02T13:01:11Z</time>
      </trkpt>
      <trkpt lat="48.44138" lon="-2.84104">
        <ele>102</ele>
        <time>2020-07-02T13:01:14Z</time>
      </trkpt>
      <trkpt lat="48.44128" lon="-2.84111">
        <ele>101.7</ele>
        <time>2020-07-02T13:01:17Z</time>
      </trkpt>
      <trkpt lat="48.44119" lon="-2.8412">
        <ele>101.8</ele>
        <time>2020-07-02T13:01:20Z</time>
      </trkpt>
      <trkpt lat="48.44112" lon="-2.84131">
        <ele>101.8</ele>
        <time>2020-07-02T13:01:23Z</time>
      </trkpt>
      <trkpt lat="48.44106" lon="-2.84137">
        <ele>102.4</ele>
        <time>2020-07-02T13:01:26Z</time>
      </trkpt>
      <trkpt lat="48.44098" lon="-2.84143">
        <ele>103.6</ele>
        <time>2020-07-02T13:01:29Z</time>
      </trkpt>
      <trkpt lat="48.4409" lon="-2.84151">
        <ele>104.5</ele>
        <time>2020-07-02T13:01:32Z</time>
      </trkpt>
      <trkpt lat="48.44081" lon="-2.84159">
        <ele>106</ele>
        <time>2020-07-02T13:01:35Z</time>
      </trkpt>
      <trkpt lat="48.44073" lon="-2.84163">
        <ele>107.1</ele>
        <time>2020-07-02T13:01:38Z</time>
      </trkpt>
      <trkpt lat="48.44063" lon="-2.84166">
        <ele>107.7</ele>
        <time>2020-07-02T13:01:41Z</time>
      </trkpt>
      <trkpt lat="48.4405" lon="-2.84167">
        <ele>107.4</ele>
        <time>2020-07-02T13:01:44Z</time>
      </trkpt>
      <trkpt lat="48.44039" lon="-2.84165">
        <ele>106.7</ele>
        <time>2020-07-02T13:01:47Z</time>
      </trkpt>
      <trkpt lat="48.44028" lon="-2.84161">
        <ele>106.8</ele>
        <time>2020-07-02T13:01:50Z</time>
      </trkpt>
      <trkpt lat="48.44019" lon="-2.84161">
        <ele>107.3</ele>
        <time>2020-07-02T13:01:53Z</time>
      </trkpt>
      <trkpt lat="48.44011" lon="-2.8416">
        <ele>108.8</ele>
        <time>2020-07-02T13:01:56Z</time>
      </trkpt>
      <trkpt lat="48.44004" lon="-2.84157">
        <ele>110.5</ele>
        <time>2020-07-02T13:01:59Z</time>
      </trkpt>
      <trkpt lat="48.43997" lon="-2.84154">
        <ele>112.6</ele>
        <time>2020-07-02T13:02:02Z</time>
      </trkpt>
      <trkpt lat="48.4399" lon="-2.84153">
        <ele>114.3</ele>
        <time>2020-07-02T13:02:05Z</time>
      </trkpt>
      <trkpt lat="48.43983" lon="-2.84152">
        <ele>115.4</ele>
        <time>2020-07-02T13:02:08Z</time>
      </trkpt>
      <trkpt lat="48.43978" lon="-2.84149">
        <ele>116.1</ele>
        <time>2020-07-02T13:02:11Z</time>
      </trkpt>
      <trkpt lat="48.43972" lon="-2.84148">
        <ele>116.8</ele>
        <time>2020-07-02T13:02:14Z</time>
      </trkpt>
      <trkpt lat="48.43964" lon="-2.84148">
        <ele>116.8</ele>
        <time>2020-07-02T13:02:17Z</time>
      </trkpt>
      <trkpt lat="48.43954" lon="-2.84149">
        <ele>116.9</ele>
        <time>2020-07-02T13:02:20Z</time>
      </trkpt>
      <trkpt lat="48.43944" lon="-2.84149">
        <ele>117.2</ele>
        <time>2020-07-02T13:02:23Z</time>
      </trkpt>
      <trkpt lat="48.43936" lon="-2.84148">
        <ele>118.1</ele>
        <time>2020-07-02T13:02:26Z</time>
      </trkpt>
      <trkpt lat="48.43929" lon="-2.84147">
        <ele>119.1</ele>
        <time>2020-07-02T13:02:29Z</time>
      </trkpt>
      <trkpt lat="48.43922" lon="-2.84143">
        <ele>120.1</ele>
        <time>2020-07-02T13:02:32Z</time>
      </trkpt>
      <trkpt lat="48.43914" lon="-2.84139">
        <ele>121.1</ele>
        <time>2020-07-02T13:02:35Z</time>
      </trkpt>
      <trkpt lat="48.43906" lon="-2.84132">
        <ele>123.4</ele>
        <time>2020-07-02T13:03:02Z</time>
      </trkpt>
      <trkpt lat="48.43898" lon="-2.84125">
        <ele>123.2</ele>
        <time>2020-07-02T13:03:05Z</time>
      </trkpt>
      <trkpt lat="48.43893" lon="-2.84119">
        <ele>122.8</ele>
        <time>2020-07-02T13:03:08Z</time>
      </trkpt>
      <trkpt lat="48.43888" lon="-2.84112">
        <ele>121.7</ele>
        <time>2020-07-02T13:03:11Z</time>
      </trkpt>
      <trkpt lat="48.43884" lon="-2.84104">
        <ele>121</ele>
        <time>2020-07-02T13:03:14Z</time>
      </trkpt>
      <trkpt lat="48.43882" lon="-2.84097">
        <ele>120.4</ele>
        <time>2020-07-02T13:03:17Z</time>
      </trkpt>
      <trkpt lat="48.4388" lon="-2.84088">
        <ele>120.1</ele>
        <time>2020-07-02T13:03:20Z</time>
      </trkpt>
      <trkpt lat="48.43877" lon="-2.84079">
        <ele>119.8</ele>
        <time>2020-07-02T13:03:23Z</time>
      </trkpt>
      <trkpt lat="48.43875" lon="-2.84071">
        <ele>119.6</ele>
        <time>2020-07-02T13:03:26Z</time>
      </trkpt>
      <trkpt lat="48.4387" lon="-2.84067">
        <ele>118.9</ele>
        <time>2020-07-02T13:03:31Z</time>
      </trkpt>
      <trkpt lat="48.43865" lon="-2.84065">
        <ele>117.4</ele>
        <time>2020-07-02T13:03:34Z</time>
      </trkpt>
      <trkpt lat="48.43861" lon="-2.84064">
        <ele>115.5</ele>
        <time>2020-07-02T13:03:39Z</time>
      </trkpt>
      <trkpt lat="48.43854" lon="-2.84062">
        <ele>114.5</ele>
        <time>2020-07-02T13:03:42Z</time>
      </trkpt>
      <trkpt lat="48.43847" lon="-2.84058">
        <ele>114.4</ele>
        <time>2020-07-02T13:03:45Z</time>
      </trkpt>
      <trkpt lat="48.4384" lon="-2.84055">
        <ele>114.5</ele>
        <time>2020-07-02T13:03:48Z</time>
      </trkpt>
      <trkpt lat="48.43833" lon="-2.84053">
        <ele>115</ele>
        <time>2020-07-02T13:03:51Z</time>
      </trkpt>
      <trkpt lat="48.43827" lon="-2.84049">
        <ele>116</ele>
        <time>2020-07-02T13:03:54Z</time>
      </trkpt>
      <trkpt lat="48.43823" lon="-2.84044">
        <ele>117.2</ele>
        <time>2020-07-02T13:03:57Z</time>
      </trkpt>
      <trkpt lat="48.43817" lon="-2.84038">
        <ele>118.5</ele>
        <time>2020-07-02T13:04:00Z</time>
      </trkpt>
      <trkpt lat="48.4381" lon="-2.84029">
        <ele>120.1</ele>
        <time>2020-07-02T13:04:03Z</time>
      </trkpt>
      <trkpt lat="48.43801" lon="-2.8402">
        <ele>121.5</ele>
        <time>2020-07-02T13:04:06Z</time>
      </trkpt>
      <trkpt lat="48.43792" lon="-2.84013">
        <ele>122</ele>
        <time>2020-07-02T13:04:09Z</time>
      </trkpt>
      <trkpt lat="48.43785" lon="-2.84006">
        <ele>122.1</ele>
        <time>2020-07-02T13:04:12Z</time>
      </trkpt>
      <trkpt lat="48.43778" lon="-2.84">
        <ele>121.5</ele>
        <time>2020-07-02T13:04:15Z</time>
      </trkpt>
      <trkpt lat="48.43774" lon="-2.83997">
        <ele>120.8</ele>
        <time>2020-07-02T13:04:20Z</time>
      </trkpt>
      <trkpt lat="48.43769" lon="-2.83994">
        <ele>120</ele>
        <time>2020-07-02T13:04:24Z</time>
      </trkpt>
      <trkpt lat="48.43763" lon="-2.83991">
        <ele>119.2</ele>
        <time>2020-07-02T13:04:27Z</time>
      </trkpt>
      <trkpt lat="48.43755" lon="-2.83984">
        <ele>118.5</ele>
        <time>2020-07-02T13:04:30Z</time>
      </trkpt>
      <trkpt lat="48.43746" lon="-2.8398">
        <ele>118.4</ele>
        <time>2020-07-02T13:04:33Z</time>
      </trkpt>
      <trkpt lat="48.43736" lon="-2.83978">
        <ele>119</ele>
        <time>2020-07-02T13:04:36Z</time>
      </trkpt>
      <trkpt lat="48.43727" lon="-2.83975">
        <ele>119.5</ele>
        <time>2020-07-02T13:04:39Z</time>
      </trkpt>
      <trkpt lat="48.43719" lon="-2.83971">
        <ele>120.4</ele>
        <time>2020-07-02T13:04:42Z</time>
      </trkpt>
      <trkpt lat="48.43711" lon="-2.83966">
        <ele>121.7</ele>
        <time>2020-07-02T13:04:45Z</time>
      </trkpt>
      <trkpt lat="48.43706" lon="-2.83962">
        <ele>122.7</ele>
        <time>2020-07-02T13:04:48Z</time>
      </trkpt>
      <trkpt lat="48.43703" lon="-2.83955">
        <ele>123.8</ele>
        <time>2020-07-02T13:04:51Z</time>
      </trkpt>
      <trkpt lat="48.43698" lon="-2.83946">
        <ele>124.8</ele>
        <time>2020-07-02T13:04:54Z</time>
      </trkpt>
      <trkpt lat="48.43692" lon="-2.83939">
        <ele>125.4</ele>
        <time>2020-07-02T13:04:57Z</time>
      </trkpt>
      <trkpt lat="48.43687" lon="-2.83933">
        <ele>125.9</ele>
        <time>2020-07-02T13:05:00Z</time>
      </trkpt>
      <trkpt lat="48.43681" lon="-2.83927">
        <ele>126.3</ele>
        <time>2020-07-02T13:05:03Z</time>
      </trkpt>
      <trkpt lat="48.43675" lon="-2.83919">
        <ele>126.7</ele>
        <time>2020-07-02T13:05:06Z</time>
      </trkpt>
      <trkpt lat="48.43671" lon="-2.83909">
        <ele>126.7</ele>
        <time>2020-07-02T13:05:09Z</time>
      </trkpt>
      <trkpt lat="48.43669" lon="-2.83898">
        <ele>126.5</ele>
        <time>2020-07-02T13:05:12Z</time>
      </trkpt>
      <trkpt lat="48.4367" lon="-2.83887">
        <ele>126.1</ele>
        <time>2020-07-02T13:05:15Z</time>
      </trkpt>
      <trkpt lat="48.43673" lon="-2.83876">
        <ele>125.7</ele>
        <time>2020-07-02T13:05:18Z</time>
      </trkpt>
      <trkpt lat="48.43676" lon="-2.83866">
        <ele>125.7</ele>
        <time>2020-07-02T13:05:21Z</time>
      </trkpt>
      <trkpt lat="48.43678" lon="-2.83859">
        <ele>125.7</ele>
        <time>2020-07-02T13:05:25Z</time>
      </trkpt>
      <trkpt lat="48.43679" lon="-2.83852">
        <ele>125.5</ele>
        <time>2020-07-02T13:06:33Z</time>
      </trkpt>
      <trkpt lat="48.43679" lon="-2.83841">
        <ele>125.7</ele>
        <time>2020-07-02T13:06:36Z</time>
      </trkpt>
      <trkpt lat="48.43676" lon="-2.8383">
        <ele>126.2</ele>
        <time>2020-07-02T13:06:39Z</time>
      </trkpt>
      <trkpt lat="48.43672" lon="-2.83821">
        <ele>126.7</ele>
        <time>2020-07-02T13:06:42Z</time>
      </trkpt>
      <trkpt lat="48.43666" lon="-2.83811">
        <ele>126.2</ele>
        <time>2020-07-02T13:06:45Z</time>
      </trkpt>
      <trkpt lat="48.4366" lon="-2.838">
        <ele>125</ele>
        <time>2020-07-02T13:06:48Z</time>
      </trkpt>
      <trkpt lat="48.43653" lon="-2.83789">
        <ele>124.4</ele>
        <time>2020-07-02T13:06:51Z</time>
      </trkpt>
      <trkpt lat="48.43646" lon="-2.83782">
        <ele>124.2</ele>
        <time>2020-07-02T13:06:54Z</time>
      </trkpt>
      <trkpt lat="48.43639" lon="-2.83782">
        <ele>123.9</ele>
        <time>2020-07-02T13:06:57Z</time>
      </trkpt>
      <trkpt lat="48.4363" lon="-2.83789">
        <ele>124.6</ele>
        <time>2020-07-02T13:07:00Z</time>
      </trkpt>
      <trkpt lat="48.4362" lon="-2.83795">
        <ele>125.5</ele>
        <time>2020-07-02T13:07:03Z</time>
      </trkpt>
      <trkpt lat="48.43612" lon="-2.83798">
        <ele>125.8</ele>
        <time>2020-07-02T13:07:06Z</time>
      </trkpt>
      <trkpt lat="48.43604" lon="-2.83802">
        <ele>126</ele>
        <time>2020-07-02T13:07:09Z</time>
      </trkpt>
      <trkpt lat="48.43596" lon="-2.83807">
        <ele>126.7</ele>
        <time>2020-07-02T13:07:12Z</time>
      </trkpt>
      <trkpt lat="48.4359" lon="-2.83807">
        <ele>127</ele>
        <time>2020-07-02T13:07:15Z</time>
      </trkpt>
      <trkpt lat="48.43585" lon="-2.83804">
        <ele>127.6</ele>
        <time>2020-07-02T13:07:18Z</time>
      </trkpt>
      <trkpt lat="48.43582" lon="-2.83798">
        <ele>128.1</ele>
        <time>2020-07-02T13:07:22Z</time>
      </trkpt>
      <trkpt lat="48.43576" lon="-2.83799">
        <ele>128.9</ele>
        <time>2020-07-02T13:07:28Z</time>
      </trkpt>
      <trkpt lat="48.4357" lon="-2.83804">
        <ele>129.7</ele>
        <time>2020-07-02T13:07:31Z</time>
      </trkpt>
      <trkpt lat="48.43564" lon="-2.83811">
        <ele>130</ele>
        <time>2020-07-02T13:07:34Z</time>
      </trkpt>
      <trkpt lat="48.43558" lon="-2.83815">
        <ele>129.5</ele>
        <time>2020-07-02T13:07:37Z</time>
      </trkpt>
      <trkpt lat="48.43551" lon="-2.83822">
        <ele>128.2</ele>
        <time>2020-07-02T13:07:40Z</time>
      </trkpt>
      <trkpt lat="48.43546" lon="-2.83829">
        <ele>126.9</ele>
        <time>2020-07-02T13:07:43Z</time>
      </trkpt>
      <trkpt lat="48.43543" lon="-2.83835">
        <ele>126.6</ele>
        <time>2020-07-02T13:07:47Z</time>
      </trkpt>
      <trkpt lat="48.43542" lon="-2.83844">
        <ele>127.4</ele>
        <time>2020-07-02T13:07:51Z</time>
      </trkpt>
      <trkpt lat="48.43538" lon="-2.83858">
        <ele>128.9</ele>
        <time>2020-07-02T13:07:54Z</time>
      </trkpt>
      <trkpt lat="48.43531" lon="-2.83871">
        <ele>129</ele>
        <time>2020-07-02T13:07:57Z</time>
      </trkpt>
      <trkpt lat="48.43523" lon="-2.83875">
        <ele>128.2</ele>
        <time>2020-07-02T13:08:00Z</time>
      </trkpt>
      <trkpt lat="48.43517" lon="-2.83877">
        <ele>127</ele>
        <time>2020-07-02T13:08:03Z</time>
      </trkpt>
      <trkpt lat="48.43507" lon="-2.83876">
        <ele>125.6</ele>
        <time>2020-07-02T13:08:06Z</time>
      </trkpt>
      <trkpt lat="48.43498" lon="-2.83872">
        <ele>124.2</ele>
        <time>2020-07-02T13:08:09Z</time>
      </trkpt>
      <trkpt lat="48.43491" lon="-2.83871">
        <ele>123.1</ele>
        <time>2020-07-02T13:08:12Z</time>
      </trkpt>
      <trkpt lat="48.43483" lon="-2.83872">
        <ele>122.1</ele>
        <time>2020-07-02T13:08:15Z</time>
      </trkpt>
      <trkpt lat="48.43474" lon="-2.83874">
        <ele>121.7</ele>
        <time>2020-07-02T13:08:18Z</time>
      </trkpt>
      <trkpt lat="48.43464" lon="-2.83874">
        <ele>121.6</ele>
        <time>2020-07-02T13:08:21Z</time>
      </trkpt>
      <trkpt lat="48.43457" lon="-2.83871">
        <ele>121.3</ele>
        <time>2020-07-02T13:08:24Z</time>
      </trkpt>
      <trkpt lat="48.43449" lon="-2.83872">
        <ele>120.9</ele>
        <time>2020-07-02T13:08:27Z</time>
      </trkpt>
      <trkpt lat="48.43441" lon="-2.83873">
        <ele>121.2</ele>
        <time>2020-07-02T13:08:30Z</time>
      </trkpt>
      <trkpt lat="48.43434" lon="-2.83874">
        <ele>121.9</ele>
        <time>2020-07-02T13:08:33Z</time>
      </trkpt>
      <trkpt lat="48.43428" lon="-2.83877">
        <ele>122.8</ele>
        <time>2020-07-02T13:08:36Z</time>
      </trkpt>
      <trkpt lat="48.4342" lon="-2.83883">
        <ele>123.5</ele>
        <time>2020-07-02T13:08:39Z</time>
      </trkpt>
      <trkpt lat="48.43409" lon="-2.83888">
        <ele>123.6</ele>
        <time>2020-07-02T13:08:42Z</time>
      </trkpt>
      <trkpt lat="48.43399" lon="-2.83889">
        <ele>123.6</ele>
        <time>2020-07-02T13:08:45Z</time>
      </trkpt>
      <trkpt lat="48.43392" lon="-2.83889">
        <ele>123.9</ele>
        <time>2020-07-02T13:08:48Z</time>
      </trkpt>
      <trkpt lat="48.43387" lon="-2.83889">
        <ele>124.5</ele>
        <time>2020-07-02T13:08:53Z</time>
      </trkpt>
      <trkpt lat="48.43382" lon="-2.83888">
        <ele>125.2</ele>
        <time>2020-07-02T13:08:58Z</time>
      </trkpt>
      <trkpt lat="48.43377" lon="-2.83887">
        <ele>125.5</ele>
        <time>2020-07-02T13:09:01Z</time>
      </trkpt>
      <trkpt lat="48.43371" lon="-2.83889">
        <ele>125.4</ele>
        <time>2020-07-02T13:09:18Z</time>
      </trkpt>
      <trkpt lat="48.43363" lon="-2.83893">
        <ele>124.9</ele>
        <time>2020-07-02T13:09:21Z</time>
      </trkpt>
      <trkpt lat="48.43358" lon="-2.83895">
        <ele>124.4</ele>
        <time>2020-07-02T13:09:24Z</time>
      </trkpt>
      <trkpt lat="48.43352" lon="-2.83898">
        <ele>123.2</ele>
        <time>2020-07-02T13:09:32Z</time>
      </trkpt>
      <trkpt lat="48.43342" lon="-2.83905">
        <ele>122.4</ele>
        <time>2020-07-02T13:09:35Z</time>
      </trkpt>
      <trkpt lat="48.43335" lon="-2.83911">
        <ele>122</ele>
        <time>2020-07-02T13:09:38Z</time>
      </trkpt>
      <trkpt lat="48.43329" lon="-2.83915">
        <ele>122</ele>
        <time>2020-07-02T13:09:41Z</time>
      </trkpt>
      <trkpt lat="48.43325" lon="-2.83919">
        <ele>122.4</ele>
        <time>2020-07-02T13:09:45Z</time>
      </trkpt>
      <trkpt lat="48.43321" lon="-2.83923">
        <ele>123.1</ele>
        <time>2020-07-02T13:10:04Z</time>
      </trkpt>
      <trkpt lat="48.43319" lon="-2.8393">
        <ele>123.6</ele>
        <time>2020-07-02T13:10:07Z</time>
      </trkpt>
      <trkpt lat="48.43314" lon="-2.83936">
        <ele>124.7</ele>
        <time>2020-07-02T13:10:10Z</time>
      </trkpt>
      <trkpt lat="48.43308" lon="-2.83943">
        <ele>126.4</ele>
        <time>2020-07-02T13:10:13Z</time>
      </trkpt>
      <trkpt lat="48.43301" lon="-2.83951">
        <ele>128.3</ele>
        <time>2020-07-02T13:10:16Z</time>
      </trkpt>
      <trkpt lat="48.43291" lon="-2.83962">
        <ele>129.6</ele>
        <time>2020-07-02T13:10:19Z</time>
      </trkpt>
      <trkpt lat="48.4328" lon="-2.83977">
        <ele>129.5</ele>
        <time>2020-07-02T13:10:22Z</time>
      </trkpt>
      <trkpt lat="48.4327" lon="-2.83991">
        <ele>128.7</ele>
        <time>2020-07-02T13:10:25Z</time>
      </trkpt>
      <trkpt lat="48.43259" lon="-2.83996">
        <ele>127.1</ele>
        <time>2020-07-02T13:10:28Z</time>
      </trkpt>
      <trkpt lat="48.43246" lon="-2.84001">
        <ele>125</ele>
        <time>2020-07-02T13:10:31Z</time>
      </trkpt>
      <trkpt lat="48.43235" lon="-2.84012">
        <ele>123.6</ele>
        <time>2020-07-02T13:10:34Z</time>
      </trkpt>
      <trkpt lat="48.43227" lon="-2.84024">
        <ele>123</ele>
        <time>2020-07-02T13:10:37Z</time>
      </trkpt>
      <trkpt lat="48.43219" lon="-2.84033">
        <ele>122.5</ele>
        <time>2020-07-02T13:10:40Z</time>
      </trkpt>
      <trkpt lat="48.4321" lon="-2.84038">
        <ele>122.5</ele>
        <time>2020-07-02T13:10:43Z</time>
      </trkpt>
      <trkpt lat="48.432" lon="-2.84041">
        <ele>123.3</ele>
        <time>2020-07-02T13:10:46Z</time>
      </trkpt>
      <trkpt lat="48.43189" lon="-2.84042">
        <ele>124.7</ele>
        <time>2020-07-02T13:10:49Z</time>
      </trkpt>
      <trkpt lat="48.43178" lon="-2.8404">
        <ele>126.2</ele>
        <time>2020-07-02T13:10:52Z</time>
      </trkpt>
      <trkpt lat="48.43167" lon="-2.84041">
        <ele>128</ele>
        <time>2020-07-02T13:10:55Z</time>
      </trkpt>
      <trkpt lat="48.43157" lon="-2.84043">
        <ele>129.9</ele>
        <time>2020-07-02T13:10:58Z</time>
      </trkpt>
      <trkpt lat="48.43148" lon="-2.84044">
        <ele>131.5</ele>
        <time>2020-07-02T13:11:01Z</time>
      </trkpt>
      <trkpt lat="48.43139" lon="-2.84047">
        <ele>132.9</ele>
        <time>2020-07-02T13:11:04Z</time>
      </trkpt>
      <trkpt lat="48.43131" lon="-2.84049">
        <ele>134.1</ele>
        <time>2020-07-02T13:11:07Z</time>
      </trkpt>
      <trkpt lat="48.43125" lon="-2.84051">
        <ele>135</ele>
        <time>2020-07-02T13:11:10Z</time>
      </trkpt>
      <trkpt lat="48.43121" lon="-2.84054">
        <ele>135.8</ele>
        <time>2020-07-02T13:11:14Z</time>
      </trkpt>
      <trkpt lat="48.43123" lon="-2.84061">
        <ele>137.3</ele>
        <time>2020-07-02T13:12:42Z</time>
      </trkpt>
      <trkpt lat="48.4313" lon="-2.84069">
        <ele>137.2</ele>
        <time>2020-07-02T13:12:45Z</time>
      </trkpt>
      <trkpt lat="48.4314" lon="-2.84077">
        <ele>136.7</ele>
        <time>2020-07-02T13:12:48Z</time>
      </trkpt>
      <trkpt lat="48.43152" lon="-2.84085">
        <ele>136.1</ele>
        <time>2020-07-02T13:12:51Z</time>
      </trkpt>
      <trkpt lat="48.43163" lon="-2.84094">
        <ele>135.4</ele>
        <time>2020-07-02T13:12:54Z</time>
      </trkpt>
      <trkpt lat="48.43175" lon="-2.84107">
        <ele>134.4</ele>
        <time>2020-07-02T13:12:57Z</time>
      </trkpt>
      <trkpt lat="48.43186" lon="-2.84124">
        <ele>133.6</ele>
        <time>2020-07-02T13:13:00Z</time>
      </trkpt>
      <trkpt lat="48.43195" lon="-2.8414">
        <ele>133.1</ele>
        <time>2020-07-02T13:13:03Z</time>
      </trkpt>
      <trkpt lat="48.43202" lon="-2.84157">
        <ele>133</ele>
        <time>2020-07-02T13:13:06Z</time>
      </trkpt>
      <trkpt lat="48.43208" lon="-2.84174">
        <ele>132.2</ele>
        <time>2020-07-02T13:13:09Z</time>
      </trkpt>
      <trkpt lat="48.43212" lon="-2.84187">
        <ele>131.3</ele>
        <time>2020-07-02T13:13:12Z</time>
      </trkpt>
      <trkpt lat="48.43217" lon="-2.84201">
        <ele>130.4</ele>
        <time>2020-07-02T13:13:15Z</time>
      </trkpt>
      <trkpt lat="48.4322" lon="-2.84211">
        <ele>130</ele>
        <time>2020-07-02T13:13:18Z</time>
      </trkpt>
      <trkpt lat="48.43223" lon="-2.84218">
        <ele>129.8</ele>
        <time>2020-07-02T13:13:21Z</time>
      </trkpt>
      <trkpt lat="48.43227" lon="-2.84229">
        <ele>129.6</ele>
        <time>2020-07-02T13:13:24Z</time>
      </trkpt>
      <trkpt lat="48.43234" lon="-2.84242">
        <ele>129.6</ele>
        <time>2020-07-02T13:13:27Z</time>
      </trkpt>
      <trkpt lat="48.43241" lon="-2.84255">
        <ele>128.9</ele>
        <time>2020-07-02T13:13:30Z</time>
      </trkpt>
      <trkpt lat="48.43244" lon="-2.84263">
        <ele>128</ele>
        <time>2020-07-02T13:13:33Z</time>
      </trkpt>
      <trkpt lat="48.43248" lon="-2.84269">
        <ele>127.4</ele>
        <time>2020-07-02T13:13:37Z</time>
      </trkpt>
      <trkpt lat="48.43252" lon="-2.84276">
        <ele>126.8</ele>
        <time>2020-07-02T13:13:53Z</time>
      </trkpt>
      <trkpt lat="48.43258" lon="-2.84284">
        <ele>127</ele>
        <time>2020-07-02T13:13:56Z</time>
      </trkpt>
      <trkpt lat="48.43262" lon="-2.8429">
        <ele>127.5</ele>
        <time>2020-07-02T13:13:59Z</time>
      </trkpt>
      <trkpt lat="48.43267" lon="-2.84299">
        <ele>128.4</ele>
        <time>2020-07-02T13:14:05Z</time>
      </trkpt>
      <trkpt lat="48.43269" lon="-2.84308">
        <ele>129.2</ele>
        <time>2020-07-02T13:14:08Z</time>
      </trkpt>
      <trkpt lat="48.43273" lon="-2.84318">
        <ele>131.4</ele>
        <time>2020-07-02T13:14:16Z</time>
      </trkpt>
      <trkpt lat="48.43278" lon="-2.84327">
        <ele>132.9</ele>
        <time>2020-07-02T13:14:19Z</time>
      </trkpt>
      <trkpt lat="48.43282" lon="-2.84335">
        <ele>134.6</ele>
        <time>2020-07-02T13:14:22Z</time>
      </trkpt>
      <trkpt lat="48.43284" lon="-2.8434">
        <ele>136.2</ele>
        <time>2020-07-02T13:14:25Z</time>
      </trkpt>
      <trkpt lat="48.43287" lon="-2.84348">
        <ele>137.6</ele>
        <time>2020-07-02T13:14:29Z</time>
      </trkpt>
      <trkpt lat="48.43289" lon="-2.84354">
        <ele>138.7</ele>
        <time>2020-07-02T13:14:32Z</time>
      </trkpt>
      <trkpt lat="48.43292" lon="-2.84363">
        <ele>139.7</ele>
        <time>2020-07-02T13:14:35Z</time>
      </trkpt>
      <trkpt lat="48.43293" lon="-2.84371">
        <ele>140.4</ele>
        <time>2020-07-02T13:14:38Z</time>
      </trkpt>
      <trkpt lat="48.43295" lon="-2.84377">
        <ele>141</ele>
        <time>2020-07-02T13:14:41Z</time>
      </trkpt>
      <trkpt lat="48.43298" lon="-2.84387">
        <ele>141.8</ele>
        <time>2020-07-02T13:14:47Z</time>
      </trkpt>
      <trkpt lat="48.43302" lon="-2.84399">
        <ele>142.3</ele>
        <time>2020-07-02T13:14:50Z</time>
      </trkpt>
      <trkpt lat="48.43306" lon="-2.84411">
        <ele>142.4</ele>
        <time>2020-07-02T13:14:53Z</time>
      </trkpt>
      <trkpt lat="48.43309" lon="-2.84427">
        <ele>142.4</ele>
        <time>2020-07-02T13:14:56Z</time>
      </trkpt>
      <trkpt lat="48.43308" lon="-2.84451">
        <ele>141.8</ele>
        <time>2020-07-02T13:14:59Z</time>
      </trkpt>
      <trkpt lat="48.43304" lon="-2.84471">
        <ele>139.9</ele>
        <time>2020-07-02T13:15:02Z</time>
      </trkpt>
      <trkpt lat="48.43299" lon="-2.84484">
        <ele>138.4</ele>
        <time>2020-07-02T13:15:05Z</time>
      </trkpt>
      <trkpt lat="48.43293" lon="-2.84494">
        <ele>137.4</ele>
        <time>2020-07-02T13:15:08Z</time>
      </trkpt>
      <trkpt lat="48.4329" lon="-2.84502">
        <ele>137.1</ele>
        <time>2020-07-02T13:15:11Z</time>
      </trkpt>
      <trkpt lat="48.43285" lon="-2.84512">
        <ele>136.9</ele>
        <time>2020-07-02T13:15:14Z</time>
      </trkpt>
      <trkpt lat="48.43279" lon="-2.84522">
        <ele>136.3</ele>
        <time>2020-07-02T13:15:17Z</time>
      </trkpt>
      <trkpt lat="48.43271" lon="-2.8453">
        <ele>135.9</ele>
        <time>2020-07-02T13:15:20Z</time>
      </trkpt>
      <trkpt lat="48.43264" lon="-2.84538">
        <ele>135.3</ele>
        <time>2020-07-02T13:15:23Z</time>
      </trkpt>
      <trkpt lat="48.43256" lon="-2.84545">
        <ele>134.4</ele>
        <time>2020-07-02T13:15:26Z</time>
      </trkpt>
      <trkpt lat="48.43248" lon="-2.84549">
        <ele>133.6</ele>
        <time>2020-07-02T13:15:29Z</time>
      </trkpt>
      <trkpt lat="48.43239" lon="-2.84552">
        <ele>133.2</ele>
        <time>2020-07-02T13:15:32Z</time>
      </trkpt>
      <trkpt lat="48.43231" lon="-2.84556">
        <ele>132.8</ele>
        <time>2020-07-02T13:15:35Z</time>
      </trkpt>
      <trkpt lat="48.43223" lon="-2.84561">
        <ele>132.3</ele>
        <time>2020-07-02T13:15:38Z</time>
      </trkpt>
      <trkpt lat="48.43216" lon="-2.84565">
        <ele>131.9</ele>
        <time>2020-07-02T13:15:41Z</time>
      </trkpt>
      <trkpt lat="48.43207" lon="-2.84568">
        <ele>131.6</ele>
        <time>2020-07-02T13:15:44Z</time>
      </trkpt>
      <trkpt lat="48.43198" lon="-2.84569">
        <ele>131.1</ele>
        <time>2020-07-02T13:15:47Z</time>
      </trkpt>
      <trkpt lat="48.43188" lon="-2.8457">
        <ele>130.8</ele>
        <time>2020-07-02T13:15:50Z</time>
      </trkpt>
      <trkpt lat="48.4318" lon="-2.8457">
        <ele>130.7</ele>
        <time>2020-07-02T13:15:53Z</time>
      </trkpt>
      <trkpt lat="48.4317" lon="-2.84569">
        <ele>130.5</ele>
        <time>2020-07-02T13:15:56Z</time>
      </trkpt>
      <trkpt lat="48.43158" lon="-2.84567">
        <ele>129.5</ele>
        <time>2020-07-02T13:15:59Z</time>
      </trkpt>
      <trkpt lat="48.43148" lon="-2.84561">
        <ele>128.5</ele>
        <time>2020-07-02T13:16:02Z</time>
      </trkpt>
      <trkpt lat="48.43138" lon="-2.84556">
        <ele>127.4</ele>
        <time>2020-07-02T13:16:05Z</time>
      </trkpt>
      <trkpt lat="48.4313" lon="-2.84551">
        <ele>126.4</ele>
        <time>2020-07-02T13:16:08Z</time>
      </trkpt>
      <trkpt lat="48.43122" lon="-2.84543">
        <ele>125.3</ele>
        <time>2020-07-02T13:16:11Z</time>
      </trkpt>
      <trkpt lat="48.43114" lon="-2.84534">
        <ele>124.1</ele>
        <time>2020-07-02T13:16:14Z</time>
      </trkpt>
      <trkpt lat="48.43107" lon="-2.84526">
        <ele>123.7</ele>
        <time>2020-07-02T13:16:17Z</time>
      </trkpt>
      <trkpt lat="48.431" lon="-2.84518">
        <ele>124.4</ele>
        <time>2020-07-02T13:16:20Z</time>
      </trkpt>
      <trkpt lat="48.43094" lon="-2.84512">
        <ele>125.7</ele>
        <time>2020-07-02T13:16:23Z</time>
      </trkpt>
      <trkpt lat="48.43088" lon="-2.84505">
        <ele>126.9</ele>
        <time>2020-07-02T13:16:26Z</time>
      </trkpt>
      <trkpt lat="48.43083" lon="-2.84497">
        <ele>127.9</ele>
        <time>2020-07-02T13:16:29Z</time>
      </trkpt>
      <trkpt lat="48.43079" lon="-2.84489">
        <ele>129.6</ele>
        <time>2020-07-02T13:16:32Z</time>
      </trkpt>
      <trkpt lat="48.43075" lon="-2.84481">
        <ele>131.2</ele>
        <time>2020-07-02T13:16:35Z</time>
      </trkpt>
      <trkpt lat="48.43071" lon="-2.84471">
        <ele>132.9</ele>
        <time>2020-07-02T13:16:38Z</time>
      </trkpt>
      <trkpt lat="48.43068" lon="-2.84461">
        <ele>134</ele>
        <time>2020-07-02T13:16:41Z</time>
      </trkpt>
      <trkpt lat="48.43063" lon="-2.8445">
        <ele>134.4</ele>
        <time>2020-07-02T13:16:44Z</time>
      </trkpt>
      <trkpt lat="48.43059" lon="-2.8444">
        <ele>135</ele>
        <time>2020-07-02T13:16:47Z</time>
      </trkpt>
      <trkpt lat="48.43056" lon="-2.8443">
        <ele>135.7</ele>
        <time>2020-07-02T13:16:50Z</time>
      </trkpt>
      <trkpt lat="48.43053" lon="-2.84419">
        <ele>136.2</ele>
        <time>2020-07-02T13:16:53Z</time>
      </trkpt>
      <trkpt lat="48.4305" lon="-2.84408">
        <ele>136.7</ele>
        <time>2020-07-02T13:16:56Z</time>
      </trkpt>
      <trkpt lat="48.43047" lon="-2.84397">
        <ele>137.4</ele>
        <time>2020-07-02T13:16:59Z</time>
      </trkpt>
      <trkpt lat="48.43044" lon="-2.84387">
        <ele>138.6</ele>
        <time>2020-07-02T13:17:02Z</time>
      </trkpt>
      <trkpt lat="48.43043" lon="-2.84374">
        <ele>139</ele>
        <time>2020-07-02T13:17:05Z</time>
      </trkpt>
      <trkpt lat="48.43043" lon="-2.84361">
        <ele>139.4</ele>
        <time>2020-07-02T13:17:08Z</time>
      </trkpt>
      <trkpt lat="48.43041" lon="-2.8435">
        <ele>139.9</ele>
        <time>2020-07-02T13:17:11Z</time>
      </trkpt>
      <trkpt lat="48.4304" lon="-2.8434">
        <ele>141</ele>
        <time>2020-07-02T13:17:14Z</time>
      </trkpt>
      <trkpt lat="48.43038" lon="-2.84329">
        <ele>141.9</ele>
        <time>2020-07-02T13:17:17Z</time>
      </trkpt>
      <trkpt lat="48.43038" lon="-2.84318">
        <ele>143.5</ele>
        <time>2020-07-02T13:17:20Z</time>
      </trkpt>
      <trkpt lat="48.43037" lon="-2.84307">
        <ele>145.7</ele>
        <time>2020-07-02T13:17:23Z</time>
      </trkpt>
      <trkpt lat="48.43036" lon="-2.84294">
        <ele>147</ele>
        <time>2020-07-02T13:17:26Z</time>
      </trkpt>
      <trkpt lat="48.43035" lon="-2.84282">
        <ele>147.9</ele>
        <time>2020-07-02T13:17:29Z</time>
      </trkpt>
      <trkpt lat="48.43032" lon="-2.8427">
        <ele>147.8</ele>
        <time>2020-07-02T13:17:32Z</time>
      </trkpt>
      <trkpt lat="48.4303" lon="-2.84259">
        <ele>146.8</ele>
        <time>2020-07-02T13:17:35Z</time>
      </trkpt>
      <trkpt lat="48.43028" lon="-2.8425">
        <ele>145.8</ele>
        <time>2020-07-02T13:17:38Z</time>
      </trkpt>
      <trkpt lat="48.43025" lon="-2.84241">
        <ele>144.4</ele>
        <time>2020-07-02T13:17:41Z</time>
      </trkpt>
      <trkpt lat="48.4302" lon="-2.84238">
        <ele>142.9</ele>
        <time>2020-07-02T13:17:44Z</time>
      </trkpt>
      <trkpt lat="48.43008" lon="-2.84238">
        <ele>140.7</ele>
        <time>2020-07-02T13:17:47Z</time>
      </trkpt>
      <trkpt lat="48.42995" lon="-2.84237">
        <ele>137.3</ele>
        <time>2020-07-02T13:17:50Z</time>
      </trkpt>
      <trkpt lat="48.42982" lon="-2.84234">
        <ele>134</ele>
        <time>2020-07-02T13:17:53Z</time>
      </trkpt>
      <trkpt lat="48.42972" lon="-2.84226">
        <ele>132.1</ele>
        <time>2020-07-02T13:17:56Z</time>
      </trkpt>
      <trkpt lat="48.42964" lon="-2.84216">
        <ele>130.8</ele>
        <time>2020-07-02T13:17:59Z</time>
      </trkpt>
      <trkpt lat="48.42957" lon="-2.84207">
        <ele>129.7</ele>
        <time>2020-07-02T13:18:02Z</time>
      </trkpt>
      <trkpt lat="48.4295" lon="-2.84197">
        <ele>128.7</ele>
        <time>2020-07-02T13:18:05Z</time>
      </trkpt>
      <trkpt lat="48.42941" lon="-2.84187">
        <ele>128.2</ele>
        <time>2020-07-02T13:18:08Z</time>
      </trkpt>
      <trkpt lat="48.42934" lon="-2.84176">
        <ele>127.7</ele>
        <time>2020-07-02T13:18:11Z</time>
      </trkpt>
      <trkpt lat="48.42927" lon="-2.84166">
        <ele>127.6</ele>
        <time>2020-07-02T13:18:14Z</time>
      </trkpt>
      <trkpt lat="48.42921" lon="-2.84156">
        <ele>128.3</ele>
        <time>2020-07-02T13:18:17Z</time>
      </trkpt>
      <trkpt lat="48.42916" lon="-2.84148">
        <ele>129.8</ele>
        <time>2020-07-02T13:18:20Z</time>
      </trkpt>
      <trkpt lat="48.42914" lon="-2.84142">
        <ele>130.8</ele>
        <time>2020-07-02T13:18:23Z</time>
      </trkpt>
      <trkpt lat="48.42911" lon="-2.84136">
        <ele>131.9</ele>
        <time>2020-07-02T13:18:26Z</time>
      </trkpt>
      <trkpt lat="48.42908" lon="-2.84129">
        <ele>133.1</ele>
        <time>2020-07-02T13:18:35Z</time>
      </trkpt>
      <trkpt lat="48.42903" lon="-2.84127">
        <ele>133.4</ele>
        <time>2020-07-02T13:18:38Z</time>
      </trkpt>
      <trkpt lat="48.42895" lon="-2.84126">
        <ele>133.9</ele>
        <time>2020-07-02T13:18:41Z</time>
      </trkpt>
      <trkpt lat="48.42886" lon="-2.84123">
        <ele>134.3</ele>
        <time>2020-07-02T13:18:44Z</time>
      </trkpt>
      <trkpt lat="48.42879" lon="-2.84119">
        <ele>134.8</ele>
        <time>2020-07-02T13:18:47Z</time>
      </trkpt>
      <trkpt lat="48.42873" lon="-2.84114">
        <ele>135.2</ele>
        <time>2020-07-02T13:18:50Z</time>
      </trkpt>
      <trkpt lat="48.42869" lon="-2.84111">
        <ele>136.1</ele>
        <time>2020-07-02T13:18:55Z</time>
      </trkpt>
      <trkpt lat="48.42864" lon="-2.84107">
        <ele>136.6</ele>
        <time>2020-07-02T13:19:13Z</time>
      </trkpt>
      <trkpt lat="48.42858" lon="-2.841">
        <ele>136.8</ele>
        <time>2020-07-02T13:19:16Z</time>
      </trkpt>
      <trkpt lat="48.42853" lon="-2.84096">
        <ele>137.1</ele>
        <time>2020-07-02T13:19:19Z</time>
      </trkpt>
      <trkpt lat="48.42848" lon="-2.84093">
        <ele>137.5</ele>
        <time>2020-07-02T13:19:22Z</time>
      </trkpt>
      <trkpt lat="48.42844" lon="-2.8409">
        <ele>137.8</ele>
        <time>2020-07-02T13:19:26Z</time>
      </trkpt>
      <trkpt lat="48.42839" lon="-2.84089">
        <ele>138.2</ele>
        <time>2020-07-02T13:19:41Z</time>
      </trkpt>
      <trkpt lat="48.4283" lon="-2.84087">
        <ele>138.2</ele>
        <time>2020-07-02T13:19:44Z</time>
      </trkpt>
      <trkpt lat="48.42821" lon="-2.84084">
        <ele>138.6</ele>
        <time>2020-07-02T13:19:47Z</time>
      </trkpt>
      <trkpt lat="48.42813" lon="-2.8408">
        <ele>138.9</ele>
        <time>2020-07-02T13:19:50Z</time>
      </trkpt>
      <trkpt lat="48.42807" lon="-2.84078">
        <ele>139.5</ele>
        <time>2020-07-02T13:19:53Z</time>
      </trkpt>
      <trkpt lat="48.42801" lon="-2.84076">
        <ele>140</ele>
        <time>2020-07-02T13:19:56Z</time>
      </trkpt>
      <trkpt lat="48.42794" lon="-2.84073">
        <ele>140.7</ele>
        <time>2020-07-02T13:19:59Z</time>
      </trkpt>
      <trkpt lat="48.42787" lon="-2.84068">
        <ele>141.6</ele>
        <time>2020-07-02T13:20:02Z</time>
      </trkpt>
      <trkpt lat="48.42781" lon="-2.84064">
        <ele>142.4</ele>
        <time>2020-07-02T13:20:05Z</time>
      </trkpt>
      <trkpt lat="48.42776" lon="-2.84061">
        <ele>143.5</ele>
        <time>2020-07-02T13:20:09Z</time>
      </trkpt>
      <trkpt lat="48.42771" lon="-2.84059">
        <ele>144.3</ele>
        <time>2020-07-02T13:20:12Z</time>
      </trkpt>
      <trkpt lat="48.42766" lon="-2.84057">
        <ele>145.3</ele>
        <time>2020-07-02T13:20:15Z</time>
      </trkpt>
      <trkpt lat="48.4276" lon="-2.84056">
        <ele>146.1</ele>
        <time>2020-07-02T13:20:18Z</time>
      </trkpt>
      <trkpt lat="48.42755" lon="-2.84054">
        <ele>146.8</ele>
        <time>2020-07-02T13:20:21Z</time>
      </trkpt>
      <trkpt lat="48.4275" lon="-2.84052">
        <ele>147.5</ele>
        <time>2020-07-02T13:20:24Z</time>
      </trkpt>
      <trkpt lat="48.42745" lon="-2.84051">
        <ele>147.9</ele>
        <time>2020-07-02T13:20:27Z</time>
      </trkpt>
      <trkpt lat="48.4274" lon="-2.84049">
        <ele>148.1</ele>
        <time>2020-07-02T13:20:30Z</time>
      </trkpt>
      <trkpt lat="48.42734" lon="-2.84046">
        <ele>148.9</ele>
        <time>2020-07-02T13:20:36Z</time>
      </trkpt>
      <trkpt lat="48.4273" lon="-2.84044">
        <ele>149.6</ele>
        <time>2020-07-02T13:20:39Z</time>
      </trkpt>
      <trkpt lat="48.42725" lon="-2.84046">
        <ele>150.4</ele>
        <time>2020-07-02T13:20:42Z</time>
      </trkpt>
      <trkpt lat="48.42721" lon="-2.84049">
        <ele>151.3</ele>
        <time>2020-07-02T13:20:45Z</time>
      </trkpt>
      <trkpt lat="48.42715" lon="-2.84054">
        <ele>152.3</ele>
        <time>2020-07-02T13:20:48Z</time>
      </trkpt>
      <trkpt lat="48.42709" lon="-2.84057">
        <ele>153.2</ele>
        <time>2020-07-02T13:20:51Z</time>
      </trkpt>
      <trkpt lat="48.42703" lon="-2.84057">
        <ele>154.3</ele>
        <time>2020-07-02T13:20:54Z</time>
      </trkpt>
      <trkpt lat="48.42698" lon="-2.84055">
        <ele>155.3</ele>
        <time>2020-07-02T13:20:57Z</time>
      </trkpt>
      <trkpt lat="48.42693" lon="-2.84051">
        <ele>156.4</ele>
        <time>2020-07-02T13:21:00Z</time>
      </trkpt>
      <trkpt lat="48.42688" lon="-2.84047">
        <ele>157.5</ele>
        <time>2020-07-02T13:21:03Z</time>
      </trkpt>
      <trkpt lat="48.42683" lon="-2.84043">
        <ele>158.7</ele>
        <time>2020-07-02T13:21:06Z</time>
      </trkpt>
      <trkpt lat="48.42679" lon="-2.8404">
        <ele>159.9</ele>
        <time>2020-07-02T13:21:09Z</time>
      </trkpt>
      <trkpt lat="48.42674" lon="-2.84039">
        <ele>161</ele>
        <time>2020-07-02T13:21:13Z</time>
      </trkpt>
      <trkpt lat="48.4267" lon="-2.84034">
        <ele>161</ele>
        <time>2020-07-02T13:24:10Z</time>
      </trkpt>
      <trkpt lat="48.42666" lon="-2.8403">
        <ele>159.2</ele>
        <time>2020-07-02T13:24:18Z</time>
      </trkpt>
      <trkpt lat="48.42662" lon="-2.84027">
        <ele>158.3</ele>
        <time>2020-07-02T13:26:15Z</time>
      </trkpt>
      <trkpt lat="48.42658" lon="-2.84022">
        <ele>158.1</ele>
        <time>2020-07-02T13:26:19Z</time>
      </trkpt>
      <trkpt lat="48.42653" lon="-2.84016">
        <ele>158.1</ele>
        <time>2020-07-02T13:26:23Z</time>
      </trkpt>
      <trkpt lat="48.42645" lon="-2.8401">
        <ele>158.3</ele>
        <time>2020-07-02T13:26:26Z</time>
      </trkpt>
      <trkpt lat="48.42638" lon="-2.84003">
        <ele>158.9</ele>
        <time>2020-07-02T13:26:29Z</time>
      </trkpt>
      <trkpt lat="48.42628" lon="-2.83995">
        <ele>159.4</ele>
        <time>2020-07-02T13:26:32Z</time>
      </trkpt>
      <trkpt lat="48.42618" lon="-2.83988">
        <ele>159.7</ele>
        <time>2020-07-02T13:26:35Z</time>
      </trkpt>
      <trkpt lat="48.4261" lon="-2.83982">
        <ele>160</ele>
        <time>2020-07-02T13:26:38Z</time>
      </trkpt>
      <trkpt lat="48.42603" lon="-2.83978">
        <ele>159.9</ele>
        <time>2020-07-02T13:26:41Z</time>
      </trkpt>
      <trkpt lat="48.42596" lon="-2.83974">
        <ele>159.8</ele>
        <time>2020-07-02T13:26:44Z</time>
      </trkpt>
      <trkpt lat="48.42589" lon="-2.8397">
        <ele>159.5</ele>
        <time>2020-07-02T13:26:47Z</time>
      </trkpt>
      <trkpt lat="48.42581" lon="-2.83968">
        <ele>159.2</ele>
        <time>2020-07-02T13:26:50Z</time>
      </trkpt>
      <trkpt lat="48.42573" lon="-2.83967">
        <ele>159</ele>
        <time>2020-07-02T13:26:53Z</time>
      </trkpt>
      <trkpt lat="48.42564" lon="-2.83965">
        <ele>159</ele>
        <time>2020-07-02T13:26:56Z</time>
      </trkpt>
      <trkpt lat="48.42555" lon="-2.83965">
        <ele>159.1</ele>
        <time>2020-07-02T13:26:59Z</time>
      </trkpt>
      <trkpt lat="48.42544" lon="-2.83966">
        <ele>159.2</ele>
        <time>2020-07-02T13:27:02Z</time>
      </trkpt>
      <trkpt lat="48.42533" lon="-2.83965">
        <ele>159.1</ele>
        <time>2020-07-02T13:27:05Z</time>
      </trkpt>
      <trkpt lat="48.4252" lon="-2.83964">
        <ele>158.6</ele>
        <time>2020-07-02T13:27:08Z</time>
      </trkpt>
      <trkpt lat="48.42505" lon="-2.83959">
        <ele>157.8</ele>
        <time>2020-07-02T13:27:11Z</time>
      </trkpt>
      <trkpt lat="48.4249" lon="-2.83952">
        <ele>157.3</ele>
        <time>2020-07-02T13:27:14Z</time>
      </trkpt>
      <trkpt lat="48.4248" lon="-2.83948">
        <ele>157.2</ele>
        <time>2020-07-02T13:27:17Z</time>
      </trkpt>
      <trkpt lat="48.42473" lon="-2.8395">
        <ele>157</ele>
        <time>2020-07-02T13:27:20Z</time>
      </trkpt>
      <trkpt lat="48.42464" lon="-2.83953">
        <ele>156.5</ele>
        <time>2020-07-02T13:27:23Z</time>
      </trkpt>
      <trkpt lat="48.42454" lon="-2.83959">
        <ele>155.7</ele>
        <time>2020-07-02T13:27:26Z</time>
      </trkpt>
      <trkpt lat="48.42443" lon="-2.83965">
        <ele>154.9</ele>
        <time>2020-07-02T13:27:29Z</time>
      </trkpt>
      <trkpt lat="48.42432" lon="-2.83974">
        <ele>154.3</ele>
        <time>2020-07-02T13:27:32Z</time>
      </trkpt>
      <trkpt lat="48.4242" lon="-2.83979">
        <ele>153.7</ele>
        <time>2020-07-02T13:27:35Z</time>
      </trkpt>
      <trkpt lat="48.42405" lon="-2.8398">
        <ele>153</ele>
        <time>2020-07-02T13:27:38Z</time>
      </trkpt>
      <trkpt lat="48.42391" lon="-2.83979">
        <ele>153</ele>
        <time>2020-07-02T13:27:41Z</time>
      </trkpt>
      <trkpt lat="48.4238" lon="-2.83977">
        <ele>153.2</ele>
        <time>2020-07-02T13:27:44Z</time>
      </trkpt>
      <trkpt lat="48.42371" lon="-2.83982">
        <ele>153.3</ele>
        <time>2020-07-02T13:27:47Z</time>
      </trkpt>
      <trkpt lat="48.42366" lon="-2.83994">
        <ele>153.3</ele>
        <time>2020-07-02T13:27:50Z</time>
      </trkpt>
      <trkpt lat="48.42364" lon="-2.8401">
        <ele>153.6</ele>
        <time>2020-07-02T13:27:53Z</time>
      </trkpt>
      <trkpt lat="48.42364" lon="-2.84027">
        <ele>153.2</ele>
        <time>2020-07-02T13:27:56Z</time>
      </trkpt>
      <trkpt lat="48.42369" lon="-2.84044">
        <ele>153.4</ele>
        <time>2020-07-02T13:27:59Z</time>
      </trkpt>
      <trkpt lat="48.42378" lon="-2.84059">
        <ele>153.7</ele>
        <time>2020-07-02T13:28:02Z</time>
      </trkpt>
      <trkpt lat="48.42387" lon="-2.8407">
        <ele>153.6</ele>
        <time>2020-07-02T13:28:05Z</time>
      </trkpt>
      <trkpt lat="48.42391" lon="-2.84077">
        <ele>153.5</ele>
        <time>2020-07-02T13:28:08Z</time>
      </trkpt>
      <trkpt lat="48.42393" lon="-2.84084">
        <ele>153.1</ele>
        <time>2020-07-02T13:28:12Z</time>
      </trkpt>
      <trkpt lat="48.42388" lon="-2.8409">
        <ele>151.9</ele>
        <time>2020-07-02T13:28:16Z</time>
      </trkpt>
      <trkpt lat="48.42384" lon="-2.84098">
        <ele>150.6</ele>
        <time>2020-07-02T13:28:19Z</time>
      </trkpt>
      <trkpt lat="48.42374" lon="-2.84111">
        <ele>148.5</ele>
        <time>2020-07-02T13:28:22Z</time>
      </trkpt>
      <trkpt lat="48.42363" lon="-2.84124">
        <ele>145.6</ele>
        <time>2020-07-02T13:28:25Z</time>
      </trkpt>
      <trkpt lat="48.42358" lon="-2.84137">
        <ele>142.8</ele>
        <time>2020-07-02T13:28:28Z</time>
      </trkpt>
      <trkpt lat="48.42353" lon="-2.84146">
        <ele>140.6</ele>
        <time>2020-07-02T13:28:31Z</time>
      </trkpt>
      <trkpt lat="48.42345" lon="-2.84155">
        <ele>138.4</ele>
        <time>2020-07-02T13:28:34Z</time>
      </trkpt>
      <trkpt lat="48.42332" lon="-2.84161">
        <ele>135.7</ele>
        <time>2020-07-02T13:28:37Z</time>
      </trkpt>
      <trkpt lat="48.42316" lon="-2.84168">
        <ele>132.8</ele>
        <time>2020-07-02T13:28:40Z</time>
      </trkpt>
      <trkpt lat="48.42299" lon="-2.84173">
        <ele>129.7</ele>
        <time>2020-07-02T13:28:43Z</time>
      </trkpt>
      <trkpt lat="48.42285" lon="-2.84171">
        <ele>127.1</ele>
        <time>2020-07-02T13:28:46Z</time>
      </trkpt>
      <trkpt lat="48.42275" lon="-2.84169">
        <ele>125.8</ele>
        <time>2020-07-02T13:28:49Z</time>
      </trkpt>
      <trkpt lat="48.42267" lon="-2.84167">
        <ele>126.1</ele>
        <time>2020-07-02T13:28:52Z</time>
      </trkpt>
      <trkpt lat="48.42258" lon="-2.84167">
        <ele>127.2</ele>
        <time>2020-07-02T13:28:55Z</time>
      </trkpt>
      <trkpt lat="48.42248" lon="-2.84167">
        <ele>128.7</ele>
        <time>2020-07-02T13:28:58Z</time>
      </trkpt>
      <trkpt lat="48.42238" lon="-2.84168">
        <ele>130</ele>
        <time>2020-07-02T13:29:01Z</time>
      </trkpt>
      <trkpt lat="48.42229" lon="-2.84171">
        <ele>131.1</ele>
        <time>2020-07-02T13:29:04Z</time>
      </trkpt>
      <trkpt lat="48.42221" lon="-2.84179">
        <ele>132.1</ele>
        <time>2020-07-02T13:29:07Z</time>
      </trkpt>
      <trkpt lat="48.4221" lon="-2.84195">
        <ele>132.7</ele>
        <time>2020-07-02T13:29:10Z</time>
      </trkpt>
      <trkpt lat="48.42198" lon="-2.84212">
        <ele>131.8</ele>
        <time>2020-07-02T13:29:13Z</time>
      </trkpt>
      <trkpt lat="48.42185" lon="-2.84228">
        <ele>129.9</ele>
        <time>2020-07-02T13:29:16Z</time>
      </trkpt>
      <trkpt lat="48.42173" lon="-2.84243">
        <ele>127.4</ele>
        <time>2020-07-02T13:29:19Z</time>
      </trkpt>
      <trkpt lat="48.42166" lon="-2.84258">
        <ele>125.2</ele>
        <time>2020-07-02T13:29:22Z</time>
      </trkpt>
      <trkpt lat="48.42162" lon="-2.84272">
        <ele>124</ele>
        <time>2020-07-02T13:29:25Z</time>
      </trkpt>
      <trkpt lat="48.42155" lon="-2.84287">
        <ele>123.1</ele>
        <time>2020-07-02T13:29:28Z</time>
      </trkpt>
      <trkpt lat="48.42148" lon="-2.84303">
        <ele>122.3</ele>
        <time>2020-07-02T13:29:31Z</time>
      </trkpt>
      <trkpt lat="48.4214" lon="-2.84315">
        <ele>122.1</ele>
        <time>2020-07-02T13:29:34Z</time>
      </trkpt>
      <trkpt lat="48.42133" lon="-2.84323">
        <ele>122.4</ele>
        <time>2020-07-02T13:29:37Z</time>
      </trkpt>
      <trkpt lat="48.42124" lon="-2.84332">
        <ele>123</ele>
        <time>2020-07-02T13:29:40Z</time>
      </trkpt>
      <trkpt lat="48.42116" lon="-2.8434">
        <ele>123.6</ele>
        <time>2020-07-02T13:29:43Z</time>
      </trkpt>
      <trkpt lat="48.42107" lon="-2.8435">
        <ele>124</ele>
        <time>2020-07-02T13:29:46Z</time>
      </trkpt>
      <trkpt lat="48.42098" lon="-2.84356">
        <ele>123.9</ele>
        <time>2020-07-02T13:29:49Z</time>
      </trkpt>
      <trkpt lat="48.42088" lon="-2.84363">
        <ele>123.7</ele>
        <time>2020-07-02T13:29:52Z</time>
      </trkpt>
      <trkpt lat="48.42079" lon="-2.8437">
        <ele>124.3</ele>
        <time>2020-07-02T13:29:55Z</time>
      </trkpt>
      <trkpt lat="48.42069" lon="-2.8438">
        <ele>124.9</ele>
        <time>2020-07-02T13:29:58Z</time>
      </trkpt>
      <trkpt lat="48.42061" lon="-2.84383">
        <ele>126</ele>
        <time>2020-07-02T13:30:01Z</time>
      </trkpt>
      <trkpt lat="48.42057" lon="-2.84374">
        <ele>127.2</ele>
        <time>2020-07-02T13:30:04Z</time>
      </trkpt>
      <trkpt lat="48.42054" lon="-2.84368">
        <ele>129.1</ele>
        <time>2020-07-02T13:30:07Z</time>
      </trkpt>
      <trkpt lat="48.42048" lon="-2.8437">
        <ele>131.5</ele>
        <time>2020-07-02T13:30:10Z</time>
      </trkpt>
      <trkpt lat="48.42041" lon="-2.84376">
        <ele>133.5</ele>
        <time>2020-07-02T13:30:13Z</time>
      </trkpt>
      <trkpt lat="48.42033" lon="-2.84382">
        <ele>135.2</ele>
        <time>2020-07-02T13:30:16Z</time>
      </trkpt>
      <trkpt lat="48.42022" lon="-2.84387">
        <ele>136.9</ele>
        <time>2020-07-02T13:30:19Z</time>
      </trkpt>
      <trkpt lat="48.42011" lon="-2.84389">
        <ele>138.3</ele>
        <time>2020-07-02T13:30:22Z</time>
      </trkpt>
      <trkpt lat="48.42" lon="-2.84389">
        <ele>139.4</ele>
        <time>2020-07-02T13:30:25Z</time>
      </trkpt>
      <trkpt lat="48.41987" lon="-2.84388">
        <ele>139.8</ele>
        <time>2020-07-02T13:30:28Z</time>
      </trkpt>
      <trkpt lat="48.41976" lon="-2.84387">
        <ele>139.8</ele>
        <time>2020-07-02T13:30:31Z</time>
      </trkpt>
      <trkpt lat="48.41965" lon="-2.84386">
        <ele>139.4</ele>
        <time>2020-07-02T13:30:34Z</time>
      </trkpt>
      <trkpt lat="48.41954" lon="-2.84383">
        <ele>138.6</ele>
        <time>2020-07-02T13:30:37Z</time>
      </trkpt>
      <trkpt lat="48.41944" lon="-2.84381">
        <ele>138.1</ele>
        <time>2020-07-02T13:30:40Z</time>
      </trkpt>
      <trkpt lat="48.41935" lon="-2.84375">
        <ele>137.8</ele>
        <time>2020-07-02T13:30:43Z</time>
      </trkpt>
      <trkpt lat="48.41926" lon="-2.84366">
        <ele>137.2</ele>
        <time>2020-07-02T13:30:46Z</time>
      </trkpt>
      <trkpt lat="48.41917" lon="-2.84358">
        <ele>136.2</ele>
        <time>2020-07-02T13:30:49Z</time>
      </trkpt>
      <trkpt lat="48.41908" lon="-2.8435">
        <ele>135</ele>
        <time>2020-07-02T13:30:52Z</time>
      </trkpt>
      <trkpt lat="48.41894" lon="-2.84341">
        <ele>134.3</ele>
        <time>2020-07-02T13:30:55Z</time>
      </trkpt>
      <trkpt lat="48.41879" lon="-2.84337">
        <ele>134.1</ele>
        <time>2020-07-02T13:30:58Z</time>
      </trkpt>
      <trkpt lat="48.41867" lon="-2.84334">
        <ele>134.5</ele>
        <time>2020-07-02T13:31:01Z</time>
      </trkpt>
      <trkpt lat="48.41857" lon="-2.84331">
        <ele>135.5</ele>
        <time>2020-07-02T13:31:04Z</time>
      </trkpt>
      <trkpt lat="48.4185" lon="-2.84327">
        <ele>136.4</ele>
        <time>2020-07-02T13:31:07Z</time>
      </trkpt>
      <trkpt lat="48.41844" lon="-2.84322">
        <ele>137.6</ele>
        <time>2020-07-02T13:31:10Z</time>
      </trkpt>
      <trkpt lat="48.41838" lon="-2.84316">
        <ele>138.6</ele>
        <time>2020-07-02T13:31:13Z</time>
      </trkpt>
      <trkpt lat="48.41832" lon="-2.84309">
        <ele>139.5</ele>
        <time>2020-07-02T13:31:16Z</time>
      </trkpt>
      <trkpt lat="48.41826" lon="-2.84302">
        <ele>140.4</ele>
        <time>2020-07-02T13:31:19Z</time>
      </trkpt>
      <trkpt lat="48.41818" lon="-2.84294">
        <ele>140.4</ele>
        <time>2020-07-02T13:31:22Z</time>
      </trkpt>
      <trkpt lat="48.41811" lon="-2.84285">
        <ele>139.9</ele>
        <time>2020-07-02T13:31:25Z</time>
      </trkpt>
      <trkpt lat="48.41804" lon="-2.84278">
        <ele>139.2</ele>
        <time>2020-07-02T13:31:28Z</time>
      </trkpt>
      <trkpt lat="48.41799" lon="-2.84273">
        <ele>138.4</ele>
        <time>2020-07-02T13:31:31Z</time>
      </trkpt>
      <trkpt lat="48.41794" lon="-2.84266">
        <ele>137.7</ele>
        <time>2020-07-02T13:31:34Z</time>
      </trkpt>
      <trkpt lat="48.41793" lon="-2.84257">
        <ele>137.3</ele>
        <time>2020-07-02T13:31:37Z</time>
      </trkpt>
      <trkpt lat="48.4179" lon="-2.84251">
        <ele>137.4</ele>
        <time>2020-07-02T13:31:40Z</time>
      </trkpt>
      <trkpt lat="48.41788" lon="-2.84245">
        <ele>137.4</ele>
        <time>2020-07-02T13:31:43Z</time>
      </trkpt>
      <trkpt lat="48.41784" lon="-2.84239">
        <ele>137.4</ele>
        <time>2020-07-02T13:31:46Z</time>
      </trkpt>
      <trkpt lat="48.41777" lon="-2.8423">
        <ele>137.2</ele>
        <time>2020-07-02T13:31:49Z</time>
      </trkpt>
      <trkpt lat="48.41768" lon="-2.84217">
        <ele>136.6</ele>
        <time>2020-07-02T13:31:52Z</time>
      </trkpt>
      <trkpt lat="48.41755" lon="-2.842">
        <ele>135.6</ele>
        <time>2020-07-02T13:31:55Z</time>
      </trkpt>
      <trkpt lat="48.41741" lon="-2.84181">
        <ele>134.7</ele>
        <time>2020-07-02T13:31:58Z</time>
      </trkpt>
      <trkpt lat="48.41731" lon="-2.84168">
        <ele>134.2</ele>
        <time>2020-07-02T13:32:01Z</time>
      </trkpt>
      <trkpt lat="48.41725" lon="-2.84163">
        <ele>134.3</ele>
        <time>2020-07-02T13:32:04Z</time>
      </trkpt>
      <trkpt lat="48.41721" lon="-2.84163">
        <ele>134</ele>
        <time>2020-07-02T13:32:11Z</time>
      </trkpt>
      <trkpt lat="48.41716" lon="-2.84164">
        <ele>134</ele>
        <time>2020-07-02T13:32:14Z</time>
      </trkpt>
      <trkpt lat="48.41706" lon="-2.8416">
        <ele>133.8</ele>
        <time>2020-07-02T13:32:17Z</time>
      </trkpt>
      <trkpt lat="48.41694" lon="-2.84148">
        <ele>133.3</ele>
        <time>2020-07-02T13:32:20Z</time>
      </trkpt>
      <trkpt lat="48.41684" lon="-2.84132">
        <ele>133.1</ele>
        <time>2020-07-02T13:32:23Z</time>
      </trkpt>
      <trkpt lat="48.41674" lon="-2.84114">
        <ele>133</ele>
        <time>2020-07-02T13:32:26Z</time>
      </trkpt>
      <trkpt lat="48.41667" lon="-2.84095">
        <ele>132.7</ele>
        <time>2020-07-02T13:32:29Z</time>
      </trkpt>
      <trkpt lat="48.41664" lon="-2.84072">
        <ele>132.6</ele>
        <time>2020-07-02T13:32:32Z</time>
      </trkpt>
      <trkpt lat="48.41665" lon="-2.84049">
        <ele>132.5</ele>
        <time>2020-07-02T13:32:35Z</time>
      </trkpt>
      <trkpt lat="48.41666" lon="-2.84025">
        <ele>132.5</ele>
        <time>2020-07-02T13:32:38Z</time>
      </trkpt>
      <trkpt lat="48.41663" lon="-2.84002">
        <ele>132.6</ele>
        <time>2020-07-02T13:32:41Z</time>
      </trkpt>
      <trkpt lat="48.41656" lon="-2.83982">
        <ele>133</ele>
        <time>2020-07-02T13:32:44Z</time>
      </trkpt>
      <trkpt lat="48.41646" lon="-2.83966">
        <ele>133.9</ele>
        <time>2020-07-02T13:32:47Z</time>
      </trkpt>
      <trkpt lat="48.41636" lon="-2.83955">
        <ele>135</ele>
        <time>2020-07-02T13:32:50Z</time>
      </trkpt>
      <trkpt lat="48.41627" lon="-2.83945">
        <ele>136.4</ele>
        <time>2020-07-02T13:32:53Z</time>
      </trkpt>
      <trkpt lat="48.41618" lon="-2.83936">
        <ele>138</ele>
        <time>2020-07-02T13:32:56Z</time>
      </trkpt>
      <trkpt lat="48.4161" lon="-2.83925">
        <ele>139.1</ele>
        <time>2020-07-02T13:32:59Z</time>
      </trkpt>
      <trkpt lat="48.41602" lon="-2.83914">
        <ele>140.1</ele>
        <time>2020-07-02T13:33:02Z</time>
      </trkpt>
      <trkpt lat="48.41596" lon="-2.83903">
        <ele>141</ele>
        <time>2020-07-02T13:33:05Z</time>
      </trkpt>
      <trkpt lat="48.41589" lon="-2.83892">
        <ele>141.4</ele>
        <time>2020-07-02T13:33:08Z</time>
      </trkpt>
      <trkpt lat="48.41582" lon="-2.8388">
        <ele>141.7</ele>
        <time>2020-07-02T13:33:11Z</time>
      </trkpt>
      <trkpt lat="48.41575" lon="-2.83869">
        <ele>142.1</ele>
        <time>2020-07-02T13:33:14Z</time>
      </trkpt>
      <trkpt lat="48.41568" lon="-2.83857">
        <ele>142.6</ele>
        <time>2020-07-02T13:33:17Z</time>
      </trkpt>
      <trkpt lat="48.41562" lon="-2.83846">
        <ele>143.3</ele>
        <time>2020-07-02T13:33:20Z</time>
      </trkpt>
      <trkpt lat="48.41556" lon="-2.83835">
        <ele>143.4</ele>
        <time>2020-07-02T13:33:23Z</time>
      </trkpt>
      <trkpt lat="48.41551" lon="-2.83825">
        <ele>144</ele>
        <time>2020-07-02T13:33:26Z</time>
      </trkpt>
      <trkpt lat="48.41545" lon="-2.83816">
        <ele>144.8</ele>
        <time>2020-07-02T13:33:29Z</time>
      </trkpt>
      <trkpt lat="48.41539" lon="-2.83807">
        <ele>145.7</ele>
        <time>2020-07-02T13:33:32Z</time>
      </trkpt>
      <trkpt lat="48.41534" lon="-2.83799">
        <ele>146.6</ele>
        <time>2020-07-02T13:33:35Z</time>
      </trkpt>
      <trkpt lat="48.41528" lon="-2.83794">
        <ele>147.9</ele>
        <time>2020-07-02T13:33:38Z</time>
      </trkpt>
      <trkpt lat="48.41522" lon="-2.83787">
        <ele>149.3</ele>
        <time>2020-07-02T13:33:41Z</time>
      </trkpt>
      <trkpt lat="48.41521" lon="-2.83779">
        <ele>150.8</ele>
        <time>2020-07-02T13:33:44Z</time>
      </trkpt>
      <trkpt lat="48.41521" lon="-2.83772">
        <ele>152.2</ele>
        <time>2020-07-02T13:33:47Z</time>
      </trkpt>
      <trkpt lat="48.41521" lon="-2.83764">
        <ele>154</ele>
        <time>2020-07-02T13:33:51Z</time>
      </trkpt>
      <trkpt lat="48.4152" lon="-2.83756">
        <ele>155.4</ele>
        <time>2020-07-02T13:33:55Z</time>
      </trkpt>
      <trkpt lat="48.41518" lon="-2.83745">
        <ele>157</ele>
        <time>2020-07-02T13:34:01Z</time>
      </trkpt>
      <trkpt lat="48.41516" lon="-2.83736">
        <ele>157.7</ele>
        <time>2020-07-02T13:34:04Z</time>
      </trkpt>
      <trkpt lat="48.41514" lon="-2.83726">
        <ele>158</ele>
        <time>2020-07-02T13:34:07Z</time>
      </trkpt>
      <trkpt lat="48.41514" lon="-2.83716">
        <ele>158.4</ele>
        <time>2020-07-02T13:34:10Z</time>
      </trkpt>
      <trkpt lat="48.41514" lon="-2.83707">
        <ele>158.8</ele>
        <time>2020-07-02T13:34:13Z</time>
      </trkpt>
      <trkpt lat="48.41514" lon="-2.837">
        <ele>159.5</ele>
        <time>2020-07-02T13:34:16Z</time>
      </trkpt>
      <trkpt lat="48.41512" lon="-2.83694">
        <ele>160.6</ele>
        <time>2020-07-02T13:34:19Z</time>
      </trkpt>
      <trkpt lat="48.41511" lon="-2.83685">
        <ele>161.9</ele>
        <time>2020-07-02T13:34:22Z</time>
      </trkpt>
      <trkpt lat="48.41513" lon="-2.83673">
        <ele>162.8</ele>
        <time>2020-07-02T13:34:25Z</time>
      </trkpt>
      <trkpt lat="48.41513" lon="-2.83662">
        <ele>162.8</ele>
        <time>2020-07-02T13:34:28Z</time>
      </trkpt>
      <trkpt lat="48.41512" lon="-2.83652">
        <ele>162</ele>
        <time>2020-07-02T13:34:31Z</time>
      </trkpt>
      <trkpt lat="48.41511" lon="-2.83641">
        <ele>161.3</ele>
        <time>2020-07-02T13:34:34Z</time>
      </trkpt>
      <trkpt lat="48.41509" lon="-2.83629">
        <ele>160.7</ele>
        <time>2020-07-02T13:34:37Z</time>
      </trkpt>
      <trkpt lat="48.41505" lon="-2.83614">
        <ele>160.1</ele>
        <time>2020-07-02T13:34:40Z</time>
      </trkpt>
      <trkpt lat="48.41502" lon="-2.83598">
        <ele>159.7</ele>
        <time>2020-07-02T13:34:43Z</time>
      </trkpt>
      <trkpt lat="48.41501" lon="-2.83583">
        <ele>159.7</ele>
        <time>2020-07-02T13:34:46Z</time>
      </trkpt>
      <trkpt lat="48.415" lon="-2.8357">
        <ele>160</ele>
        <time>2020-07-02T13:34:49Z</time>
      </trkpt>
      <trkpt lat="48.41498" lon="-2.83557">
        <ele>161.2</ele>
        <time>2020-07-02T13:34:52Z</time>
      </trkpt>
      <trkpt lat="48.41499" lon="-2.83544">
        <ele>163.3</ele>
        <time>2020-07-02T13:34:55Z</time>
      </trkpt>
      <trkpt lat="48.41502" lon="-2.83533">
        <ele>165.3</ele>
        <time>2020-07-02T13:34:58Z</time>
      </trkpt>
      <trkpt lat="48.41507" lon="-2.83521">
        <ele>167.2</ele>
        <time>2020-07-02T13:35:01Z</time>
      </trkpt>
      <trkpt lat="48.41512" lon="-2.8351">
        <ele>168.8</ele>
        <time>2020-07-02T13:35:04Z</time>
      </trkpt>
      <trkpt lat="48.41519" lon="-2.835">
        <ele>169</ele>
        <time>2020-07-02T13:35:07Z</time>
      </trkpt>
      <trkpt lat="48.41532" lon="-2.83487">
        <ele>167.6</ele>
        <time>2020-07-02T13:35:10Z</time>
      </trkpt>
      <trkpt lat="48.41546" lon="-2.83473">
        <ele>166</ele>
        <time>2020-07-02T13:35:13Z</time>
      </trkpt>
      <trkpt lat="48.4156" lon="-2.8346">
        <ele>164.7</ele>
        <time>2020-07-02T13:35:16Z</time>
      </trkpt>
      <trkpt lat="48.41575" lon="-2.83449">
        <ele>163.7</ele>
        <time>2020-07-02T13:35:19Z</time>
      </trkpt>
      <trkpt lat="48.4159" lon="-2.83437">
        <ele>163.1</ele>
        <time>2020-07-02T13:35:22Z</time>
      </trkpt>
      <trkpt lat="48.41604" lon="-2.83423">
        <ele>162.8</ele>
        <time>2020-07-02T13:35:25Z</time>
      </trkpt>
      <trkpt lat="48.41618" lon="-2.83408">
        <ele>162.8</ele>
        <time>2020-07-02T13:35:28Z</time>
      </trkpt>
      <trkpt lat="48.41631" lon="-2.83392">
        <ele>163.5</ele>
        <time>2020-07-02T13:35:31Z</time>
      </trkpt>
      <trkpt lat="48.41644" lon="-2.83376">
        <ele>164.1</ele>
        <time>2020-07-02T13:35:34Z</time>
      </trkpt>
      <trkpt lat="48.41655" lon="-2.8336">
        <ele>164.4</ele>
        <time>2020-07-02T13:35:37Z</time>
      </trkpt>
      <trkpt lat="48.41665" lon="-2.83347">
        <ele>164.5</ele>
        <time>2020-07-02T13:35:40Z</time>
      </trkpt>
      <trkpt lat="48.41674" lon="-2.83334">
        <ele>164.7</ele>
        <time>2020-07-02T13:35:43Z</time>
      </trkpt>
      <trkpt lat="48.41682" lon="-2.83319">
        <ele>164.7</ele>
        <time>2020-07-02T13:35:46Z</time>
      </trkpt>
      <trkpt lat="48.4169" lon="-2.83307">
        <ele>165.3</ele>
        <time>2020-07-02T13:35:49Z</time>
      </trkpt>
      <trkpt lat="48.41696" lon="-2.83295">
        <ele>167.7</ele>
        <time>2020-07-02T13:35:52Z</time>
      </trkpt>
      <trkpt lat="48.41702" lon="-2.83282">
        <ele>170.3</ele>
        <time>2020-07-02T13:35:55Z</time>
      </trkpt>
      <trkpt lat="48.41709" lon="-2.83269">
        <ele>173</ele>
        <time>2020-07-02T13:35:58Z</time>
      </trkpt>
      <trkpt lat="48.41716" lon="-2.83258">
        <ele>175.1</ele>
        <time>2020-07-02T13:36:01Z</time>
      </trkpt>
      <trkpt lat="48.41724" lon="-2.83244">
        <ele>176</ele>
        <time>2020-07-02T13:36:04Z</time>
      </trkpt>
      <trkpt lat="48.41732" lon="-2.83228">
        <ele>176.1</ele>
        <time>2020-07-02T13:36:07Z</time>
      </trkpt>
      <trkpt lat="48.41739" lon="-2.83212">
        <ele>175.8</ele>
        <time>2020-07-02T13:36:10Z</time>
      </trkpt>
      <trkpt lat="48.41746" lon="-2.83197">
        <ele>175.3</ele>
        <time>2020-07-02T13:36:13Z</time>
      </trkpt>
      <trkpt lat="48.41754" lon="-2.8318">
        <ele>174.7</ele>
        <time>2020-07-02T13:36:16Z</time>
      </trkpt>
      <trkpt lat="48.41764" lon="-2.83163">
        <ele>173.4</ele>
        <time>2020-07-02T13:36:19Z</time>
      </trkpt>
      <trkpt lat="48.41775" lon="-2.83151">
        <ele>171.9</ele>
        <time>2020-07-02T13:36:22Z</time>
      </trkpt>
      <trkpt lat="48.41785" lon="-2.83138">
        <ele>170.5</ele>
        <time>2020-07-02T13:36:25Z</time>
      </trkpt>
      <trkpt lat="48.41791" lon="-2.83124">
        <ele>168.5</ele>
        <time>2020-07-02T13:36:28Z</time>
      </trkpt>
      <trkpt lat="48.41792" lon="-2.83114">
        <ele>166.9</ele>
        <time>2020-07-02T13:36:31Z</time>
      </trkpt>
      <trkpt lat="48.41791" lon="-2.83107">
        <ele>166.1</ele>
        <time>2020-07-02T13:36:34Z</time>
      </trkpt>
      <trkpt lat="48.41788" lon="-2.83102">
        <ele>166.1</ele>
        <time>2020-07-02T13:36:37Z</time>
      </trkpt>
      <trkpt lat="48.41784" lon="-2.83096">
        <ele>166.1</ele>
        <time>2020-07-02T13:36:40Z</time>
      </trkpt>
      <trkpt lat="48.41779" lon="-2.83089">
        <ele>165.8</ele>
        <time>2020-07-02T13:36:43Z</time>
      </trkpt>
      <trkpt lat="48.41775" lon="-2.83084">
        <ele>165.6</ele>
        <time>2020-07-02T13:36:46Z</time>
      </trkpt>
      <trkpt lat="48.41772" lon="-2.83078">
        <ele>165.6</ele>
        <time>2020-07-02T13:36:49Z</time>
      </trkpt>
      <trkpt lat="48.41773" lon="-2.83068">
        <ele>166</ele>
        <time>2020-07-02T13:36:52Z</time>
      </trkpt>
      <trkpt lat="48.4178" lon="-2.83053">
        <ele>166.3</ele>
        <time>2020-07-02T13:36:55Z</time>
      </trkpt>
      <trkpt lat="48.41789" lon="-2.83035">
        <ele>166.2</ele>
        <time>2020-07-02T13:36:58Z</time>
      </trkpt>
      <trkpt lat="48.41798" lon="-2.83018">
        <ele>165.8</ele>
        <time>2020-07-02T13:37:01Z</time>
      </trkpt>
      <trkpt lat="48.41806" lon="-2.83006">
        <ele>165.3</ele>
        <time>2020-07-02T13:37:04Z</time>
      </trkpt>
      <trkpt lat="48.41815" lon="-2.82996">
        <ele>165.3</ele>
        <time>2020-07-02T13:37:07Z</time>
      </trkpt>
      <trkpt lat="48.41823" lon="-2.82989">
        <ele>166.3</ele>
        <time>2020-07-02T13:37:10Z</time>
      </trkpt>
      <trkpt lat="48.41829" lon="-2.82982">
        <ele>167.7</ele>
        <time>2020-07-02T13:37:13Z</time>
      </trkpt>
      <trkpt lat="48.41838" lon="-2.82973">
        <ele>168.9</ele>
        <time>2020-07-02T13:37:16Z</time>
      </trkpt>
      <trkpt lat="48.41846" lon="-2.82964">
        <ele>169.6</ele>
        <time>2020-07-02T13:37:19Z</time>
      </trkpt>
      <trkpt lat="48.41856" lon="-2.82955">
        <ele>170.3</ele>
        <time>2020-07-02T13:37:22Z</time>
      </trkpt>
      <trkpt lat="48.41864" lon="-2.82946">
        <ele>170.8</ele>
        <time>2020-07-02T13:37:25Z</time>
      </trkpt>
      <trkpt lat="48.41871" lon="-2.8294">
        <ele>171.8</ele>
        <time>2020-07-02T13:37:28Z</time>
      </trkpt>
      <trkpt lat="48.41878" lon="-2.82934">
        <ele>173</ele>
        <time>2020-07-02T13:37:31Z</time>
      </trkpt>
      <trkpt lat="48.41884" lon="-2.82928">
        <ele>174.8</ele>
        <time>2020-07-02T13:37:34Z</time>
      </trkpt>
      <trkpt lat="48.4189" lon="-2.8292">
        <ele>176.2</ele>
        <time>2020-07-02T13:37:37Z</time>
      </trkpt>
      <trkpt lat="48.41897" lon="-2.82912">
        <ele>176.6</ele>
        <time>2020-07-02T13:37:40Z</time>
      </trkpt>
      <trkpt lat="48.41906" lon="-2.82903">
        <ele>175.9</ele>
        <time>2020-07-02T13:37:43Z</time>
      </trkpt>
      <trkpt lat="48.41914" lon="-2.82896">
        <ele>174.9</ele>
        <time>2020-07-02T13:37:46Z</time>
      </trkpt>
      <trkpt lat="48.41923" lon="-2.82889">
        <ele>173.6</ele>
        <time>2020-07-02T13:37:49Z</time>
      </trkpt>
      <trkpt lat="48.41933" lon="-2.82883">
        <ele>172.7</ele>
        <time>2020-07-02T13:37:52Z</time>
      </trkpt>
      <trkpt lat="48.41944" lon="-2.82879">
        <ele>172.4</ele>
        <time>2020-07-02T13:37:55Z</time>
      </trkpt>
      <trkpt lat="48.41953" lon="-2.82877">
        <ele>172.5</ele>
        <time>2020-07-02T13:37:58Z</time>
      </trkpt>
      <trkpt lat="48.41961" lon="-2.82868">
        <ele>173</ele>
        <time>2020-07-02T13:38:01Z</time>
      </trkpt>
      <trkpt lat="48.41971" lon="-2.8286">
        <ele>172.4</ele>
        <time>2020-07-02T13:38:04Z</time>
      </trkpt>
      <trkpt lat="48.41981" lon="-2.82853">
        <ele>171.7</ele>
        <time>2020-07-02T13:38:07Z</time>
      </trkpt>
      <trkpt lat="48.41992" lon="-2.82847">
        <ele>171.4</ele>
        <time>2020-07-02T13:38:10Z</time>
      </trkpt>
      <trkpt lat="48.41999" lon="-2.82844">
        <ele>171.7</ele>
        <time>2020-07-02T13:38:13Z</time>
      </trkpt>
      <trkpt lat="48.42004" lon="-2.82838">
        <ele>171.8</ele>
        <time>2020-07-02T13:38:18Z</time>
      </trkpt>
      <trkpt lat="48.42006" lon="-2.82831">
        <ele>171.6</ele>
        <time>2020-07-02T13:38:21Z</time>
      </trkpt>
      <trkpt lat="48.42012" lon="-2.82826">
        <ele>171.6</ele>
        <time>2020-07-02T13:38:24Z</time>
      </trkpt>
      <trkpt lat="48.4202" lon="-2.82822">
        <ele>171.5</ele>
        <time>2020-07-02T13:38:27Z</time>
      </trkpt>
      <trkpt lat="48.42026" lon="-2.82819">
        <ele>171.4</ele>
        <time>2020-07-02T13:38:30Z</time>
      </trkpt>
      <trkpt lat="48.4203" lon="-2.82817">
        <ele>171.4</ele>
        <time>2020-07-02T13:38:33Z</time>
      </trkpt>
      <trkpt lat="48.42036" lon="-2.82816">
        <ele>171.7</ele>
        <time>2020-07-02T13:38:36Z</time>
      </trkpt>
      <trkpt lat="48.42043" lon="-2.82816">
        <ele>172.9</ele>
        <time>2020-07-02T13:38:47Z</time>
      </trkpt>
      <trkpt lat="48.42048" lon="-2.82816">
        <ele>172.8</ele>
        <time>2020-07-02T13:38:53Z</time>
      </trkpt>
      <trkpt lat="48.42054" lon="-2.82814">
        <ele>172.9</ele>
        <time>2020-07-02T13:39:25Z</time>
      </trkpt>
      <trkpt lat="48.42061" lon="-2.82812">
        <ele>173.6</ele>
        <time>2020-07-02T13:39:28Z</time>
      </trkpt>
      <trkpt lat="48.42069" lon="-2.82811">
        <ele>175.2</ele>
        <time>2020-07-02T13:39:31Z</time>
      </trkpt>
      <trkpt lat="48.42077" lon="-2.8281">
        <ele>177</ele>
        <time>2020-07-02T13:39:34Z</time>
      </trkpt>
      <trkpt lat="48.42085" lon="-2.82809">
        <ele>179.5</ele>
        <time>2020-07-02T13:39:37Z</time>
      </trkpt>
      <trkpt lat="48.42094" lon="-2.82808">
        <ele>181.8</ele>
        <time>2020-07-02T13:39:40Z</time>
      </trkpt>
      <trkpt lat="48.42103" lon="-2.82805">
        <ele>183.2</ele>
        <time>2020-07-02T13:39:43Z</time>
      </trkpt>
      <trkpt lat="48.42112" lon="-2.82804">
        <ele>184</ele>
        <time>2020-07-02T13:39:46Z</time>
      </trkpt>
      <trkpt lat="48.42121" lon="-2.82803">
        <ele>184</ele>
        <time>2020-07-02T13:39:49Z</time>
      </trkpt>
      <trkpt lat="48.4213" lon="-2.82802">
        <ele>183.4</ele>
        <time>2020-07-02T13:39:52Z</time>
      </trkpt>
      <trkpt lat="48.42139" lon="-2.82802">
        <ele>182.4</ele>
        <time>2020-07-02T13:39:55Z</time>
      </trkpt>
      <trkpt lat="48.42147" lon="-2.82802">
        <ele>181.5</ele>
        <time>2020-07-02T13:39:58Z</time>
      </trkpt>
      <trkpt lat="48.42155" lon="-2.82802">
        <ele>181.2</ele>
        <time>2020-07-02T13:40:01Z</time>
      </trkpt>
      <trkpt lat="48.42163" lon="-2.82803">
        <ele>180.8</ele>
        <time>2020-07-02T13:40:04Z</time>
      </trkpt>
      <trkpt lat="48.42171" lon="-2.82803">
        <ele>180.5</ele>
        <time>2020-07-02T13:40:07Z</time>
      </trkpt>
      <trkpt lat="48.42179" lon="-2.82802">
        <ele>180</ele>
        <time>2020-07-02T13:40:10Z</time>
      </trkpt>
      <trkpt lat="48.42188" lon="-2.82801">
        <ele>179.2</ele>
        <time>2020-07-02T13:40:13Z</time>
      </trkpt>
      <trkpt lat="48.42196" lon="-2.82801">
        <ele>178.6</ele>
        <time>2020-07-02T13:40:16Z</time>
      </trkpt>
      <trkpt lat="48.42204" lon="-2.82802">
        <ele>178.4</ele>
        <time>2020-07-02T13:40:19Z</time>
      </trkpt>
      <trkpt lat="48.42211" lon="-2.82802">
        <ele>178.3</ele>
        <time>2020-07-02T13:40:22Z</time>
      </trkpt>
      <trkpt lat="48.42218" lon="-2.82803">
        <ele>178.5</ele>
        <time>2020-07-02T13:40:25Z</time>
      </trkpt>
      <trkpt lat="48.42225" lon="-2.82804">
        <ele>178.6</ele>
        <time>2020-07-02T13:40:28Z</time>
      </trkpt>
      <trkpt lat="48.42233" lon="-2.82805">
        <ele>178.7</ele>
        <time>2020-07-02T13:40:31Z</time>
      </trkpt>
      <trkpt lat="48.4224" lon="-2.82805">
        <ele>178.7</ele>
        <time>2020-07-02T13:40:34Z</time>
      </trkpt>
      <trkpt lat="48.42248" lon="-2.82805">
        <ele>178.8</ele>
        <time>2020-07-02T13:40:37Z</time>
      </trkpt>
      <trkpt lat="48.42257" lon="-2.82807">
        <ele>178.6</ele>
        <time>2020-07-02T13:40:40Z</time>
      </trkpt>
      <trkpt lat="48.42265" lon="-2.82808">
        <ele>178.3</ele>
        <time>2020-07-02T13:40:43Z</time>
      </trkpt>
      <trkpt lat="48.42273" lon="-2.82809">
        <ele>178.1</ele>
        <time>2020-07-02T13:40:46Z</time>
      </trkpt>
      <trkpt lat="48.42282" lon="-2.82809">
        <ele>178.1</ele>
        <time>2020-07-02T13:40:49Z</time>
      </trkpt>
      <trkpt lat="48.42289" lon="-2.82805">
        <ele>178.5</ele>
        <time>2020-07-02T13:40:52Z</time>
      </trkpt>
      <trkpt lat="48.42295" lon="-2.82798">
        <ele>179.2</ele>
        <time>2020-07-02T13:40:55Z</time>
      </trkpt>
      <trkpt lat="48.42302" lon="-2.82791">
        <ele>180.1</ele>
        <time>2020-07-02T13:40:58Z</time>
      </trkpt>
      <trkpt lat="48.42307" lon="-2.82788">
        <ele>180.9</ele>
        <time>2020-07-02T13:41:01Z</time>
      </trkpt>
      <trkpt lat="48.42312" lon="-2.82786">
        <ele>182.1</ele>
        <time>2020-07-02T13:41:05Z</time>
      </trkpt>
      <trkpt lat="48.42316" lon="-2.82782">
        <ele>182.8</ele>
        <time>2020-07-02T13:41:09Z</time>
      </trkpt>
      <trkpt lat="48.42322" lon="-2.82779">
        <ele>183.1</ele>
        <time>2020-07-02T13:41:12Z</time>
      </trkpt>
      <trkpt lat="48.42327" lon="-2.82783">
        <ele>182.8</ele>
        <time>2020-07-02T13:41:15Z</time>
      </trkpt>
      <trkpt lat="48.42332" lon="-2.82789">
        <ele>182.2</ele>
        <time>2020-07-02T13:41:19Z</time>
      </trkpt>
      <trkpt lat="48.42336" lon="-2.82795">
        <ele>181.6</ele>
        <time>2020-07-02T13:41:22Z</time>
      </trkpt>
      <trkpt lat="48.42336" lon="-2.82805">
        <ele>181.3</ele>
        <time>2020-07-02T13:41:25Z</time>
      </trkpt>
      <trkpt lat="48.42334" lon="-2.82814">
        <ele>181.5</ele>
        <time>2020-07-02T13:41:28Z</time>
      </trkpt>
      <trkpt lat="48.42332" lon="-2.82828">
        <ele>181.3</ele>
        <time>2020-07-02T13:41:31Z</time>
      </trkpt>
      <trkpt lat="48.4233" lon="-2.82842">
        <ele>180.7</ele>
        <time>2020-07-02T13:41:34Z</time>
      </trkpt>
      <trkpt lat="48.4233" lon="-2.82856">
        <ele>179.9</ele>
        <time>2020-07-02T13:41:37Z</time>
      </trkpt>
      <trkpt lat="48.42334" lon="-2.82867">
        <ele>179.3</ele>
        <time>2020-07-02T13:41:40Z</time>
      </trkpt>
      <trkpt lat="48.42344" lon="-2.82873">
        <ele>178.8</ele>
        <time>2020-07-02T13:41:43Z</time>
      </trkpt>
      <trkpt lat="48.42357" lon="-2.82874">
        <ele>178.7</ele>
        <time>2020-07-02T13:41:46Z</time>
      </trkpt>
      <trkpt lat="48.42372" lon="-2.82875">
        <ele>179.2</ele>
        <time>2020-07-02T13:41:49Z</time>
      </trkpt>
      <trkpt lat="48.42384" lon="-2.82876">
        <ele>180.6</ele>
        <time>2020-07-02T13:41:52Z</time>
      </trkpt>
      <trkpt lat="48.42398" lon="-2.82877">
        <ele>181.8</ele>
        <time>2020-07-02T13:41:55Z</time>
      </trkpt>
      <trkpt lat="48.42413" lon="-2.82878">
        <ele>182.6</ele>
        <time>2020-07-02T13:41:58Z</time>
      </trkpt>
      <trkpt lat="48.42429" lon="-2.8288">
        <ele>183.4</ele>
        <time>2020-07-02T13:42:01Z</time>
      </trkpt>
      <trkpt lat="48.42446" lon="-2.82881">
        <ele>184.3</ele>
        <time>2020-07-02T13:42:04Z</time>
      </trkpt>
      <trkpt lat="48.42463" lon="-2.82884">
        <ele>184.5</ele>
        <time>2020-07-02T13:42:07Z</time>
      </trkpt>
      <trkpt lat="48.42479" lon="-2.82886">
        <ele>184</ele>
        <time>2020-07-02T13:42:10Z</time>
      </trkpt>
      <trkpt lat="48.42495" lon="-2.82892">
        <ele>183.3</ele>
        <time>2020-07-02T13:42:13Z</time>
      </trkpt>
      <trkpt lat="48.4251" lon="-2.82894">
        <ele>182.8</ele>
        <time>2020-07-02T13:42:16Z</time>
      </trkpt>
      <trkpt lat="48.42524" lon="-2.82891">
        <ele>182.2</ele>
        <time>2020-07-02T13:42:19Z</time>
      </trkpt>
      <trkpt lat="48.42539" lon="-2.8289">
        <ele>180.6</ele>
        <time>2020-07-02T13:42:22Z</time>
      </trkpt>
      <trkpt lat="48.42556" lon="-2.82888">
        <ele>179</ele>
        <time>2020-07-02T13:42:25Z</time>
      </trkpt>
      <trkpt lat="48.42571" lon="-2.82887">
        <ele>177.7</ele>
        <time>2020-07-02T13:42:28Z</time>
      </trkpt>
      <trkpt lat="48.42584" lon="-2.82886">
        <ele>177</ele>
        <time>2020-07-02T13:42:31Z</time>
      </trkpt>
      <trkpt lat="48.42596" lon="-2.82885">
        <ele>177.6</ele>
        <time>2020-07-02T13:42:34Z</time>
      </trkpt>
      <trkpt lat="48.42607" lon="-2.82885">
        <ele>178.7</ele>
        <time>2020-07-02T13:42:37Z</time>
      </trkpt>
      <trkpt lat="48.42617" lon="-2.82887">
        <ele>179.9</ele>
        <time>2020-07-02T13:42:40Z</time>
      </trkpt>
      <trkpt lat="48.42625" lon="-2.82891">
        <ele>180.6</ele>
        <time>2020-07-02T13:42:43Z</time>
      </trkpt>
      <trkpt lat="48.42633" lon="-2.82898">
        <ele>180.8</ele>
        <time>2020-07-02T13:42:46Z</time>
      </trkpt>
      <trkpt lat="48.42641" lon="-2.82906">
        <ele>180.5</ele>
        <time>2020-07-02T13:42:49Z</time>
      </trkpt>
      <trkpt lat="48.42648" lon="-2.82913">
        <ele>180.1</ele>
        <time>2020-07-02T13:42:52Z</time>
      </trkpt>
      <trkpt lat="48.42654" lon="-2.82919">
        <ele>179.8</ele>
        <time>2020-07-02T13:42:55Z</time>
      </trkpt>
      <trkpt lat="48.42659" lon="-2.82921">
        <ele>179.5</ele>
        <time>2020-07-02T13:42:58Z</time>
      </trkpt>
      <trkpt lat="48.42664" lon="-2.82916">
        <ele>179.4</ele>
        <time>2020-07-02T13:43:01Z</time>
      </trkpt>
      <trkpt lat="48.42669" lon="-2.82906">
        <ele>179.7</ele>
        <time>2020-07-02T13:43:04Z</time>
      </trkpt>
      <trkpt lat="48.42672" lon="-2.82893">
        <ele>180.4</ele>
        <time>2020-07-02T13:43:07Z</time>
      </trkpt>
      <trkpt lat="48.42675" lon="-2.82881">
        <ele>181.3</ele>
        <time>2020-07-02T13:43:10Z</time>
      </trkpt>
      <trkpt lat="48.42683" lon="-2.82871">
        <ele>181.8</ele>
        <time>2020-07-02T13:43:13Z</time>
      </trkpt>
      <trkpt lat="48.42694" lon="-2.82865">
        <ele>182.4</ele>
        <time>2020-07-02T13:43:16Z</time>
      </trkpt>
      <trkpt lat="48.42706" lon="-2.82862">
        <ele>183.4</ele>
        <time>2020-07-02T13:43:19Z</time>
      </trkpt>
      <trkpt lat="48.42716" lon="-2.82857">
        <ele>184.5</ele>
        <time>2020-07-02T13:43:22Z</time>
      </trkpt>
      <trkpt lat="48.42726" lon="-2.82852">
        <ele>185.5</ele>
        <time>2020-07-02T13:43:25Z</time>
      </trkpt>
      <trkpt lat="48.4274" lon="-2.82845">
        <ele>185</ele>
        <time>2020-07-02T13:43:28Z</time>
      </trkpt>
      <trkpt lat="48.42755" lon="-2.82841">
        <ele>184.3</ele>
        <time>2020-07-02T13:43:31Z</time>
      </trkpt>
      <trkpt lat="48.42771" lon="-2.82838">
        <ele>183.7</ele>
        <time>2020-07-02T13:43:34Z</time>
      </trkpt>
      <trkpt lat="48.42785" lon="-2.82838">
        <ele>183.3</ele>
        <time>2020-07-02T13:43:37Z</time>
      </trkpt>
      <trkpt lat="48.42799" lon="-2.82839">
        <ele>182.1</ele>
        <time>2020-07-02T13:43:40Z</time>
      </trkpt>
      <trkpt lat="48.42809" lon="-2.8284">
        <ele>180.1</ele>
        <time>2020-07-02T13:43:43Z</time>
      </trkpt>
      <trkpt lat="48.42816" lon="-2.82838">
        <ele>178.2</ele>
        <time>2020-07-02T13:43:46Z</time>
      </trkpt>
      <trkpt lat="48.42821" lon="-2.82834">
        <ele>177.1</ele>
        <time>2020-07-02T13:43:49Z</time>
      </trkpt>
      <trkpt lat="48.42827" lon="-2.82828">
        <ele>177</ele>
        <time>2020-07-02T13:43:52Z</time>
      </trkpt>
      <trkpt lat="48.42832" lon="-2.82828">
        <ele>178</ele>
        <time>2020-07-02T13:43:55Z</time>
      </trkpt>
      <trkpt lat="48.4284" lon="-2.82832">
        <ele>178.8</ele>
        <time>2020-07-02T13:43:58Z</time>
      </trkpt>
      <trkpt lat="48.42852" lon="-2.82844">
        <ele>179.3</ele>
        <time>2020-07-02T13:44:01Z</time>
      </trkpt>
      <trkpt lat="48.42865" lon="-2.82859">
        <ele>178.9</ele>
        <time>2020-07-02T13:44:04Z</time>
      </trkpt>
      <trkpt lat="48.42876" lon="-2.8287">
        <ele>177.9</ele>
        <time>2020-07-02T13:44:07Z</time>
      </trkpt>
      <trkpt lat="48.42887" lon="-2.82882">
        <ele>177</ele>
        <time>2020-07-02T13:44:10Z</time>
      </trkpt>
      <trkpt lat="48.429" lon="-2.82896">
        <ele>176.2</ele>
        <time>2020-07-02T13:44:13Z</time>
      </trkpt>
      <trkpt lat="48.42914" lon="-2.82911">
        <ele>175</ele>
        <time>2020-07-02T13:44:16Z</time>
      </trkpt>
      <trkpt lat="48.42927" lon="-2.82923">
        <ele>173.2</ele>
        <time>2020-07-02T13:44:19Z</time>
      </trkpt>
      <trkpt lat="48.42941" lon="-2.82936">
        <ele>171.7</ele>
        <time>2020-07-02T13:44:22Z</time>
      </trkpt>
      <trkpt lat="48.42955" lon="-2.82949">
        <ele>169.9</ele>
        <time>2020-07-02T13:44:25Z</time>
      </trkpt>
      <trkpt lat="48.42967" lon="-2.82962">
        <ele>168.5</ele>
        <time>2020-07-02T13:44:28Z</time>
      </trkpt>
      <trkpt lat="48.42978" lon="-2.8298">
        <ele>167.3</ele>
        <time>2020-07-02T13:44:31Z</time>
      </trkpt>
      <trkpt lat="48.42988" lon="-2.82994">
        <ele>167.2</ele>
        <time>2020-07-02T13:44:34Z</time>
      </trkpt>
      <trkpt lat="48.43" lon="-2.83003">
        <ele>167.5</ele>
        <time>2020-07-02T13:44:37Z</time>
      </trkpt>
      <trkpt lat="48.43011" lon="-2.83009">
        <ele>168</ele>
        <time>2020-07-02T13:44:40Z</time>
      </trkpt>
      <trkpt lat="48.4302" lon="-2.83015">
        <ele>168.2</ele>
        <time>2020-07-02T13:44:43Z</time>
      </trkpt>
      <trkpt lat="48.43029" lon="-2.83026">
        <ele>168.1</ele>
        <time>2020-07-02T13:44:46Z</time>
      </trkpt>
      <trkpt lat="48.43038" lon="-2.83041">
        <ele>167.8</ele>
        <time>2020-07-02T13:44:49Z</time>
      </trkpt>
      <trkpt lat="48.43048" lon="-2.83056">
        <ele>167.3</ele>
        <time>2020-07-02T13:44:52Z</time>
      </trkpt>
      <trkpt lat="48.43058" lon="-2.8307">
        <ele>166.8</ele>
        <time>2020-07-02T13:44:55Z</time>
      </trkpt>
      <trkpt lat="48.43067" lon="-2.83085">
        <ele>166.4</ele>
        <time>2020-07-02T13:44:58Z</time>
      </trkpt>
      <trkpt lat="48.43077" lon="-2.83099">
        <ele>166</ele>
        <time>2020-07-02T13:45:01Z</time>
      </trkpt>
      <trkpt lat="48.43087" lon="-2.83112">
        <ele>165.7</ele>
        <time>2020-07-02T13:45:04Z</time>
      </trkpt>
      <trkpt lat="48.43095" lon="-2.83125">
        <ele>165.5</ele>
        <time>2020-07-02T13:45:07Z</time>
      </trkpt>
      <trkpt lat="48.43105" lon="-2.8314">
        <ele>164.9</ele>
        <time>2020-07-02T13:45:10Z</time>
      </trkpt>
      <trkpt lat="48.43115" lon="-2.83159">
        <ele>164.1</ele>
        <time>2020-07-02T13:45:13Z</time>
      </trkpt>
      <trkpt lat="48.43127" lon="-2.8318">
        <ele>163</ele>
        <time>2020-07-02T13:45:16Z</time>
      </trkpt>
      <trkpt lat="48.43139" lon="-2.83203">
        <ele>161.9</ele>
        <time>2020-07-02T13:45:19Z</time>
      </trkpt>
      <trkpt lat="48.43153" lon="-2.83227">
        <ele>161.1</ele>
        <time>2020-07-02T13:45:22Z</time>
      </trkpt>
      <trkpt lat="48.43166" lon="-2.83253">
        <ele>160.5</ele>
        <time>2020-07-02T13:45:25Z</time>
      </trkpt>
      <trkpt lat="48.43179" lon="-2.83277">
        <ele>160</ele>
        <time>2020-07-02T13:45:28Z</time>
      </trkpt>
      <trkpt lat="48.43192" lon="-2.83301">
        <ele>159.3</ele>
        <time>2020-07-02T13:45:31Z</time>
      </trkpt>
      <trkpt lat="48.43205" lon="-2.83324">
        <ele>158.5</ele>
        <time>2020-07-02T13:45:34Z</time>
      </trkpt>
      <trkpt lat="48.43217" lon="-2.83348">
        <ele>157.7</ele>
        <time>2020-07-02T13:45:37Z</time>
      </trkpt>
      <trkpt lat="48.43227" lon="-2.83375">
        <ele>156.9</ele>
        <time>2020-07-02T13:45:40Z</time>
      </trkpt>
      <trkpt lat="48.43234" lon="-2.83403">
        <ele>156.3</ele>
        <time>2020-07-02T13:45:43Z</time>
      </trkpt>
      <trkpt lat="48.43241" lon="-2.83431">
        <ele>155.8</ele>
        <time>2020-07-02T13:45:46Z</time>
      </trkpt>
      <trkpt lat="48.43249" lon="-2.83457">
        <ele>155.4</ele>
        <time>2020-07-02T13:45:49Z</time>
      </trkpt>
      <trkpt lat="48.43259" lon="-2.8348">
        <ele>155.2</ele>
        <time>2020-07-02T13:45:52Z</time>
      </trkpt>
      <trkpt lat="48.4327" lon="-2.83503">
        <ele>155.3</ele>
        <time>2020-07-02T13:45:55Z</time>
      </trkpt>
      <trkpt lat="48.43282" lon="-2.83522">
        <ele>155.5</ele>
        <time>2020-07-02T13:45:58Z</time>
      </trkpt>
      <trkpt lat="48.43293" lon="-2.8354">
        <ele>156.2</ele>
        <time>2020-07-02T13:46:01Z</time>
      </trkpt>
      <trkpt lat="48.43306" lon="-2.83555">
        <ele>156.8</ele>
        <time>2020-07-02T13:46:04Z</time>
      </trkpt>
      <trkpt lat="48.4332" lon="-2.83567">
        <ele>157.1</ele>
        <time>2020-07-02T13:46:07Z</time>
      </trkpt>
      <trkpt lat="48.43336" lon="-2.83576">
        <ele>157</ele>
        <time>2020-07-02T13:46:10Z</time>
      </trkpt>
      <trkpt lat="48.43353" lon="-2.83586">
        <ele>156.5</ele>
        <time>2020-07-02T13:46:13Z</time>
      </trkpt>
      <trkpt lat="48.4337" lon="-2.83595">
        <ele>156</ele>
        <time>2020-07-02T13:46:16Z</time>
      </trkpt>
      <trkpt lat="48.43387" lon="-2.83603">
        <ele>155.4</ele>
        <time>2020-07-02T13:46:19Z</time>
      </trkpt>
      <trkpt lat="48.43403" lon="-2.83609">
        <ele>154.5</ele>
        <time>2020-07-02T13:46:22Z</time>
      </trkpt>
      <trkpt lat="48.43416" lon="-2.83607">
        <ele>153.5</ele>
        <time>2020-07-02T13:46:25Z</time>
      </trkpt>
      <trkpt lat="48.43423" lon="-2.83604">
        <ele>153.4</ele>
        <time>2020-07-02T13:46:28Z</time>
      </trkpt>
      <trkpt lat="48.43428" lon="-2.83601">
        <ele>153.5</ele>
        <time>2020-07-02T13:46:31Z</time>
      </trkpt>
      <trkpt lat="48.43437" lon="-2.83599">
        <ele>153.4</ele>
        <time>2020-07-02T13:46:34Z</time>
      </trkpt>
      <trkpt lat="48.43452" lon="-2.83598">
        <ele>152.9</ele>
        <time>2020-07-02T13:46:37Z</time>
      </trkpt>
      <trkpt lat="48.43468" lon="-2.83595">
        <ele>151.7</ele>
        <time>2020-07-02T13:46:40Z</time>
      </trkpt>
      <trkpt lat="48.43485" lon="-2.83588">
        <ele>150.8</ele>
        <time>2020-07-02T13:46:43Z</time>
      </trkpt>
      <trkpt lat="48.43501" lon="-2.8358">
        <ele>149.3</ele>
        <time>2020-07-02T13:46:46Z</time>
      </trkpt>
      <trkpt lat="48.43519" lon="-2.83571">
        <ele>148</ele>
        <time>2020-07-02T13:46:49Z</time>
      </trkpt>
      <trkpt lat="48.43533" lon="-2.83565">
        <ele>147.4</ele>
        <time>2020-07-02T13:46:52Z</time>
      </trkpt>
      <trkpt lat="48.43544" lon="-2.83563">
        <ele>147.6</ele>
        <time>2020-07-02T13:46:55Z</time>
      </trkpt>
      <trkpt lat="48.43553" lon="-2.83568">
        <ele>147.8</ele>
        <time>2020-07-02T13:46:58Z</time>
      </trkpt>
      <trkpt lat="48.43561" lon="-2.83577">
        <ele>147.6</ele>
        <time>2020-07-02T13:47:01Z</time>
      </trkpt>
      <trkpt lat="48.43571" lon="-2.83586">
        <ele>147.3</ele>
        <time>2020-07-02T13:47:04Z</time>
      </trkpt>
      <trkpt lat="48.43582" lon="-2.83599">
        <ele>146.7</ele>
        <time>2020-07-02T13:47:07Z</time>
      </trkpt>
      <trkpt lat="48.43592" lon="-2.83615">
        <ele>145.1</ele>
        <time>2020-07-02T13:47:10Z</time>
      </trkpt>
      <trkpt lat="48.436" lon="-2.8362">
        <ele>143.4</ele>
        <time>2020-07-02T13:47:13Z</time>
      </trkpt>
      <trkpt lat="48.43607" lon="-2.83621">
        <ele>141.8</ele>
        <time>2020-07-02T13:47:16Z</time>
      </trkpt>
      <trkpt lat="48.43612" lon="-2.8362">
        <ele>140.4</ele>
        <time>2020-07-02T13:47:19Z</time>
      </trkpt>
      <trkpt lat="48.43617" lon="-2.83618">
        <ele>139</ele>
        <time>2020-07-02T13:47:22Z</time>
      </trkpt>
      <trkpt lat="48.43621" lon="-2.8361">
        <ele>136.5</ele>
        <time>2020-07-02T13:47:47Z</time>
      </trkpt>
      <trkpt lat="48.43626" lon="-2.83604">
        <ele>136.5</ele>
        <time>2020-07-02T13:47:50Z</time>
      </trkpt>
      <trkpt lat="48.4363" lon="-2.83599">
        <ele>136.8</ele>
        <time>2020-07-02T13:47:54Z</time>
      </trkpt>
      <trkpt lat="48.43637" lon="-2.83596">
        <ele>137.2</ele>
        <time>2020-07-02T13:47:59Z</time>
      </trkpt>
      <trkpt lat="48.43646" lon="-2.83591">
        <ele>137.8</ele>
        <time>2020-07-02T13:48:02Z</time>
      </trkpt>
      <trkpt lat="48.43652" lon="-2.83584">
        <ele>139</ele>
        <time>2020-07-02T13:48:05Z</time>
      </trkpt>
      <trkpt lat="48.43656" lon="-2.83579">
        <ele>140.6</ele>
        <time>2020-07-02T13:48:10Z</time>
      </trkpt>
      <trkpt lat="48.43661" lon="-2.83578">
        <ele>141.1</ele>
        <time>2020-07-02T13:48:24Z</time>
      </trkpt>
      <trkpt lat="48.43665" lon="-2.83578">
        <ele>140.3</ele>
        <time>2020-07-02T13:48:27Z</time>
      </trkpt>
      <trkpt lat="48.4367" lon="-2.83579">
        <ele>138.8</ele>
        <time>2020-07-02T13:48:32Z</time>
      </trkpt>
      <trkpt lat="48.43674" lon="-2.83585">
        <ele>137.3</ele>
        <time>2020-07-02T13:48:53Z</time>
      </trkpt>
      <trkpt lat="48.43678" lon="-2.83595">
        <ele>137.3</ele>
        <time>2020-07-02T13:48:56Z</time>
      </trkpt>
      <trkpt lat="48.43682" lon="-2.83601">
        <ele>137.3</ele>
        <time>2020-07-02T13:48:59Z</time>
      </trkpt>
      <trkpt lat="48.43685" lon="-2.83607">
        <ele>137.4</ele>
        <time>2020-07-02T13:49:06Z</time>
      </trkpt>
      <trkpt lat="48.43688" lon="-2.83615">
        <ele>137.5</ele>
        <time>2020-07-02T13:49:09Z</time>
      </trkpt>
      <trkpt lat="48.43692" lon="-2.8362">
        <ele>138.5</ele>
        <time>2020-07-02T13:49:13Z</time>
      </trkpt>
      <trkpt lat="48.43698" lon="-2.83619">
        <ele>140.5</ele>
        <time>2020-07-02T13:49:17Z</time>
      </trkpt>
      <trkpt lat="48.43703" lon="-2.83616">
        <ele>142.7</ele>
        <time>2020-07-02T13:49:20Z</time>
      </trkpt>
      <trkpt lat="48.43709" lon="-2.83611">
        <ele>145.2</ele>
        <time>2020-07-02T13:49:23Z</time>
      </trkpt>
      <trkpt lat="48.43716" lon="-2.83604">
        <ele>147.9</ele>
        <time>2020-07-02T13:49:26Z</time>
      </trkpt>
      <trkpt lat="48.43722" lon="-2.836">
        <ele>150.5</ele>
        <time>2020-07-02T13:49:29Z</time>
      </trkpt>
      <trkpt lat="48.43731" lon="-2.83598">
        <ele>152.9</ele>
        <time>2020-07-02T13:49:32Z</time>
      </trkpt>
      <trkpt lat="48.43744" lon="-2.83597">
        <ele>154.8</ele>
        <time>2020-07-02T13:49:35Z</time>
      </trkpt>
      <trkpt lat="48.43756" lon="-2.83596">
        <ele>155.7</ele>
        <time>2020-07-02T13:49:38Z</time>
      </trkpt>
      <trkpt lat="48.43768" lon="-2.83593">
        <ele>154.4</ele>
        <time>2020-07-02T13:49:41Z</time>
      </trkpt>
      <trkpt lat="48.43777" lon="-2.83593">
        <ele>152.8</ele>
        <time>2020-07-02T13:49:44Z</time>
      </trkpt>
      <trkpt lat="48.43784" lon="-2.83594">
        <ele>151.6</ele>
        <time>2020-07-02T13:49:47Z</time>
      </trkpt>
      <trkpt lat="48.4379" lon="-2.83594">
        <ele>149</ele>
        <time>2020-07-02T13:50:10Z</time>
      </trkpt>
      <trkpt lat="48.43795" lon="-2.83592">
        <ele>148.5</ele>
        <time>2020-07-02T13:50:13Z</time>
      </trkpt>
      <trkpt lat="48.43802" lon="-2.83591">
        <ele>148</ele>
        <time>2020-07-02T13:50:16Z</time>
      </trkpt>
      <trkpt lat="48.43809" lon="-2.8359">
        <ele>147.9</ele>
        <time>2020-07-02T13:50:19Z</time>
      </trkpt>
      <trkpt lat="48.43818" lon="-2.83588">
        <ele>148.3</ele>
        <time>2020-07-02T13:50:22Z</time>
      </trkpt>
      <trkpt lat="48.43826" lon="-2.83588">
        <ele>149.8</ele>
        <time>2020-07-02T13:50:25Z</time>
      </trkpt>
      <trkpt lat="48.43832" lon="-2.83587">
        <ele>151.7</ele>
        <time>2020-07-02T13:50:28Z</time>
      </trkpt>
      <trkpt lat="48.43838" lon="-2.83585">
        <ele>154.3</ele>
        <time>2020-07-02T13:50:32Z</time>
      </trkpt>
      <trkpt lat="48.43843" lon="-2.83584">
        <ele>156.2</ele>
        <time>2020-07-02T13:50:35Z</time>
      </trkpt>
      <trkpt lat="48.43848" lon="-2.83582">
        <ele>158.1</ele>
        <time>2020-07-02T13:50:38Z</time>
      </trkpt>
      <trkpt lat="48.43856" lon="-2.83577">
        <ele>160.1</ele>
        <time>2020-07-02T13:50:41Z</time>
      </trkpt>
      <trkpt lat="48.43863" lon="-2.83573">
        <ele>161.8</ele>
        <time>2020-07-02T13:50:44Z</time>
      </trkpt>
      <trkpt lat="48.4387" lon="-2.83565">
        <ele>162.8</ele>
        <time>2020-07-02T13:50:47Z</time>
      </trkpt>
      <trkpt lat="48.43875" lon="-2.83557">
        <ele>163.7</ele>
        <time>2020-07-02T13:50:50Z</time>
      </trkpt>
      <trkpt lat="48.43878" lon="-2.83545">
        <ele>163.2</ele>
        <time>2020-07-02T13:50:53Z</time>
      </trkpt>
      <trkpt lat="48.43882" lon="-2.83531">
        <ele>162</ele>
        <time>2020-07-02T13:50:56Z</time>
      </trkpt>
      <trkpt lat="48.43886" lon="-2.83516">
        <ele>161.2</ele>
        <time>2020-07-02T13:50:59Z</time>
      </trkpt>
      <trkpt lat="48.43887" lon="-2.83502">
        <ele>160.5</ele>
        <time>2020-07-02T13:51:02Z</time>
      </trkpt>
      <trkpt lat="48.43885" lon="-2.83488">
        <ele>160.2</ele>
        <time>2020-07-02T13:51:05Z</time>
      </trkpt>
      <trkpt lat="48.43881" lon="-2.83474">
        <ele>159.7</ele>
        <time>2020-07-02T13:51:08Z</time>
      </trkpt>
      <trkpt lat="48.43878" lon="-2.83458">
        <ele>159.9</ele>
        <time>2020-07-02T13:51:11Z</time>
      </trkpt>
      <trkpt lat="48.43877" lon="-2.8344">
        <ele>159.3</ele>
        <time>2020-07-02T13:51:14Z</time>
      </trkpt>
      <trkpt lat="48.43875" lon="-2.83424">
        <ele>158.2</ele>
        <time>2020-07-02T13:51:17Z</time>
      </trkpt>
      <trkpt lat="48.43875" lon="-2.83412">
        <ele>157.2</ele>
        <time>2020-07-02T13:51:20Z</time>
      </trkpt>
      <trkpt lat="48.43878" lon="-2.83406">
        <ele>156.1</ele>
        <time>2020-07-02T13:51:23Z</time>
      </trkpt>
      <trkpt lat="48.43883" lon="-2.83403">
        <ele>155.5</ele>
        <time>2020-07-02T13:51:26Z</time>
      </trkpt>
      <trkpt lat="48.43888" lon="-2.83401">
        <ele>155.5</ele>
        <time>2020-07-02T13:51:29Z</time>
      </trkpt>
      <trkpt lat="48.43893" lon="-2.83399">
        <ele>155.7</ele>
        <time>2020-07-02T13:51:32Z</time>
      </trkpt>
      <trkpt lat="48.43899" lon="-2.83398">
        <ele>155.9</ele>
        <time>2020-07-02T13:51:35Z</time>
      </trkpt>
      <trkpt lat="48.43906" lon="-2.83397">
        <ele>156.3</ele>
        <time>2020-07-02T13:51:38Z</time>
      </trkpt>
      <trkpt lat="48.43912" lon="-2.83396">
        <ele>156.7</ele>
        <time>2020-07-02T13:51:41Z</time>
      </trkpt>
      <trkpt lat="48.43919" lon="-2.83395">
        <ele>157.1</ele>
        <time>2020-07-02T13:51:44Z</time>
      </trkpt>
      <trkpt lat="48.43926" lon="-2.83395">
        <ele>157.7</ele>
        <time>2020-07-02T13:51:47Z</time>
      </trkpt>
      <trkpt lat="48.43933" lon="-2.83395">
        <ele>158.3</ele>
        <time>2020-07-02T13:51:50Z</time>
      </trkpt>
      <trkpt lat="48.43939" lon="-2.83395">
        <ele>158.7</ele>
        <time>2020-07-02T13:51:53Z</time>
      </trkpt>
      <trkpt lat="48.43945" lon="-2.83395">
        <ele>158.8</ele>
        <time>2020-07-02T13:51:56Z</time>
      </trkpt>
      <trkpt lat="48.43952" lon="-2.83395">
        <ele>158.7</ele>
        <time>2020-07-02T13:51:59Z</time>
      </trkpt>
      <trkpt lat="48.43959" lon="-2.83395">
        <ele>158.6</ele>
        <time>2020-07-02T13:52:02Z</time>
      </trkpt>
      <trkpt lat="48.43965" lon="-2.83391">
        <ele>158.5</ele>
        <time>2020-07-02T13:52:05Z</time>
      </trkpt>
      <trkpt lat="48.43968" lon="-2.83383">
        <ele>159</ele>
        <time>2020-07-02T13:52:08Z</time>
      </trkpt>
      <trkpt lat="48.43968" lon="-2.83373">
        <ele>160</ele>
        <time>2020-07-02T13:52:11Z</time>
      </trkpt>
      <trkpt lat="48.43968" lon="-2.83364">
        <ele>161.2</ele>
        <time>2020-07-02T13:52:14Z</time>
      </trkpt>
      <trkpt lat="48.43967" lon="-2.83356">
        <ele>162.8</ele>
        <time>2020-07-02T13:52:17Z</time>
      </trkpt>
      <trkpt lat="48.43968" lon="-2.83344">
        <ele>166.4</ele>
        <time>2020-07-02T13:53:55Z</time>
      </trkpt>
      <trkpt lat="48.43967" lon="-2.83333">
        <ele>166.7</ele>
        <time>2020-07-02T13:53:58Z</time>
      </trkpt>
      <trkpt lat="48.43965" lon="-2.83321">
        <ele>167.3</ele>
        <time>2020-07-02T13:54:01Z</time>
      </trkpt>
      <trkpt lat="48.43964" lon="-2.83308">
        <ele>167.8</ele>
        <time>2020-07-02T13:54:04Z</time>
      </trkpt>
      <trkpt lat="48.43962" lon="-2.83295">
        <ele>168.3</ele>
        <time>2020-07-02T13:54:07Z</time>
      </trkpt>
      <trkpt lat="48.4396" lon="-2.8328">
        <ele>168.9</ele>
        <time>2020-07-02T13:54:10Z</time>
      </trkpt>
      <trkpt lat="48.4396" lon="-2.83266">
        <ele>169.4</ele>
        <time>2020-07-02T13:54:13Z</time>
      </trkpt>
      <trkpt lat="48.43961" lon="-2.83251">
        <ele>169.6</ele>
        <time>2020-07-02T13:54:16Z</time>
      </trkpt>
      <trkpt lat="48.43962" lon="-2.83236">
        <ele>169.5</ele>
        <time>2020-07-02T13:54:19Z</time>
      </trkpt>
      <trkpt lat="48.43964" lon="-2.83222">
        <ele>169.9</ele>
        <time>2020-07-02T13:54:22Z</time>
      </trkpt>
      <trkpt lat="48.43966" lon="-2.83208">
        <ele>170.6</ele>
        <time>2020-07-02T13:54:25Z</time>
      </trkpt>
      <trkpt lat="48.43968" lon="-2.83193">
        <ele>171.1</ele>
        <time>2020-07-02T13:54:28Z</time>
      </trkpt>
      <trkpt lat="48.43971" lon="-2.8318">
        <ele>171.1</ele>
        <time>2020-07-02T13:54:31Z</time>
      </trkpt>
      <trkpt lat="48.43974" lon="-2.83167">
        <ele>171.6</ele>
        <time>2020-07-02T13:54:34Z</time>
      </trkpt>
      <trkpt lat="48.43977" lon="-2.83155">
        <ele>172.7</ele>
        <time>2020-07-02T13:54:37Z</time>
      </trkpt>
      <trkpt lat="48.43981" lon="-2.83143">
        <ele>173.8</ele>
        <time>2020-07-02T13:54:40Z</time>
      </trkpt>
      <trkpt lat="48.43985" lon="-2.83133">
        <ele>174.8</ele>
        <time>2020-07-02T13:54:43Z</time>
      </trkpt>
      <trkpt lat="48.43989" lon="-2.83122">
        <ele>175.7</ele>
        <time>2020-07-02T13:54:46Z</time>
      </trkpt>
      <trkpt lat="48.43991" lon="-2.83112">
        <ele>176.8</ele>
        <time>2020-07-02T13:54:49Z</time>
      </trkpt>
      <trkpt lat="48.43994" lon="-2.831">
        <ele>177.4</ele>
        <time>2020-07-02T13:54:52Z</time>
      </trkpt>
      <trkpt lat="48.43996" lon="-2.83089">
        <ele>177.7</ele>
        <time>2020-07-02T13:54:55Z</time>
      </trkpt>
      <trkpt lat="48.44" lon="-2.83078">
        <ele>177.9</ele>
        <time>2020-07-02T13:54:58Z</time>
      </trkpt>
      <trkpt lat="48.44004" lon="-2.83067">
        <ele>177.8</ele>
        <time>2020-07-02T13:55:01Z</time>
      </trkpt>
      <trkpt lat="48.44009" lon="-2.83056">
        <ele>177.6</ele>
        <time>2020-07-02T13:55:04Z</time>
      </trkpt>
      <trkpt lat="48.44015" lon="-2.83043">
        <ele>177.3</ele>
        <time>2020-07-02T13:55:07Z</time>
      </trkpt>
      <trkpt lat="48.44021" lon="-2.83029">
        <ele>176.7</ele>
        <time>2020-07-02T13:55:10Z</time>
      </trkpt>
      <trkpt lat="48.44028" lon="-2.83016">
        <ele>176.2</ele>
        <time>2020-07-02T13:55:13Z</time>
      </trkpt>
      <trkpt lat="48.44035" lon="-2.83003">
        <ele>175.9</ele>
        <time>2020-07-02T13:55:16Z</time>
      </trkpt>
      <trkpt lat="48.44041" lon="-2.82992">
        <ele>176</ele>
        <time>2020-07-02T13:55:19Z</time>
      </trkpt>
      <trkpt lat="48.44047" lon="-2.82981">
        <ele>176.5</ele>
        <time>2020-07-02T13:55:22Z</time>
      </trkpt>
      <trkpt lat="48.44052" lon="-2.82971">
        <ele>177.2</ele>
        <time>2020-07-02T13:55:25Z</time>
      </trkpt>
      <trkpt lat="48.44058" lon="-2.82961">
        <ele>178.1</ele>
        <time>2020-07-02T13:55:28Z</time>
      </trkpt>
      <trkpt lat="48.44064" lon="-2.82951">
        <ele>179.2</ele>
        <time>2020-07-02T13:55:31Z</time>
      </trkpt>
      <trkpt lat="48.44067" lon="-2.82939">
        <ele>180</ele>
        <time>2020-07-02T13:55:34Z</time>
      </trkpt>
      <trkpt lat="48.4407" lon="-2.82926">
        <ele>180.6</ele>
        <time>2020-07-02T13:55:37Z</time>
      </trkpt>
      <trkpt lat="48.44073" lon="-2.82912">
        <ele>181</ele>
        <time>2020-07-02T13:55:40Z</time>
      </trkpt>
      <trkpt lat="48.44075" lon="-2.82897">
        <ele>180.9</ele>
        <time>2020-07-02T13:55:43Z</time>
      </trkpt>
      <trkpt lat="48.44078" lon="-2.82882">
        <ele>180.8</ele>
        <time>2020-07-02T13:55:46Z</time>
      </trkpt>
      <trkpt lat="48.44079" lon="-2.8287">
        <ele>181.6</ele>
        <time>2020-07-02T13:55:49Z</time>
      </trkpt>
      <trkpt lat="48.44079" lon="-2.8286">
        <ele>183.1</ele>
        <time>2020-07-02T13:55:52Z</time>
      </trkpt>
      <trkpt lat="48.44079" lon="-2.82848">
        <ele>184.1</ele>
        <time>2020-07-02T13:55:55Z</time>
      </trkpt>
      <trkpt lat="48.44079" lon="-2.82835">
        <ele>185.1</ele>
        <time>2020-07-02T13:55:58Z</time>
      </trkpt>
      <trkpt lat="48.44081" lon="-2.82816">
        <ele>185</ele>
        <time>2020-07-02T13:56:01Z</time>
      </trkpt>
      <trkpt lat="48.44085" lon="-2.8279">
        <ele>183.9</ele>
        <time>2020-07-02T13:56:04Z</time>
      </trkpt>
      <trkpt lat="48.4409" lon="-2.82761">
        <ele>182.4</ele>
        <time>2020-07-02T13:56:07Z</time>
      </trkpt>
      <trkpt lat="48.44098" lon="-2.82734">
        <ele>181.1</ele>
        <time>2020-07-02T13:56:10Z</time>
      </trkpt>
      <trkpt lat="48.44107" lon="-2.82708">
        <ele>180.3</ele>
        <time>2020-07-02T13:56:13Z</time>
      </trkpt>
      <trkpt lat="48.44115" lon="-2.82685">
        <ele>179.8</ele>
        <time>2020-07-02T13:56:16Z</time>
      </trkpt>
      <trkpt lat="48.44122" lon="-2.82664">
        <ele>179.7</ele>
        <time>2020-07-02T13:56:19Z</time>
      </trkpt>
      <trkpt lat="48.44127" lon="-2.82644">
        <ele>179.7</ele>
        <time>2020-07-02T13:56:22Z</time>
      </trkpt>
      <trkpt lat="48.4413" lon="-2.82623">
        <ele>179.8</ele>
        <time>2020-07-02T13:56:25Z</time>
      </trkpt>
      <trkpt lat="48.44131" lon="-2.82603">
        <ele>180.1</ele>
        <time>2020-07-02T13:56:28Z</time>
      </trkpt>
      <trkpt lat="48.44132" lon="-2.82585">
        <ele>180.5</ele>
        <time>2020-07-02T13:56:31Z</time>
      </trkpt>
      <trkpt lat="48.44133" lon="-2.82567">
        <ele>181</ele>
        <time>2020-07-02T13:56:34Z</time>
      </trkpt>
      <trkpt lat="48.44132" lon="-2.8255">
        <ele>181.4</ele>
        <time>2020-07-02T13:56:37Z</time>
      </trkpt>
      <trkpt lat="48.44129" lon="-2.82534">
        <ele>181.4</ele>
        <time>2020-07-02T13:56:40Z</time>
      </trkpt>
      <trkpt lat="48.44125" lon="-2.82518">
        <ele>181.3</ele>
        <time>2020-07-02T13:56:43Z</time>
      </trkpt>
      <trkpt lat="48.44119" lon="-2.82501">
        <ele>181.1</ele>
        <time>2020-07-02T13:56:46Z</time>
      </trkpt>
      <trkpt lat="48.44114" lon="-2.82486">
        <ele>181.4</ele>
        <time>2020-07-02T13:56:49Z</time>
      </trkpt>
      <trkpt lat="48.44109" lon="-2.82472">
        <ele>182.2</ele>
        <time>2020-07-02T13:56:52Z</time>
      </trkpt>
      <trkpt lat="48.44102" lon="-2.82457">
        <ele>182.8</ele>
        <time>2020-07-02T13:56:55Z</time>
      </trkpt>
      <trkpt lat="48.44093" lon="-2.82444">
        <ele>183</ele>
        <time>2020-07-02T13:56:58Z</time>
      </trkpt>
      <trkpt lat="48.44084" lon="-2.82432">
        <ele>183.2</ele>
        <time>2020-07-02T13:57:01Z</time>
      </trkpt>
      <trkpt lat="48.44074" lon="-2.82424">
        <ele>183.4</ele>
        <time>2020-07-02T13:57:04Z</time>
      </trkpt>
      <trkpt lat="48.44065" lon="-2.82415">
        <ele>184.1</ele>
        <time>2020-07-02T13:57:07Z</time>
      </trkpt>
      <trkpt lat="48.44056" lon="-2.82408">
        <ele>184.8</ele>
        <time>2020-07-02T13:57:10Z</time>
      </trkpt>
      <trkpt lat="48.44047" lon="-2.82402">
        <ele>185.8</ele>
        <time>2020-07-02T13:57:13Z</time>
      </trkpt>
      <trkpt lat="48.44038" lon="-2.82396">
        <ele>186.8</ele>
        <time>2020-07-02T13:57:16Z</time>
      </trkpt>
      <trkpt lat="48.44029" lon="-2.82391">
        <ele>187.9</ele>
        <time>2020-07-02T13:57:19Z</time>
      </trkpt>
      <trkpt lat="48.4402" lon="-2.82385">
        <ele>188.9</ele>
        <time>2020-07-02T13:57:22Z</time>
      </trkpt>
      <trkpt lat="48.44011" lon="-2.8238">
        <ele>189.9</ele>
        <time>2020-07-02T13:57:25Z</time>
      </trkpt>
      <trkpt lat="48.44002" lon="-2.82375">
        <ele>191</ele>
        <time>2020-07-02T13:57:28Z</time>
      </trkpt>
      <trkpt lat="48.43993" lon="-2.8237">
        <ele>192</ele>
        <time>2020-07-02T13:57:31Z</time>
      </trkpt>
      <trkpt lat="48.43984" lon="-2.82365">
        <ele>192.6</ele>
        <time>2020-07-02T13:57:34Z</time>
      </trkpt>
      <trkpt lat="48.43975" lon="-2.8236">
        <ele>193.4</ele>
        <time>2020-07-02T13:57:37Z</time>
      </trkpt>
      <trkpt lat="48.43967" lon="-2.82353">
        <ele>194.3</ele>
        <time>2020-07-02T13:57:40Z</time>
      </trkpt>
      <trkpt lat="48.43958" lon="-2.82347">
        <ele>194.7</ele>
        <time>2020-07-02T13:57:43Z</time>
      </trkpt>
      <trkpt lat="48.43948" lon="-2.8234">
        <ele>195</ele>
        <time>2020-07-02T13:57:46Z</time>
      </trkpt>
      <trkpt lat="48.43939" lon="-2.82334">
        <ele>195.3</ele>
        <time>2020-07-02T13:57:49Z</time>
      </trkpt>
      <trkpt lat="48.43929" lon="-2.82327">
        <ele>195.3</ele>
        <time>2020-07-02T13:57:52Z</time>
      </trkpt>
      <trkpt lat="48.4392" lon="-2.8232">
        <ele>195.5</ele>
        <time>2020-07-02T13:57:55Z</time>
      </trkpt>
      <trkpt lat="48.43911" lon="-2.82314">
        <ele>195.8</ele>
        <time>2020-07-02T13:57:58Z</time>
      </trkpt>
      <trkpt lat="48.43902" lon="-2.82308">
        <ele>196.3</ele>
        <time>2020-07-02T13:58:01Z</time>
      </trkpt>
      <trkpt lat="48.43892" lon="-2.82301">
        <ele>196.7</ele>
        <time>2020-07-02T13:58:04Z</time>
      </trkpt>
      <trkpt lat="48.43883" lon="-2.82294">
        <ele>196.9</ele>
        <time>2020-07-02T13:58:07Z</time>
      </trkpt>
      <trkpt lat="48.43875" lon="-2.82286">
        <ele>196.9</ele>
        <time>2020-07-02T13:58:10Z</time>
      </trkpt>
      <trkpt lat="48.43868" lon="-2.8228">
        <ele>197</ele>
        <time>2020-07-02T13:58:13Z</time>
      </trkpt>
      <trkpt lat="48.43862" lon="-2.82274">
        <ele>197</ele>
        <time>2020-07-02T13:58:16Z</time>
      </trkpt>
      <trkpt lat="48.43854" lon="-2.82267">
        <ele>196.9</ele>
        <time>2020-07-02T13:58:19Z</time>
      </trkpt>
      <trkpt lat="48.43847" lon="-2.82258">
        <ele>196.8</ele>
        <time>2020-07-02T13:58:22Z</time>
      </trkpt>
      <trkpt lat="48.43839" lon="-2.82249">
        <ele>196.9</ele>
        <time>2020-07-02T13:58:25Z</time>
      </trkpt>
      <trkpt lat="48.4383" lon="-2.82239">
        <ele>197.1</ele>
        <time>2020-07-02T13:58:28Z</time>
      </trkpt>
      <trkpt lat="48.43822" lon="-2.82226">
        <ele>196.9</ele>
        <time>2020-07-02T13:58:31Z</time>
      </trkpt>
      <trkpt lat="48.43815" lon="-2.82213">
        <ele>197</ele>
        <time>2020-07-02T13:58:34Z</time>
      </trkpt>
      <trkpt lat="48.43808" lon="-2.822">
        <ele>197</ele>
        <time>2020-07-02T13:58:37Z</time>
      </trkpt>
      <trkpt lat="48.43802" lon="-2.82187">
        <ele>196.6</ele>
        <time>2020-07-02T13:58:40Z</time>
      </trkpt>
      <trkpt lat="48.43797" lon="-2.82178">
        <ele>195.5</ele>
        <time>2020-07-02T13:58:43Z</time>
      </trkpt>
      <trkpt lat="48.43793" lon="-2.82173">
        <ele>194.5</ele>
        <time>2020-07-02T13:58:47Z</time>
      </trkpt>
      <trkpt lat="48.43787" lon="-2.8217">
        <ele>192.8</ele>
        <time>2020-07-02T13:58:51Z</time>
      </trkpt>
      <trkpt lat="48.43786" lon="-2.82163">
        <ele>192</ele>
        <time>2020-07-02T13:58:55Z</time>
      </trkpt>
      <trkpt lat="48.4379" lon="-2.82158">
        <ele>192.2</ele>
        <time>2020-07-02T13:58:58Z</time>
      </trkpt>
      <trkpt lat="48.43794" lon="-2.82153">
        <ele>192.6</ele>
        <time>2020-07-02T13:59:01Z</time>
      </trkpt>
      <trkpt lat="48.43794" lon="-2.82146">
        <ele>193.2</ele>
        <time>2020-07-02T13:59:04Z</time>
      </trkpt>
      <trkpt lat="48.43792" lon="-2.82134">
        <ele>193.2</ele>
        <time>2020-07-02T13:59:07Z</time>
      </trkpt>
      <trkpt lat="48.43789" lon="-2.82118">
        <ele>193.3</ele>
        <time>2020-07-02T13:59:10Z</time>
      </trkpt>
      <trkpt lat="48.43789" lon="-2.82102">
        <ele>193.2</ele>
        <time>2020-07-02T13:59:13Z</time>
      </trkpt>
      <trkpt lat="48.4379" lon="-2.8209">
        <ele>193.2</ele>
        <time>2020-07-02T13:59:16Z</time>
      </trkpt>
      <trkpt lat="48.43792" lon="-2.82081">
        <ele>193.3</ele>
        <time>2020-07-02T13:59:19Z</time>
      </trkpt>
      <trkpt lat="48.43793" lon="-2.82071">
        <ele>193.9</ele>
        <time>2020-07-02T13:59:22Z</time>
      </trkpt>
      <trkpt lat="48.43794" lon="-2.82062">
        <ele>195</ele>
        <time>2020-07-02T13:59:25Z</time>
      </trkpt>
      <trkpt lat="48.43796" lon="-2.82052">
        <ele>195.9</ele>
        <time>2020-07-02T13:59:28Z</time>
      </trkpt>
      <trkpt lat="48.43799" lon="-2.82041">
        <ele>196.9</ele>
        <time>2020-07-02T13:59:31Z</time>
      </trkpt>
      <trkpt lat="48.43803" lon="-2.8203">
        <ele>197.8</ele>
        <time>2020-07-02T13:59:34Z</time>
      </trkpt>
      <trkpt lat="48.43803" lon="-2.82018">
        <ele>198.7</ele>
        <time>2020-07-02T13:59:37Z</time>
      </trkpt>
      <trkpt lat="48.43803" lon="-2.82005">
        <ele>198.9</ele>
        <time>2020-07-02T13:59:40Z</time>
      </trkpt>
      <trkpt lat="48.43804" lon="-2.81992">
        <ele>199</ele>
        <time>2020-07-02T13:59:43Z</time>
      </trkpt>
      <trkpt lat="48.43805" lon="-2.81978">
        <ele>198.7</ele>
        <time>2020-07-02T13:59:46Z</time>
      </trkpt>
      <trkpt lat="48.43806" lon="-2.81964">
        <ele>197.8</ele>
        <time>2020-07-02T13:59:49Z</time>
      </trkpt>
      <trkpt lat="48.43806" lon="-2.81951">
        <ele>196.9</ele>
        <time>2020-07-02T13:59:52Z</time>
      </trkpt>
      <trkpt lat="48.43804" lon="-2.81934">
        <ele>196.4</ele>
        <time>2020-07-02T13:59:55Z</time>
      </trkpt>
      <trkpt lat="48.43802" lon="-2.81916">
        <ele>196.1</ele>
        <time>2020-07-02T13:59:58Z</time>
      </trkpt>
      <trkpt lat="48.438" lon="-2.81896">
        <ele>195.3</ele>
        <time>2020-07-02T14:00:01Z</time>
      </trkpt>
      <trkpt lat="48.43797" lon="-2.81877">
        <ele>194.5</ele>
        <time>2020-07-02T14:00:04Z</time>
      </trkpt>
      <trkpt lat="48.43793" lon="-2.81858">
        <ele>193.4</ele>
        <time>2020-07-02T14:00:07Z</time>
      </trkpt>
      <trkpt lat="48.43788" lon="-2.81843">
        <ele>192.9</ele>
        <time>2020-07-02T14:00:10Z</time>
      </trkpt>
      <trkpt lat="48.43782" lon="-2.81834">
        <ele>193</ele>
        <time>2020-07-02T14:00:13Z</time>
      </trkpt>
      <trkpt lat="48.43775" lon="-2.81832">
        <ele>193.1</ele>
        <time>2020-07-02T14:00:16Z</time>
      </trkpt>
      <trkpt lat="48.43766" lon="-2.81832">
        <ele>193.9</ele>
        <time>2020-07-02T14:00:19Z</time>
      </trkpt>
      <trkpt lat="48.43755" lon="-2.81831">
        <ele>194.4</ele>
        <time>2020-07-02T14:00:22Z</time>
      </trkpt>
      <trkpt lat="48.43748" lon="-2.81825">
        <ele>194.3</ele>
        <time>2020-07-02T14:00:25Z</time>
      </trkpt>
      <trkpt lat="48.43745" lon="-2.81811">
        <ele>194.1</ele>
        <time>2020-07-02T14:00:28Z</time>
      </trkpt>
      <trkpt lat="48.43744" lon="-2.81795">
        <ele>193</ele>
        <time>2020-07-02T14:00:31Z</time>
      </trkpt>
      <trkpt lat="48.43746" lon="-2.81777">
        <ele>191.5</ele>
        <time>2020-07-02T14:00:34Z</time>
      </trkpt>
      <trkpt lat="48.43749" lon="-2.81757">
        <ele>190.4</ele>
        <time>2020-07-02T14:00:37Z</time>
      </trkpt>
      <trkpt lat="48.43753" lon="-2.81739">
        <ele>189.8</ele>
        <time>2020-07-02T14:00:40Z</time>
      </trkpt>
      <trkpt lat="48.43758" lon="-2.81724">
        <ele>190.3</ele>
        <time>2020-07-02T14:00:43Z</time>
      </trkpt>
      <trkpt lat="48.43765" lon="-2.81709">
        <ele>191</ele>
        <time>2020-07-02T14:00:46Z</time>
      </trkpt>
      <trkpt lat="48.43774" lon="-2.81691">
        <ele>191.2</ele>
        <time>2020-07-02T14:00:49Z</time>
      </trkpt>
      <trkpt lat="48.43783" lon="-2.81672">
        <ele>191.2</ele>
        <time>2020-07-02T14:00:52Z</time>
      </trkpt>
      <trkpt lat="48.43791" lon="-2.81653">
        <ele>191.4</ele>
        <time>2020-07-02T14:00:55Z</time>
      </trkpt>
      <trkpt lat="48.43798" lon="-2.81636">
        <ele>192</ele>
        <time>2020-07-02T14:00:58Z</time>
      </trkpt>
      <trkpt lat="48.43805" lon="-2.8162">
        <ele>192.3</ele>
        <time>2020-07-02T14:01:01Z</time>
      </trkpt>
      <trkpt lat="48.43811" lon="-2.81606">
        <ele>192.6</ele>
        <time>2020-07-02T14:01:04Z</time>
      </trkpt>
      <trkpt lat="48.43816" lon="-2.81596">
        <ele>193.2</ele>
        <time>2020-07-02T14:01:07Z</time>
      </trkpt>
      <trkpt lat="48.43815" lon="-2.81586">
        <ele>193.5</ele>
        <time>2020-07-02T14:01:10Z</time>
      </trkpt>
      <trkpt lat="48.43807" lon="-2.81581">
        <ele>193.2</ele>
        <time>2020-07-02T14:01:13Z</time>
      </trkpt>
      <trkpt lat="48.43796" lon="-2.81574">
        <ele>192.4</ele>
        <time>2020-07-02T14:01:16Z</time>
      </trkpt>
      <trkpt lat="48.43782" lon="-2.81561">
        <ele>191.2</ele>
        <time>2020-07-02T14:01:19Z</time>
      </trkpt>
      <trkpt lat="48.43766" lon="-2.81544">
        <ele>189.7</ele>
        <time>2020-07-02T14:01:22Z</time>
      </trkpt>
      <trkpt lat="48.43748" lon="-2.81521">
        <ele>188</ele>
        <time>2020-07-02T14:01:25Z</time>
      </trkpt>
      <trkpt lat="48.4373" lon="-2.81499">
        <ele>186.2</ele>
        <time>2020-07-02T14:01:28Z</time>
      </trkpt>
      <trkpt lat="48.43712" lon="-2.81474">
        <ele>184.4</ele>
        <time>2020-07-02T14:01:31Z</time>
      </trkpt>
      <trkpt lat="48.43698" lon="-2.81447">
        <ele>182.8</ele>
        <time>2020-07-02T14:01:34Z</time>
      </trkpt>
      <trkpt lat="48.43686" lon="-2.81422">
        <ele>180.9</ele>
        <time>2020-07-02T14:01:37Z</time>
      </trkpt>
      <trkpt lat="48.43687" lon="-2.81401">
        <ele>180</ele>
        <time>2020-07-02T14:01:40Z</time>
      </trkpt>
      <trkpt lat="48.437" lon="-2.81385">
        <ele>179.6</ele>
        <time>2020-07-02T14:01:43Z</time>
      </trkpt>
      <trkpt lat="48.43711" lon="-2.8137">
        <ele>179.4</ele>
        <time>2020-07-02T14:01:46Z</time>
      </trkpt>
      <trkpt lat="48.43718" lon="-2.81352">
        <ele>178.9</ele>
        <time>2020-07-02T14:01:49Z</time>
      </trkpt>
      <trkpt lat="48.43726" lon="-2.81328">
        <ele>178.1</ele>
        <time>2020-07-02T14:01:52Z</time>
      </trkpt>
      <trkpt lat="48.43728" lon="-2.81303">
        <ele>177.8</ele>
        <time>2020-07-02T14:01:55Z</time>
      </trkpt>
      <trkpt lat="48.43724" lon="-2.81285">
        <ele>177.9</ele>
        <time>2020-07-02T14:01:58Z</time>
      </trkpt>
      <trkpt lat="48.4372" lon="-2.8127">
        <ele>178.8</ele>
        <time>2020-07-02T14:02:01Z</time>
      </trkpt>
      <trkpt lat="48.43718" lon="-2.81257">
        <ele>180.4</ele>
        <time>2020-07-02T14:02:04Z</time>
      </trkpt>
      <trkpt lat="48.43715" lon="-2.81248">
        <ele>182.5</ele>
        <time>2020-07-02T14:02:07Z</time>
      </trkpt>
      <trkpt lat="48.43713" lon="-2.81241">
        <ele>184.5</ele>
        <time>2020-07-02T14:02:10Z</time>
      </trkpt>
      <trkpt lat="48.43711" lon="-2.81233">
        <ele>186.9</ele>
        <time>2020-07-02T14:02:14Z</time>
      </trkpt>
      <trkpt lat="48.43708" lon="-2.81225">
        <ele>188.9</ele>
        <time>2020-07-02T14:02:17Z</time>
      </trkpt>
      <trkpt lat="48.43707" lon="-2.81216">
        <ele>190.7</ele>
        <time>2020-07-02T14:02:20Z</time>
      </trkpt>
      <trkpt lat="48.43705" lon="-2.81206">
        <ele>192.3</ele>
        <time>2020-07-02T14:02:23Z</time>
      </trkpt>
      <trkpt lat="48.43702" lon="-2.81196">
        <ele>193.3</ele>
        <time>2020-07-02T14:02:26Z</time>
      </trkpt>
      <trkpt lat="48.43698" lon="-2.81187">
        <ele>193.3</ele>
        <time>2020-07-02T14:02:29Z</time>
      </trkpt>
      <trkpt lat="48.43695" lon="-2.81179">
        <ele>193.1</ele>
        <time>2020-07-02T14:02:32Z</time>
      </trkpt>
      <trkpt lat="48.43693" lon="-2.81171">
        <ele>192.6</ele>
        <time>2020-07-02T14:02:35Z</time>
      </trkpt>
      <trkpt lat="48.43692" lon="-2.81161">
        <ele>192.1</ele>
        <time>2020-07-02T14:02:38Z</time>
      </trkpt>
      <trkpt lat="48.43692" lon="-2.81153">
        <ele>192.4</ele>
        <time>2020-07-02T14:02:41Z</time>
      </trkpt>
      <trkpt lat="48.43693" lon="-2.81145">
        <ele>193.6</ele>
        <time>2020-07-02T14:02:44Z</time>
      </trkpt>
      <trkpt lat="48.43696" lon="-2.81137">
        <ele>195.4</ele>
        <time>2020-07-02T14:02:47Z</time>
      </trkpt>
      <trkpt lat="48.43701" lon="-2.81128">
        <ele>197.2</ele>
        <time>2020-07-02T14:02:50Z</time>
      </trkpt>
      <trkpt lat="48.43707" lon="-2.81117">
        <ele>198.2</ele>
        <time>2020-07-02T14:02:53Z</time>
      </trkpt>
      <trkpt lat="48.43714" lon="-2.81107">
        <ele>198.5</ele>
        <time>2020-07-02T14:02:56Z</time>
      </trkpt>
      <trkpt lat="48.43721" lon="-2.81097">
        <ele>198.3</ele>
        <time>2020-07-02T14:02:59Z</time>
      </trkpt>
      <trkpt lat="48.43729" lon="-2.81086">
        <ele>197.9</ele>
        <time>2020-07-02T14:03:02Z</time>
      </trkpt>
      <trkpt lat="48.43736" lon="-2.81076">
        <ele>197.8</ele>
        <time>2020-07-02T14:03:05Z</time>
      </trkpt>
      <trkpt lat="48.43744" lon="-2.81067">
        <ele>198.6</ele>
        <time>2020-07-02T14:03:08Z</time>
      </trkpt>
      <trkpt lat="48.43751" lon="-2.8106">
        <ele>199.5</ele>
        <time>2020-07-02T14:03:11Z</time>
      </trkpt>
      <trkpt lat="48.43758" lon="-2.81051">
        <ele>200.1</ele>
        <time>2020-07-02T14:03:14Z</time>
      </trkpt>
      <trkpt lat="48.43769" lon="-2.81041">
        <ele>199.6</ele>
        <time>2020-07-02T14:03:17Z</time>
      </trkpt>
      <trkpt lat="48.4378" lon="-2.81036">
        <ele>198.1</ele>
        <time>2020-07-02T14:03:20Z</time>
      </trkpt>
      <trkpt lat="48.43789" lon="-2.8104">
        <ele>196.2</ele>
        <time>2020-07-02T14:03:23Z</time>
      </trkpt>
      <trkpt lat="48.43796" lon="-2.81051">
        <ele>193.6</ele>
        <time>2020-07-02T14:03:26Z</time>
      </trkpt>
      <trkpt lat="48.438" lon="-2.81065">
        <ele>191.2</ele>
        <time>2020-07-02T14:03:29Z</time>
      </trkpt>
      <trkpt lat="48.43805" lon="-2.81071">
        <ele>188.9</ele>
        <time>2020-07-02T14:03:32Z</time>
      </trkpt>
      <trkpt lat="48.43813" lon="-2.81067">
        <ele>187.8</ele>
        <time>2020-07-02T14:03:35Z</time>
      </trkpt>
      <trkpt lat="48.43822" lon="-2.8106">
        <ele>187.7</ele>
        <time>2020-07-02T14:03:38Z</time>
      </trkpt>
      <trkpt lat="48.43831" lon="-2.81055">
        <ele>188.7</ele>
        <time>2020-07-02T14:03:41Z</time>
      </trkpt>
      <trkpt lat="48.43839" lon="-2.81048">
        <ele>190.7</ele>
        <time>2020-07-02T14:03:44Z</time>
      </trkpt>
      <trkpt lat="48.43846" lon="-2.81039">
        <ele>192.1</ele>
        <time>2020-07-02T14:03:47Z</time>
      </trkpt>
      <trkpt lat="48.43853" lon="-2.81027">
        <ele>193.8</ele>
        <time>2020-07-02T14:03:50Z</time>
      </trkpt>
      <trkpt lat="48.43864" lon="-2.81008">
        <ele>194.6</ele>
        <time>2020-07-02T14:03:53Z</time>
      </trkpt>
      <trkpt lat="48.43875" lon="-2.80987">
        <ele>194.8</ele>
        <time>2020-07-02T14:03:56Z</time>
      </trkpt>
      <trkpt lat="48.43894" lon="-2.80965">
        <ele>191.1</ele>
        <time>2020-07-02T14:03:59Z</time>
      </trkpt>
      <trkpt lat="48.43915" lon="-2.80947">
        <ele>186.8</ele>
        <time>2020-07-02T14:04:02Z</time>
      </trkpt>
      <trkpt lat="48.43932" lon="-2.80934">
        <ele>182.4</ele>
        <time>2020-07-02T14:04:05Z</time>
      </trkpt>
      <trkpt lat="48.43944" lon="-2.80922">
        <ele>179.3</ele>
        <time>2020-07-02T14:04:08Z</time>
      </trkpt>
      <trkpt lat="48.4395" lon="-2.80911">
        <ele>177.7</ele>
        <time>2020-07-02T14:04:11Z</time>
      </trkpt>
      <trkpt lat="48.43954" lon="-2.80901">
        <ele>176.5</ele>
        <time>2020-07-02T14:04:14Z</time>
      </trkpt>
      <trkpt lat="48.43957" lon="-2.80881">
        <ele>175</ele>
        <time>2020-07-02T14:04:17Z</time>
      </trkpt>
      <trkpt lat="48.43956" lon="-2.80861">
        <ele>174.7</ele>
        <time>2020-07-02T14:04:20Z</time>
      </trkpt>
      <trkpt lat="48.43954" lon="-2.80846">
        <ele>175.8</ele>
        <time>2020-07-02T14:04:23Z</time>
      </trkpt>
      <trkpt lat="48.43951" lon="-2.80835">
        <ele>177.1</ele>
        <time>2020-07-02T14:04:26Z</time>
      </trkpt>
      <trkpt lat="48.4395" lon="-2.80824">
        <ele>178.1</ele>
        <time>2020-07-02T14:04:29Z</time>
      </trkpt>
      <trkpt lat="48.43952" lon="-2.80816">
        <ele>179.4</ele>
        <time>2020-07-02T14:04:32Z</time>
      </trkpt>
      <trkpt lat="48.43958" lon="-2.80811">
        <ele>180.6</ele>
        <time>2020-07-02T14:04:35Z</time>
      </trkpt>
      <trkpt lat="48.43966" lon="-2.80806">
        <ele>181.8</ele>
        <time>2020-07-02T14:04:38Z</time>
      </trkpt>
      <trkpt lat="48.43975" lon="-2.80804">
        <ele>182.5</ele>
        <time>2020-07-02T14:04:41Z</time>
      </trkpt>
      <trkpt lat="48.43986" lon="-2.80806">
        <ele>182.4</ele>
        <time>2020-07-02T14:04:44Z</time>
      </trkpt>
      <trkpt lat="48.43998" lon="-2.80805">
        <ele>182.8</ele>
        <time>2020-07-02T14:04:47Z</time>
      </trkpt>
      <trkpt lat="48.44006" lon="-2.80799">
        <ele>182.8</ele>
        <time>2020-07-02T14:04:50Z</time>
      </trkpt>
      <trkpt lat="48.44012" lon="-2.8079">
        <ele>183.1</ele>
        <time>2020-07-02T14:04:53Z</time>
      </trkpt>
      <trkpt lat="48.44019" lon="-2.80778">
        <ele>184.6</ele>
        <time>2020-07-02T14:04:56Z</time>
      </trkpt>
      <trkpt lat="48.44026" lon="-2.80765">
        <ele>186.6</ele>
        <time>2020-07-02T14:04:59Z</time>
      </trkpt>
      <trkpt lat="48.44036" lon="-2.80752">
        <ele>188.5</ele>
        <time>2020-07-02T14:05:02Z</time>
      </trkpt>
      <trkpt lat="48.44047" lon="-2.80739">
        <ele>189.6</ele>
        <time>2020-07-02T14:05:05Z</time>
      </trkpt>
      <trkpt lat="48.44058" lon="-2.80728">
        <ele>191.1</ele>
        <time>2020-07-02T14:05:08Z</time>
      </trkpt>
      <trkpt lat="48.44068" lon="-2.80717">
        <ele>193.5</ele>
        <time>2020-07-02T14:05:11Z</time>
      </trkpt>
      <trkpt lat="48.44077" lon="-2.80704">
        <ele>195.8</ele>
        <time>2020-07-02T14:05:14Z</time>
      </trkpt>
      <trkpt lat="48.44088" lon="-2.80689">
        <ele>197.6</ele>
        <time>2020-07-02T14:05:17Z</time>
      </trkpt>
      <trkpt lat="48.441" lon="-2.80672">
        <ele>198</ele>
        <time>2020-07-02T14:05:20Z</time>
      </trkpt>
      <trkpt lat="48.4411" lon="-2.80659">
        <ele>196.4</ele>
        <time>2020-07-02T14:05:23Z</time>
      </trkpt>
      <trkpt lat="48.44119" lon="-2.80647">
        <ele>193.7</ele>
        <time>2020-07-02T14:05:26Z</time>
      </trkpt>
      <trkpt lat="48.44127" lon="-2.80636">
        <ele>190.5</ele>
        <time>2020-07-02T14:05:29Z</time>
      </trkpt>
      <trkpt lat="48.44138" lon="-2.80627">
        <ele>186.5</ele>
        <time>2020-07-02T14:05:32Z</time>
      </trkpt>
      <trkpt lat="48.4415" lon="-2.80617">
        <ele>183.8</ele>
        <time>2020-07-02T14:05:35Z</time>
      </trkpt>
      <trkpt lat="48.44162" lon="-2.80602">
        <ele>182.9</ele>
        <time>2020-07-02T14:05:38Z</time>
      </trkpt>
      <trkpt lat="48.44174" lon="-2.8058">
        <ele>182</ele>
        <time>2020-07-02T14:05:41Z</time>
      </trkpt>
      <trkpt lat="48.44187" lon="-2.80553">
        <ele>179.4</ele>
        <time>2020-07-02T14:05:44Z</time>
      </trkpt>
      <trkpt lat="48.44198" lon="-2.80527">
        <ele>176.3</ele>
        <time>2020-07-02T14:05:47Z</time>
      </trkpt>
      <trkpt lat="48.44205" lon="-2.80508">
        <ele>174.2</ele>
        <time>2020-07-02T14:05:50Z</time>
      </trkpt>
      <trkpt lat="48.4421" lon="-2.80494">
        <ele>173.2</ele>
        <time>2020-07-02T14:05:53Z</time>
      </trkpt>
      <trkpt lat="48.44215" lon="-2.80479">
        <ele>172.3</ele>
        <time>2020-07-02T14:05:56Z</time>
      </trkpt>
      <trkpt lat="48.44219" lon="-2.80465">
        <ele>172</ele>
        <time>2020-07-02T14:05:59Z</time>
      </trkpt>
      <trkpt lat="48.4422" lon="-2.80452">
        <ele>171.8</ele>
        <time>2020-07-02T14:06:02Z</time>
      </trkpt>
      <trkpt lat="48.44222" lon="-2.80437">
        <ele>170.8</ele>
        <time>2020-07-02T14:06:05Z</time>
      </trkpt>
      <trkpt lat="48.44223" lon="-2.80429">
        <ele>169.9</ele>
        <time>2020-07-02T14:06:08Z</time>
      </trkpt>
      <trkpt lat="48.4422" lon="-2.80418">
        <ele>167.6</ele>
        <time>2020-07-02T14:06:18Z</time>
      </trkpt>
      <trkpt lat="48.44216" lon="-2.80407">
        <ele>167.2</ele>
        <time>2020-07-02T14:06:21Z</time>
      </trkpt>
      <trkpt lat="48.44214" lon="-2.80399">
        <ele>167.2</ele>
        <time>2020-07-02T14:06:24Z</time>
      </trkpt>
      <trkpt lat="48.44212" lon="-2.8039">
        <ele>167.8</ele>
        <time>2020-07-02T14:06:28Z</time>
      </trkpt>
      <trkpt lat="48.44211" lon="-2.80383">
        <ele>168.6</ele>
        <time>2020-07-02T14:06:31Z</time>
      </trkpt>
      <trkpt lat="48.44209" lon="-2.80375">
        <ele>169.8</ele>
        <time>2020-07-02T14:06:34Z</time>
      </trkpt>
      <trkpt lat="48.44206" lon="-2.80368">
        <ele>171.3</ele>
        <time>2020-07-02T14:06:37Z</time>
      </trkpt>
      <trkpt lat="48.44204" lon="-2.8036">
        <ele>172.5</ele>
        <time>2020-07-02T14:06:40Z</time>
      </trkpt>
      <trkpt lat="48.442" lon="-2.80353">
        <ele>173.5</ele>
        <time>2020-07-02T14:06:44Z</time>
      </trkpt>
    </trkseg>
  </trk>
</gpx>